SIA9134 WSSS-KJFK
Flight info
| Callsign | SIA9134 |
|---|---|
| Flight time | 17h 11m |
| Altitude | 32000 |
| Route | TOMAN5B TOMAN L625 AKMON/K0932F350 L625 ANOKI/N0503F350 L625 AKOTA/N0501F360 L625 MEVIN/N0501F350 B462 KAZIK Y59 AMMEK/N0494F370 Y59 AZAMA Y57 POROT Y577 MAKMU R580 OPULO/N0480F390 DCT OMOTO R580 ORCCA DCT SQA/N0496F410 DCT 63N146W DCT HWKGV DCT 62N30 DCT 59N20 DCT ALGAR DCT YPA DCT 50N100W DCT 4690N DCT TWIGS DCT JHW Q476 WLKES |
| Aircraft | A359/H-SDE1E2E3GHIJ1J2J3J5M1P2RWXYZ/LB1D1 |
Departure
| Time | 2026-05-08 12:54 |
|---|---|
| Airport | Singapore Changi Airport (WSSS) |
Arrival
| Time | 2026-05-09 06:05 |
|---|---|
| Airport | John F. Kennedy International Airport (KJFK) |
| Time | Latitude | Longitude | Altitude | Speed | Heading |
|---|---|---|---|---|---|
| 2026-05-08 12:30 | 1.34909 | 103.98775 | 37 ft | 0 kts | 292° |
| 2026-05-08 12:43 | 1.34906 | 103.98782 | 36 ft | 4 kts | 295° |
| 2026-05-08 12:43 | 1.34893 | 103.98805 | 34 ft | 4 kts | 310° |
| 2026-05-08 12:44 | 1.34873 | 103.98822 | 34 ft | 4 kts | 334° |
| 2026-05-08 12:44 | 1.34848 | 103.98829 | 33 ft | 4 kts | 9° |
| 2026-05-08 12:44 | 1.34837 | 103.98826 | 33 ft | 5 kts | 23° |
| 2026-05-08 12:47 | 1.34844 | 103.98829 | 33 ft | 7 kts | 23° |
| 2026-05-08 12:47 | 1.34899 | 103.98857 | 36 ft | 10 kts | 39° |
| 2026-05-08 12:47 | 1.34898 | 103.98956 | 36 ft | 20 kts | 113° |
| 2026-05-08 12:47 | 1.34851 | 103.99069 | 36 ft | 16 kts | 111° |
| 2026-05-08 12:48 | 1.34889 | 103.99153 | 36 ft | 14 kts | 25° |
| 2026-05-08 12:48 | 1.34981 | 103.99188 | 36 ft | 14 kts | 21° |
| 2026-05-08 12:48 | 1.35080 | 103.99230 | 36 ft | 20 kts | 22° |
| 2026-05-08 12:48 | 1.35213 | 103.99287 | 36 ft | 21 kts | 23° |
| 2026-05-08 12:49 | 1.35346 | 103.99343 | 36 ft | 21 kts | 23° |
| 2026-05-08 12:49 | 1.35472 | 103.99396 | 36 ft | 19 kts | 23° |
| 2026-05-08 12:49 | 1.35593 | 103.99447 | 36 ft | 19 kts | 23° |
| 2026-05-08 12:49 | 1.35716 | 103.99498 | 36 ft | 19 kts | 22° |
| 2026-05-08 12:50 | 1.35839 | 103.99550 | 36 ft | 19 kts | 22° |
| 2026-05-08 12:50 | 1.35964 | 103.99601 | 36 ft | 20 kts | 24° |
| 2026-05-08 12:50 | 1.36088 | 103.99654 | 36 ft | 17 kts | 23° |
| 2026-05-08 12:50 | 1.36189 | 103.99698 | 36 ft | 13 kts | 24° |
| 2026-05-08 12:51 | 1.36250 | 103.99739 | 36 ft | 4 kts | 71° |
| 2026-05-08 12:51 | 1.36244 | 103.99766 | 36 ft | 0 kts | 108° |
| 2026-05-08 12:51 | 1.36243 | 103.99768 | 36 ft | 3 kts | 108° |
| 2026-05-08 12:52 | 1.36204 | 103.99860 | 36 ft | 22 kts | 116° |
| 2026-05-08 12:52 | 1.36092 | 103.99857 | 36 ft | 12 kts | 210° |
| 2026-05-08 12:52 | 1.36056 | 103.99841 | 36 ft | 0 kts | 204° |
| 2026-05-08 12:53 | 1.36052 | 103.99839 | 36 ft | 7 kts | 204° |
| 2026-05-08 12:53 | 1.35815 | 103.99736 | 36 ft | 66 kts | 202° |
| 2026-05-08 12:53 | 1.35236 | 103.99492 | 37 ft | 116 kts | 203° |
| 2026-05-08 12:54 | 1.34306 | 103.99094 | 59 ft | 174 kts | 206° |
| 2026-05-08 12:54 | 1.33190 | 103.98617 | 780 ft | 175 kts | 205° |
| 2026-05-08 12:54 | 1.32102 | 103.98143 | 1157 ft | 174 kts | 205° |
| 2026-05-08 12:54 | 1.30928 | 103.97644 | 1219 ft | 197 kts | 203° |
| 2026-05-08 12:55 | 1.29547 | 103.97069 | 1002 ft | 233 kts | 203° |
| 2026-05-08 12:55 | 1.27972 | 103.96409 | 786 ft | 254 kts | 203° |
| 2026-05-08 12:55 | 1.26332 | 103.95724 | 1004 ft | 256 kts | 203° |
| 2026-05-08 12:55 | 1.24764 | 103.95075 | 2072 ft | 263 kts | 202° |
| 2026-05-08 12:56 | 1.23039 | 103.94394 | 3163 ft | 271 kts | 197° |
| 2026-05-08 12:56 | 1.21118 | 103.94340 | 3947 ft | 288 kts | 166° |
| 2026-05-08 12:56 | 1.19296 | 103.95328 | 4431 ft | 316 kts | 138° |
| 2026-05-08 12:56 | 1.17880 | 103.97142 | 4672 ft | 347 kts | 125° |
| 2026-05-08 12:57 | 1.16490 | 103.99070 | 4518 ft | 335 kts | 129° |
| 2026-05-08 12:57 | 1.15001 | 104.00873 | 4299 ft | 353 kts | 129° |
| 2026-05-08 12:57 | 1.13709 | 104.03143 | 4056 ft | 395 kts | 115° |
| 2026-05-08 12:57 | 1.12650 | 104.05743 | 4106 ft | 409 kts | 113° |
| 2026-05-08 12:58 | 1.11606 | 104.08322 | 5060 ft | 392 kts | 114° |
| 2026-05-08 12:58 | 1.10603 | 104.10737 | 5662 ft | 367 kts | 114° |
| 2026-05-08 12:58 | 1.09594 | 104.13107 | 5963 ft | 376 kts | 114° |
| 2026-05-08 12:58 | 1.08541 | 104.15550 | 6017 ft | 390 kts | 114° |
| 2026-05-08 12:59 | 1.07848 | 104.18194 | 6071 ft | 396 kts | 94° |
| 2026-05-08 12:59 | 1.07884 | 104.20901 | 6429 ft | 385 kts | 87° |
| 2026-05-08 12:59 | 1.08040 | 104.23541 | 7177 ft | 376 kts | 87° |
| 2026-05-08 12:59 | 1.08177 | 104.26112 | 8013 ft | 366 kts | 88° |
| 2026-05-08 13:00 | 1.08294 | 104.28646 | 8636 ft | 365 kts | 88° |
| 2026-05-08 13:00 | 1.08401 | 104.31205 | 8955 ft | 374 kts | 88° |
| 2026-05-08 13:00 | 1.08768 | 104.33766 | 9620 ft | 368 kts | 75° |
| 2026-05-08 13:00 | 1.09703 | 104.36104 | 10381 ft | 361 kts | 61° |
| 2026-05-08 13:01 | 1.11039 | 104.38259 | 10678 ft | 370 kts | 56° |
| 2026-05-08 13:01 | 1.12528 | 104.40401 | 10855 ft | 380 kts | 54° |
| 2026-05-08 13:01 | 1.14054 | 104.42544 | 11181 ft | 385 kts | 54° |
| 2026-05-08 13:01 | 1.15615 | 104.44728 | 11577 ft | 388 kts | 54° |
| 2026-05-08 13:02 | 1.17189 | 104.46929 | 11956 ft | 390 kts | 54° |
| 2026-05-08 13:02 | 1.18771 | 104.49140 | 12363 ft | 392 kts | 55° |
| 2026-05-08 13:02 | 1.20364 | 104.51365 | 12756 ft | 395 kts | 54° |
| 2026-05-08 13:02 | 1.21964 | 104.53602 | 13168 ft | 397 kts | 55° |
| 2026-05-08 13:03 | 1.23572 | 104.55849 | 13573 ft | 399 kts | 55° |
| 2026-05-08 13:03 | 1.25191 | 104.58110 | 13923 ft | 401 kts | 55° |
| 2026-05-08 13:03 | 1.26814 | 104.60378 | 14304 ft | 402 kts | 55° |
| 2026-05-08 13:03 | 1.28444 | 104.62655 | 14682 ft | 403 kts | 55° |
| 2026-05-08 13:04 | 1.30076 | 104.64936 | 15043 ft | 404 kts | 55° |
| 2026-05-08 13:04 | 1.31713 | 104.67228 | 15384 ft | 406 kts | 56° |
| 2026-05-08 13:04 | 1.33108 | 104.69676 | 15718 ft | 406 kts | 69° |
| 2026-05-08 13:04 | 1.33755 | 104.72416 | 16037 ft | 407 kts | 85° |
| 2026-05-08 13:05 | 1.33883 | 104.75245 | 16381 ft | 408 kts | 89° |
| 2026-05-08 13:05 | 1.33935 | 104.78087 | 16701 ft | 410 kts | 89° |
| 2026-05-08 13:05 | 1.33988 | 104.80949 | 17022 ft | 413 kts | 89° |
| 2026-05-08 13:05 | 1.34047 | 104.83779 | 17347 ft | 414 kts | 89° |
| 2026-05-08 13:06 | 1.34111 | 104.86664 | 17666 ft | 416 kts | 89° |
| 2026-05-08 13:06 | 1.34179 | 104.89558 | 17981 ft | 418 kts | 89° |
| 2026-05-08 13:06 | 1.34251 | 104.92466 | 18276 ft | 419 kts | 89° |
| 2026-05-08 13:06 | 1.34319 | 104.95384 | 18555 ft | 421 kts | 89° |
| 2026-05-08 13:07 | 1.34388 | 104.98312 | 18827 ft | 422 kts | 89° |
| 2026-05-08 13:07 | 1.34457 | 105.01253 | 19091 ft | 424 kts | 88° |
| 2026-05-08 13:07 | 1.34528 | 105.04200 | 19361 ft | 425 kts | 88° |
| 2026-05-08 13:07 | 1.34598 | 105.07155 | 19643 ft | 426 kts | 88° |
| 2026-05-08 13:08 | 1.34669 | 105.10122 | 19894 ft | 428 kts | 88° |
| 2026-05-08 13:08 | 1.34740 | 105.13097 | 20156 ft | 429 kts | 88° |
| 2026-05-08 13:08 | 1.34812 | 105.16083 | 20423 ft | 430 kts | 88° |
| 2026-05-08 13:08 | 1.34883 | 105.19072 | 20682 ft | 432 kts | 88° |
| 2026-05-08 13:09 | 1.34955 | 105.22081 | 20948 ft | 433 kts | 88° |
| 2026-05-08 13:09 | 1.35028 | 105.25098 | 21219 ft | 435 kts | 88° |
| 2026-05-08 13:09 | 1.35100 | 105.28117 | 21479 ft | 436 kts | 88° |
| 2026-05-08 13:09 | 1.35172 | 105.31154 | 21742 ft | 438 kts | 88° |
| 2026-05-08 13:10 | 1.35245 | 105.34199 | 22014 ft | 439 kts | 88° |
| 2026-05-08 13:10 | 1.35318 | 105.37258 | 22274 ft | 441 kts | 88° |
| 2026-05-08 13:10 | 1.35391 | 105.40323 | 22543 ft | 442 kts | 88° |
| 2026-05-08 13:10 | 1.35465 | 105.43404 | 22811 ft | 444 kts | 88° |
| 2026-05-08 13:11 | 1.35538 | 105.46492 | 23075 ft | 446 kts | 88° |
| 2026-05-08 13:11 | 1.35612 | 105.49590 | 23351 ft | 447 kts | 88° |
| 2026-05-08 13:11 | 1.35685 | 105.52661 | 23590 ft | 448 kts | 88° |
| 2026-05-08 13:11 | 1.35759 | 105.55776 | 23804 ft | 450 kts | 88° |
| 2026-05-08 13:12 | 1.35834 | 105.58911 | 24034 ft | 451 kts | 88° |
| 2026-05-08 13:12 | 1.35908 | 105.62054 | 24245 ft | 453 kts | 88° |
| 2026-05-08 13:12 | 1.35984 | 105.65208 | 24468 ft | 455 kts | 88° |
| 2026-05-08 13:12 | 1.36171 | 105.68349 | 24677 ft | 457 kts | 83° |
| 2026-05-08 13:13 | 1.36755 | 105.71474 | 24909 ft | 458 kts | 75° |
| 2026-05-08 13:13 | 1.37803 | 105.74484 | 25137 ft | 460 kts | 66° |
| 2026-05-08 13:13 | 1.39305 | 105.77315 | 25380 ft | 463 kts | 58° |
| 2026-05-08 13:13 | 1.41230 | 105.79898 | 25643 ft | 466 kts | 50° |
| 2026-05-08 13:14 | 1.43547 | 105.82175 | 25890 ft | 469 kts | 41° |
| 2026-05-08 13:14 | 1.46204 | 105.84082 | 26137 ft | 472 kts | 32° |
| 2026-05-08 13:14 | 1.49131 | 105.85600 | 26391 ft | 476 kts | 27° |
| 2026-05-08 13:14 | 1.52110 | 105.87051 | 26649 ft | 477 kts | 28° |
| 2026-05-08 13:15 | 1.55089 | 105.88539 | 26928 ft | 479 kts | 28° |
| 2026-05-08 13:15 | 1.58062 | 105.90052 | 27224 ft | 481 kts | 28° |
| 2026-05-08 13:15 | 1.61042 | 105.91587 | 27496 ft | 483 kts | 29° |
| 2026-05-08 13:15 | 1.64028 | 105.93134 | 27761 ft | 485 kts | 29° |
| 2026-05-08 13:16 | 1.66987 | 105.94671 | 28053 ft | 487 kts | 29° |
| 2026-05-08 13:16 | 1.70000 | 105.96235 | 28327 ft | 489 kts | 29° |
| 2026-05-08 13:16 | 1.73024 | 105.97804 | 28592 ft | 491 kts | 29° |
| 2026-05-08 13:16 | 1.76059 | 105.99377 | 28818 ft | 493 kts | 29° |
| 2026-05-08 13:17 | 1.79108 | 106.00957 | 29058 ft | 495 kts | 29° |
| 2026-05-08 13:17 | 1.82172 | 106.02544 | 29281 ft | 497 kts | 29° |
| 2026-05-08 13:17 | 1.85245 | 106.04135 | 29509 ft | 499 kts | 29° |
| 2026-05-08 13:17 | 1.88332 | 106.05733 | 29742 ft | 500 kts | 29° |
| 2026-05-08 13:18 | 1.91425 | 106.07335 | 29962 ft | 502 kts | 29° |
| 2026-05-08 13:18 | 1.94529 | 106.08948 | 30138 ft | 503 kts | 29° |
| 2026-05-08 13:18 | 1.97639 | 106.10559 | 30376 ft | 503 kts | 29° |
| 2026-05-08 13:18 | 2.00748 | 106.12164 | 30630 ft | 503 kts | 29° |
| 2026-05-08 13:19 | 2.03858 | 106.13769 | 30871 ft | 503 kts | 29° |
| 2026-05-08 13:19 | 2.06966 | 106.15373 | 31104 ft | 503 kts | 29° |
| 2026-05-08 13:19 | 2.10074 | 106.16979 | 31347 ft | 502 kts | 29° |
| 2026-05-08 13:19 | 2.13173 | 106.18581 | 31583 ft | 502 kts | 29° |
| 2026-05-08 13:20 | 2.16277 | 106.20187 | 31805 ft | 502 kts | 29° |
| 2026-05-08 13:20 | 2.19347 | 106.21775 | 31883 ft | 506 kts | 29° |
| 2026-05-08 13:20 | 2.25655 | 106.25041 | 31888 ft | 515 kts | 29° |
| 2026-05-08 13:21 | 2.32049 | 106.28351 | 31887 ft | 521 kts | 29° |
| 2026-05-08 13:21 | 2.38505 | 106.31691 | 31887 ft | 524 kts | 29° |
| 2026-05-08 13:22 | 2.44981 | 106.35042 | 31884 ft | 525 kts | 29° |
| 2026-05-08 13:22 | 2.51471 | 106.38401 | 31887 ft | 525 kts | 29° |
| 2026-05-08 13:23 | 2.57931 | 106.41747 | 31884 ft | 526 kts | 28° |
| 2026-05-08 13:23 | 2.64425 | 106.45111 | 31884 ft | 526 kts | 28° |
| 2026-05-08 13:24 | 2.70918 | 106.48473 | 31884 ft | 526 kts | 28° |
| 2026-05-08 13:24 | 2.77369 | 106.51820 | 31884 ft | 526 kts | 29° |
| 2026-05-08 13:25 | 2.83866 | 106.55185 | 31884 ft | 526 kts | 28° |
| 2026-05-08 13:25 | 2.90363 | 106.58548 | 31884 ft | 526 kts | 28° |
| 2026-05-08 13:26 | 2.96867 | 106.61909 | 31884 ft | 526 kts | 28° |
| 2026-05-08 13:26 | 3.03370 | 106.65273 | 31884 ft | 526 kts | 28° |
| 2026-05-08 13:27 | 3.09879 | 106.68642 | 31886 ft | 526 kts | 28° |
| 2026-05-08 13:27 | 3.16382 | 106.72009 | 31886 ft | 526 kts | 28° |
| 2026-05-08 13:28 | 3.22888 | 106.75378 | 31886 ft | 526 kts | 28° |
| 2026-05-08 13:28 | 3.29392 | 106.78746 | 31887 ft | 526 kts | 28° |
| 2026-05-08 13:29 | 3.35896 | 106.82115 | 31890 ft | 526 kts | 28° |
| 2026-05-08 13:29 | 3.42340 | 106.85453 | 31886 ft | 526 kts | 28° |
| 2026-05-08 13:30 | 3.48848 | 106.88826 | 31889 ft | 526 kts | 28° |
| 2026-05-08 13:30 | 3.55285 | 106.92217 | 31890 ft | 526 kts | 32° |
| 2026-05-08 13:31 | 3.61365 | 106.96268 | 31889 ft | 525 kts | 36° |
| 2026-05-08 13:31 | 3.67342 | 107.00472 | 31887 ft | 525 kts | 36° |
| 2026-05-08 13:32 | 3.73220 | 107.04645 | 31886 ft | 508 kts | 36° |
| 2026-05-08 13:32 | 3.78903 | 107.08671 | 31890 ft | 493 kts | 36° |
| 2026-05-08 13:33 | 3.84508 | 107.12634 | 31897 ft | 496 kts | 36° |
| 2026-05-08 13:33 | 3.90202 | 107.16659 | 31887 ft | 506 kts | 36° |
| 2026-05-08 13:34 | 3.96002 | 107.20758 | 31890 ft | 514 kts | 36° |
| 2026-05-08 13:34 | 4.01841 | 107.24883 | 31894 ft | 519 kts | 36° |
| 2026-05-08 13:35 | 4.07760 | 107.29066 | 31894 ft | 522 kts | 36° |
| 2026-05-08 13:35 | 4.13696 | 107.33263 | 31890 ft | 523 kts | 36° |
| 2026-05-08 13:36 | 4.19630 | 107.37459 | 31891 ft | 523 kts | 36° |
| 2026-05-08 13:36 | 4.25583 | 107.41668 | 31894 ft | 523 kts | 36° |
| 2026-05-08 13:37 | 4.31525 | 107.45872 | 31896 ft | 523 kts | 36° |
| 2026-05-08 13:37 | 4.37465 | 107.50075 | 31893 ft | 523 kts | 36° |
| 2026-05-08 13:38 | 4.42399 | 107.53566 | 31895 ft | 523 kts | 36° |
| 2026-05-08 13:38 | 4.48329 | 107.57764 | 31895 ft | 523 kts | 36° |
| 2026-05-08 13:39 | 4.54269 | 107.61969 | 31895 ft | 523 kts | 36° |
| 2026-05-08 13:39 | 4.60209 | 107.66175 | 31895 ft | 523 kts | 36° |
| 2026-05-08 13:40 | 4.66147 | 107.70381 | 31895 ft | 523 kts | 36° |
| 2026-05-08 13:40 | 4.72086 | 107.74588 | 31893 ft | 523 kts | 36° |
| 2026-05-08 13:41 | 4.78027 | 107.78797 | 31895 ft | 523 kts | 36° |
| 2026-05-08 13:41 | 4.83925 | 107.82977 | 31895 ft | 523 kts | 36° |
| 2026-05-08 13:42 | 4.89862 | 107.87186 | 31895 ft | 523 kts | 36° |
| 2026-05-08 13:42 | 4.95806 | 107.91400 | 31892 ft | 523 kts | 36° |
| 2026-05-08 13:43 | 5.01749 | 107.95611 | 31889 ft | 523 kts | 36° |
| 2026-05-08 13:43 | 5.07709 | 107.99795 | 31883 ft | 523 kts | 36° |
| 2026-05-08 13:44 | 5.13672 | 108.03973 | 31889 ft | 523 kts | 36° |
| 2026-05-08 13:44 | 5.19634 | 108.08157 | 31889 ft | 523 kts | 36° |
| 2026-05-08 13:45 | 5.25548 | 108.12313 | 31892 ft | 523 kts | 36° |
| 2026-05-08 13:45 | 5.31506 | 108.16502 | 31892 ft | 523 kts | 36° |
| 2026-05-08 13:46 | 5.37463 | 108.20691 | 31889 ft | 523 kts | 36° |
| 2026-05-08 13:46 | 5.43420 | 108.24881 | 31886 ft | 523 kts | 36° |
| 2026-05-08 13:47 | 5.49369 | 108.29067 | 31889 ft | 522 kts | 36° |
| 2026-05-08 13:47 | 5.55320 | 108.33254 | 31889 ft | 522 kts | 36° |
| 2026-05-08 13:48 | 5.61264 | 108.37437 | 31889 ft | 522 kts | 36° |
| 2026-05-08 13:48 | 5.67212 | 108.41625 | 31886 ft | 522 kts | 36° |
| 2026-05-08 13:49 | 5.73118 | 108.45785 | 31886 ft | 522 kts | 36° |
| 2026-05-08 13:49 | 5.79063 | 108.49973 | 31885 ft | 522 kts | 35° |
| 2026-05-08 13:50 | 5.84997 | 108.54154 | 31887 ft | 521 kts | 35° |
| 2026-05-08 13:50 | 5.90923 | 108.58330 | 31887 ft | 520 kts | 35° |
| 2026-05-08 13:51 | 5.96846 | 108.62506 | 31887 ft | 520 kts | 35° |
| 2026-05-08 13:51 | 6.02767 | 108.66681 | 31887 ft | 520 kts | 35° |
| 2026-05-08 13:52 | 6.08689 | 108.70858 | 31884 ft | 520 kts | 35° |
| 2026-05-08 13:52 | 6.14569 | 108.75007 | 31884 ft | 520 kts | 35° |
| 2026-05-08 13:53 | 6.20476 | 108.79176 | 31881 ft | 519 kts | 35° |
| 2026-05-08 13:53 | 6.26385 | 108.83348 | 31881 ft | 519 kts | 35° |
| 2026-05-08 13:54 | 6.32289 | 108.87517 | 31881 ft | 519 kts | 35° |
| 2026-05-08 13:54 | 6.38198 | 108.91691 | 31881 ft | 519 kts | 35° |
| 2026-05-08 13:55 | 6.44108 | 108.95866 | 31884 ft | 519 kts | 35° |
| 2026-05-08 13:56 | 6.52963 | 109.02126 | 31882 ft | 518 kts | 35° |
| 2026-05-08 13:56 | 6.58811 | 109.06261 | 31884 ft | 517 kts | 35° |
| 2026-05-08 13:57 | 6.64699 | 109.10425 | 31885 ft | 517 kts | 35° |
| 2026-05-08 13:57 | 6.70592 | 109.14594 | 31884 ft | 518 kts | 35° |
| 2026-05-08 13:58 | 6.76485 | 109.18765 | 31877 ft | 518 kts | 35° |
| 2026-05-08 13:58 | 6.82384 | 109.22941 | 31877 ft | 518 kts | 34° |
| 2026-05-08 13:59 | 6.88281 | 109.27117 | 31881 ft | 518 kts | 34° |
| 2026-05-08 13:59 | 6.94181 | 109.31296 | 31881 ft | 518 kts | 34° |
| 2026-05-08 14:00 | 7.00074 | 109.35472 | 31882 ft | 518 kts | 34° |
| 2026-05-08 14:00 | 7.05935 | 109.39627 | 31884 ft | 518 kts | 34° |
| 2026-05-08 14:01 | 7.11823 | 109.43802 | 31883 ft | 518 kts | 34° |
| 2026-05-08 14:01 | 7.17722 | 109.47985 | 31885 ft | 519 kts | 34° |
| 2026-05-08 14:02 | 7.23613 | 109.52165 | 31881 ft | 518 kts | 34° |
| 2026-05-08 14:02 | 7.29502 | 109.56345 | 31881 ft | 518 kts | 34° |
| 2026-05-08 14:03 | 7.35388 | 109.60525 | 31881 ft | 518 kts | 34° |
| 2026-05-08 14:03 | 7.41272 | 109.64703 | 31881 ft | 518 kts | 34° |
| 2026-05-08 14:04 | 7.47160 | 109.68886 | 31881 ft | 518 kts | 34° |
| 2026-05-08 14:04 | 7.53006 | 109.73041 | 31881 ft | 518 kts | 34° |
| 2026-05-08 14:05 | 7.58889 | 109.77223 | 31884 ft | 518 kts | 34° |
| 2026-05-08 14:05 | 7.64771 | 109.81406 | 31884 ft | 518 kts | 34° |
| 2026-05-08 14:06 | 7.70663 | 109.85598 | 31884 ft | 519 kts | 34° |
| 2026-05-08 14:06 | 7.76557 | 109.89792 | 31884 ft | 519 kts | 34° |
| 2026-05-08 14:07 | 7.82410 | 109.93959 | 31878 ft | 519 kts | 34° |
| 2026-05-08 14:07 | 7.88303 | 109.98155 | 31881 ft | 518 kts | 34° |
| 2026-05-08 14:08 | 7.94173 | 110.02338 | 31881 ft | 517 kts | 34° |
| 2026-05-08 14:08 | 8.00049 | 110.06525 | 31881 ft | 517 kts | 34° |
| 2026-05-08 14:09 | 8.05919 | 110.10710 | 31881 ft | 516 kts | 34° |
| 2026-05-08 14:09 | 8.11790 | 110.14897 | 31883 ft | 517 kts | 34° |
| 2026-05-08 14:10 | 8.17623 | 110.19058 | 31883 ft | 517 kts | 34° |
| 2026-05-08 14:10 | 8.20557 | 110.21152 | 32047 ft | 513 kts | 34° |
| 2026-05-08 14:10 | 8.23429 | 110.23207 | 32751 ft | 499 kts | 35° |
| 2026-05-08 14:10 | 8.26231 | 110.25221 | 33412 ft | 491 kts | 35° |
| 2026-05-08 14:11 | 8.28997 | 110.27215 | 33766 ft | 488 kts | 35° |
| 2026-05-08 14:11 | 8.31755 | 110.29204 | 34035 ft | 486 kts | 35° |
| 2026-05-08 14:11 | 8.34506 | 110.31188 | 34192 ft | 486 kts | 35° |
| 2026-05-08 14:11 | 8.37252 | 110.33168 | 34415 ft | 485 kts | 35° |
| 2026-05-08 14:12 | 8.40003 | 110.35152 | 34567 ft | 485 kts | 35° |
| 2026-05-08 14:12 | 8.42744 | 110.37128 | 34792 ft | 484 kts | 35° |
| 2026-05-08 14:12 | 8.45487 | 110.39106 | 34876 ft | 486 kts | 35° |
| 2026-05-08 14:13 | 8.51032 | 110.43103 | 34885 ft | 493 kts | 35° |
| 2026-05-08 14:13 | 8.56612 | 110.47128 | 34885 ft | 499 kts | 35° |
| 2026-05-08 14:14 | 8.62288 | 110.51224 | 34884 ft | 503 kts | 35° |
| 2026-05-08 14:14 | 8.67984 | 110.55336 | 34884 ft | 504 kts | 35° |
| 2026-05-08 14:15 | 8.73702 | 110.59464 | 34882 ft | 505 kts | 35° |
| 2026-05-08 14:15 | 8.79387 | 110.63572 | 34883 ft | 506 kts | 35° |
| 2026-05-08 14:16 | 8.85101 | 110.67702 | 34885 ft | 506 kts | 35° |
| 2026-05-08 14:16 | 8.90821 | 110.71837 | 34884 ft | 506 kts | 35° |
| 2026-05-08 14:17 | 8.96556 | 110.75985 | 34886 ft | 506 kts | 35° |
| 2026-05-08 14:17 | 9.02279 | 110.80126 | 34884 ft | 506 kts | 35° |
| 2026-05-08 14:18 | 9.08007 | 110.84272 | 34887 ft | 506 kts | 35° |
| 2026-05-08 14:18 | 9.13696 | 110.88392 | 34884 ft | 506 kts | 35° |
| 2026-05-08 14:19 | 9.19420 | 110.92539 | 34884 ft | 506 kts | 35° |
| 2026-05-08 14:19 | 9.25126 | 110.96674 | 34886 ft | 506 kts | 35° |
| 2026-05-08 14:20 | 9.30846 | 111.00821 | 34883 ft | 505 kts | 35° |
| 2026-05-08 14:20 | 9.36558 | 111.04964 | 34883 ft | 505 kts | 35° |
| 2026-05-08 14:21 | 9.42268 | 111.09108 | 34883 ft | 505 kts | 35° |
| 2026-05-08 14:21 | 9.47984 | 111.13257 | 34883 ft | 506 kts | 35° |
| 2026-05-08 14:22 | 9.53702 | 111.17410 | 34883 ft | 506 kts | 36° |
| 2026-05-08 14:22 | 9.59417 | 111.21569 | 34882 ft | 506 kts | 36° |
| 2026-05-08 14:23 | 9.65141 | 111.25727 | 34884 ft | 506 kts | 36° |
| 2026-05-08 14:23 | 9.70825 | 111.29857 | 34883 ft | 506 kts | 36° |
| 2026-05-08 14:24 | 9.76542 | 111.34014 | 34881 ft | 506 kts | 36° |
| 2026-05-08 14:24 | 9.82263 | 111.38178 | 34885 ft | 506 kts | 36° |
| 2026-05-08 14:25 | 9.87978 | 111.42339 | 34883 ft | 506 kts | 36° |
| 2026-05-08 14:25 | 9.93692 | 111.46501 | 34886 ft | 505 kts | 36° |
| 2026-05-08 14:26 | 9.99406 | 111.50666 | 34886 ft | 506 kts | 36° |
| 2026-05-08 14:26 | 10.05120 | 111.54832 | 34884 ft | 505 kts | 36° |
| 2026-05-08 14:27 | 10.10830 | 111.58997 | 34884 ft | 505 kts | 36° |
| 2026-05-08 14:27 | 10.16540 | 111.63163 | 34889 ft | 505 kts | 36° |
| 2026-05-08 14:28 | 10.22248 | 111.67331 | 34886 ft | 505 kts | 36° |
| 2026-05-08 14:28 | 10.27956 | 111.71500 | 34886 ft | 505 kts | 36° |
| 2026-05-08 14:29 | 10.33639 | 111.75653 | 34886 ft | 505 kts | 36° |
| 2026-05-08 14:29 | 10.39349 | 111.79827 | 34896 ft | 505 kts | 36° |
| 2026-05-08 14:30 | 10.45056 | 111.84001 | 34889 ft | 505 kts | 35° |
| 2026-05-08 14:30 | 10.50762 | 111.88177 | 34890 ft | 506 kts | 35° |
| 2026-05-08 14:31 | 10.56475 | 111.92359 | 34890 ft | 506 kts | 35° |
| 2026-05-08 14:31 | 10.62140 | 111.96508 | 34889 ft | 506 kts | 35° |
| 2026-05-08 14:32 | 10.70699 | 112.02781 | 34889 ft | 505 kts | 35° |
| 2026-05-08 14:32 | 10.76402 | 112.06962 | 34892 ft | 505 kts | 35° |
| 2026-05-08 14:33 | 10.82108 | 112.11148 | 34892 ft | 505 kts | 35° |
| 2026-05-08 14:33 | 10.87811 | 112.15334 | 34892 ft | 506 kts | 35° |
| 2026-05-08 14:34 | 10.93481 | 112.19498 | 34892 ft | 506 kts | 35° |
| 2026-05-08 14:34 | 10.99190 | 112.23689 | 34893 ft | 506 kts | 35° |
| 2026-05-08 14:35 | 11.04907 | 112.27864 | 34895 ft | 506 kts | 35° |
| 2026-05-08 14:35 | 11.10630 | 112.32046 | 34896 ft | 506 kts | 35° |
| 2026-05-08 14:36 | 11.16349 | 112.36230 | 34895 ft | 506 kts | 35° |
| 2026-05-08 14:36 | 11.22060 | 112.40412 | 34894 ft | 506 kts | 35° |
| 2026-05-08 14:37 | 11.27771 | 112.44597 | 34895 ft | 506 kts | 35° |
| 2026-05-08 14:37 | 11.33444 | 112.48756 | 34895 ft | 506 kts | 36° |
| 2026-05-08 14:38 | 11.39164 | 112.52951 | 34897 ft | 507 kts | 36° |
| 2026-05-08 14:38 | 11.44879 | 112.57145 | 34897 ft | 507 kts | 36° |
| 2026-05-08 14:39 | 11.50599 | 112.61354 | 34897 ft | 507 kts | 36° |
| 2026-05-08 14:39 | 11.56306 | 112.65558 | 34896 ft | 506 kts | 36° |
| 2026-05-08 14:40 | 11.62013 | 112.69762 | 34894 ft | 506 kts | 36° |
| 2026-05-08 14:40 | 11.67717 | 112.73968 | 34897 ft | 506 kts | 36° |
| 2026-05-08 14:41 | 11.73420 | 112.78176 | 34897 ft | 505 kts | 36° |
| 2026-05-08 14:41 | 11.79121 | 112.82384 | 34897 ft | 506 kts | 36° |
| 2026-05-08 14:42 | 11.84790 | 112.86572 | 34898 ft | 506 kts | 36° |
| 2026-05-08 14:42 | 11.90491 | 112.90785 | 34899 ft | 505 kts | 36° |
| 2026-05-08 14:43 | 11.96186 | 112.94995 | 34898 ft | 505 kts | 36° |
| 2026-05-08 14:43 | 12.01878 | 112.99206 | 34900 ft | 505 kts | 36° |
| 2026-05-08 14:44 | 12.07575 | 113.03423 | 34900 ft | 506 kts | 36° |
| 2026-05-08 14:44 | 12.13267 | 113.07638 | 34900 ft | 505 kts | 36° |
| 2026-05-08 14:45 | 12.18959 | 113.11855 | 34903 ft | 506 kts | 36° |
| 2026-05-08 14:45 | 12.23691 | 113.15363 | 34902 ft | 506 kts | 36° |
| 2026-05-08 14:46 | 12.30305 | 113.20270 | 34899 ft | 506 kts | 36° |
| 2026-05-08 14:46 | 12.35999 | 113.24496 | 34902 ft | 505 kts | 36° |
| 2026-05-08 14:47 | 12.40770 | 113.28039 | 34903 ft | 506 kts | 36° |
| 2026-05-08 14:47 | 12.46431 | 113.32233 | 34903 ft | 506 kts | 36° |
| 2026-05-08 14:48 | 12.52137 | 113.36461 | 34907 ft | 506 kts | 37° |
| 2026-05-08 14:48 | 12.57840 | 113.40692 | 34906 ft | 506 kts | 36° |
| 2026-05-08 14:49 | 12.63540 | 113.44925 | 34906 ft | 507 kts | 37° |
| 2026-05-08 14:49 | 12.69241 | 113.49161 | 34908 ft | 507 kts | 36° |
| 2026-05-08 14:50 | 12.74944 | 113.53401 | 34906 ft | 506 kts | 37° |
| 2026-05-08 14:50 | 12.80641 | 113.57638 | 34907 ft | 507 kts | 37° |
| 2026-05-08 14:51 | 12.86306 | 113.61855 | 34908 ft | 506 kts | 36° |
| 2026-05-08 14:51 | 12.92004 | 113.66098 | 34911 ft | 506 kts | 36° |
| 2026-05-08 14:52 | 13.00554 | 113.72470 | 34909 ft | 507 kts | 37° |
| 2026-05-08 14:53 | 13.06249 | 113.76717 | 34907 ft | 507 kts | 36° |
| 2026-05-08 14:53 | 13.11945 | 113.80967 | 34910 ft | 506 kts | 36° |
| 2026-05-08 14:54 | 13.17643 | 113.85222 | 34913 ft | 506 kts | 36° |
| 2026-05-08 14:54 | 13.23337 | 113.89476 | 34911 ft | 506 kts | 36° |
| 2026-05-08 14:55 | 13.29035 | 113.93735 | 34911 ft | 506 kts | 36° |
| 2026-05-08 14:55 | 13.34692 | 113.97966 | 34911 ft | 506 kts | 36° |
| 2026-05-08 14:56 | 13.40383 | 114.02225 | 34911 ft | 506 kts | 37° |
| 2026-05-08 14:56 | 13.46084 | 114.06494 | 34912 ft | 507 kts | 37° |
| 2026-05-08 14:57 | 13.51779 | 114.10762 | 34911 ft | 507 kts | 36° |
| 2026-05-08 14:57 | 13.57471 | 114.15030 | 34915 ft | 507 kts | 36° |
| 2026-05-08 14:58 | 13.63158 | 114.19296 | 34911 ft | 507 kts | 36° |
| 2026-05-08 14:58 | 13.68851 | 114.23569 | 34913 ft | 507 kts | 36° |
| 2026-05-08 14:59 | 13.74543 | 114.27845 | 34916 ft | 506 kts | 36° |
| 2026-05-08 14:59 | 13.83041 | 114.34233 | 34917 ft | 507 kts | 36° |
| 2026-05-08 15:00 | 13.88725 | 114.38510 | 34919 ft | 507 kts | 36° |
| 2026-05-08 15:00 | 13.94419 | 114.42796 | 34918 ft | 506 kts | 36° |
| 2026-05-08 15:01 | 13.99684 | 114.47586 | 34916 ft | 506 kts | 45° |
| 2026-05-08 15:01 | 14.04573 | 114.52803 | 34916 ft | 506 kts | 46° |
| 2026-05-08 15:02 | 14.09395 | 114.58083 | 34916 ft | 506 kts | 46° |
| 2026-05-08 15:02 | 14.14188 | 114.63337 | 34916 ft | 506 kts | 46° |
| 2026-05-08 15:03 | 14.19018 | 114.68616 | 34916 ft | 506 kts | 46° |
| 2026-05-08 15:03 | 14.23850 | 114.73890 | 34914 ft | 506 kts | 46° |
| 2026-05-08 15:04 | 14.28681 | 114.79165 | 34919 ft | 505 kts | 47° |
| 2026-05-08 15:04 | 14.33504 | 114.84435 | 34920 ft | 505 kts | 47° |
| 2026-05-08 15:05 | 14.38317 | 114.89699 | 34919 ft | 504 kts | 47° |
| 2026-05-08 15:05 | 14.43131 | 114.94967 | 34919 ft | 504 kts | 47° |
| 2026-05-08 15:06 | 14.47939 | 115.00233 | 34917 ft | 504 kts | 47° |
| 2026-05-08 15:06 | 14.52746 | 115.05502 | 34919 ft | 504 kts | 46° |
| 2026-05-08 15:07 | 14.57544 | 115.10762 | 34921 ft | 503 kts | 46° |
| 2026-05-08 15:07 | 14.62337 | 115.16022 | 34922 ft | 503 kts | 46° |
| 2026-05-08 15:08 | 14.66318 | 115.20394 | 34919 ft | 502 kts | 46° |
| 2026-05-08 15:08 | 14.71912 | 115.26541 | 34919 ft | 502 kts | 46° |
| 2026-05-08 15:09 | 14.76695 | 115.31801 | 34924 ft | 502 kts | 46° |
| 2026-05-08 15:09 | 14.81451 | 115.37034 | 34925 ft | 503 kts | 46° |
| 2026-05-08 15:10 | 14.86234 | 115.42301 | 34921 ft | 503 kts | 46° |
| 2026-05-08 15:10 | 14.91018 | 115.47572 | 34922 ft | 503 kts | 46° |
| 2026-05-08 15:11 | 14.95800 | 115.52845 | 34922 ft | 502 kts | 46° |
| 2026-05-08 15:11 | 15.00579 | 115.58119 | 34922 ft | 502 kts | 46° |
| 2026-05-08 15:12 | 15.05353 | 115.63390 | 34922 ft | 502 kts | 46° |
| 2026-05-08 15:12 | 15.10132 | 115.68671 | 34922 ft | 502 kts | 46° |
| 2026-05-08 15:13 | 15.14906 | 115.73951 | 34922 ft | 502 kts | 46° |
| 2026-05-08 15:13 | 15.19669 | 115.79221 | 34922 ft | 501 kts | 46° |
| 2026-05-08 15:14 | 15.24427 | 115.84490 | 34919 ft | 500 kts | 46° |
| 2026-05-08 15:14 | 15.29178 | 115.89755 | 34919 ft | 500 kts | 46° |
| 2026-05-08 15:15 | 15.33929 | 115.95023 | 34925 ft | 500 kts | 46° |
| 2026-05-08 15:15 | 15.38681 | 116.00297 | 34925 ft | 501 kts | 46° |
| 2026-05-08 15:16 | 15.43436 | 116.05578 | 34922 ft | 500 kts | 46° |
| 2026-05-08 15:16 | 15.48178 | 116.10848 | 34922 ft | 500 kts | 46° |
| 2026-05-08 15:17 | 15.52917 | 116.16118 | 34925 ft | 500 kts | 46° |
| 2026-05-08 15:17 | 15.57655 | 116.21391 | 34925 ft | 499 kts | 46° |
| 2026-05-08 15:18 | 15.62392 | 116.26666 | 34924 ft | 500 kts | 46° |
| 2026-05-08 15:18 | 15.67132 | 116.31950 | 34925 ft | 501 kts | 46° |
| 2026-05-08 15:19 | 15.71849 | 116.37211 | 34925 ft | 501 kts | 46° |
| 2026-05-08 15:19 | 15.76593 | 116.42506 | 34927 ft | 501 kts | 46° |
| 2026-05-08 15:20 | 15.81335 | 116.47803 | 34925 ft | 501 kts | 46° |
| 2026-05-08 15:20 | 15.86077 | 116.53103 | 34925 ft | 501 kts | 46° |
| 2026-05-08 15:21 | 15.90816 | 116.58405 | 34928 ft | 501 kts | 46° |
| 2026-05-08 15:21 | 15.95562 | 116.63718 | 34927 ft | 502 kts | 46° |
| 2026-05-08 15:22 | 16.00312 | 116.69040 | 34925 ft | 502 kts | 46° |
| 2026-05-08 15:22 | 16.05060 | 116.74363 | 34925 ft | 502 kts | 46° |
| 2026-05-08 15:23 | 16.09804 | 116.79687 | 34925 ft | 502 kts | 46° |
| 2026-05-08 15:23 | 16.14551 | 116.85017 | 34925 ft | 502 kts | 46° |
| 2026-05-08 15:24 | 16.19293 | 116.90345 | 34928 ft | 503 kts | 46° |
| 2026-05-08 15:24 | 16.24049 | 116.95693 | 34928 ft | 503 kts | 46° |
| 2026-05-08 15:25 | 16.28803 | 117.01044 | 34924 ft | 503 kts | 46° |
| 2026-05-08 15:25 | 16.33553 | 117.06394 | 34928 ft | 503 kts | 46° |
| 2026-05-08 15:26 | 16.38301 | 117.11746 | 34925 ft | 503 kts | 46° |
| 2026-05-08 15:26 | 16.43049 | 117.17102 | 34927 ft | 503 kts | 46° |
| 2026-05-08 15:27 | 16.45413 | 117.19771 | 35198 ft | 496 kts | 46° |
| 2026-05-08 15:27 | 16.47730 | 117.22391 | 35687 ft | 489 kts | 46° |
| 2026-05-08 15:27 | 16.50001 | 117.24958 | 35878 ft | 488 kts | 46° |
| 2026-05-08 15:27 | 16.52306 | 117.27563 | 35926 ft | 491 kts | 46° |
| 2026-05-08 15:28 | 16.56960 | 117.32821 | 35928 ft | 496 kts | 46° |
| 2026-05-08 15:28 | 16.61649 | 117.38125 | 35925 ft | 499 kts | 46° |
| 2026-05-08 15:29 | 16.66356 | 117.43456 | 35927 ft | 500 kts | 46° |
| 2026-05-08 15:29 | 16.71070 | 117.48800 | 35926 ft | 501 kts | 46° |
| 2026-05-08 15:30 | 16.75786 | 117.54149 | 35925 ft | 501 kts | 46° |
| 2026-05-08 15:30 | 16.80501 | 117.59502 | 35925 ft | 501 kts | 46° |
| 2026-05-08 15:31 | 16.85215 | 117.64858 | 35925 ft | 501 kts | 46° |
| 2026-05-08 15:31 | 16.89927 | 117.70215 | 35925 ft | 501 kts | 46° |
| 2026-05-08 15:32 | 16.94641 | 117.75579 | 35924 ft | 501 kts | 46° |
| 2026-05-08 15:32 | 16.99352 | 117.80944 | 35925 ft | 501 kts | 46° |
| 2026-05-08 15:33 | 17.04062 | 117.86312 | 35925 ft | 501 kts | 46° |
| 2026-05-08 15:33 | 17.08774 | 117.91687 | 35925 ft | 501 kts | 46° |
| 2026-05-08 15:34 | 17.13483 | 117.97063 | 35925 ft | 501 kts | 46° |
| 2026-05-08 15:34 | 17.18193 | 118.02445 | 35925 ft | 501 kts | 46° |
| 2026-05-08 15:35 | 17.22900 | 118.07826 | 35926 ft | 502 kts | 46° |
| 2026-05-08 15:35 | 17.27606 | 118.13212 | 35928 ft | 502 kts | 46° |
| 2026-05-08 15:36 | 17.31518 | 118.17691 | 35925 ft | 501 kts | 46° |
| 2026-05-08 15:36 | 17.36988 | 118.23961 | 35925 ft | 502 kts | 46° |
| 2026-05-08 15:37 | 17.41697 | 118.29363 | 35924 ft | 502 kts | 46° |
| 2026-05-08 15:37 | 17.46406 | 118.34770 | 35925 ft | 502 kts | 46° |
| 2026-05-08 15:38 | 17.51114 | 118.40179 | 35922 ft | 502 kts | 46° |
| 2026-05-08 15:38 | 17.55820 | 118.45591 | 35923 ft | 502 kts | 46° |
| 2026-05-08 15:39 | 17.60524 | 118.51006 | 35922 ft | 503 kts | 46° |
| 2026-05-08 15:39 | 17.65226 | 118.56422 | 35922 ft | 503 kts | 46° |
| 2026-05-08 15:40 | 17.69929 | 118.61844 | 35922 ft | 503 kts | 46° |
| 2026-05-08 15:40 | 17.73844 | 118.66361 | 35921 ft | 503 kts | 46° |
| 2026-05-08 15:41 | 17.78550 | 118.71795 | 35922 ft | 503 kts | 46° |
| 2026-05-08 15:41 | 17.83259 | 118.77238 | 35922 ft | 503 kts | 46° |
| 2026-05-08 15:42 | 17.87966 | 118.82681 | 35922 ft | 504 kts | 46° |
| 2026-05-08 15:42 | 17.92678 | 118.88137 | 35923 ft | 504 kts | 46° |
| 2026-05-08 15:43 | 17.97391 | 118.93597 | 35922 ft | 505 kts | 46° |
| 2026-05-08 15:43 | 18.02103 | 118.99068 | 35922 ft | 504 kts | 46° |
| 2026-05-08 15:44 | 18.06808 | 119.04528 | 35919 ft | 504 kts | 46° |
| 2026-05-08 15:44 | 18.11521 | 119.09999 | 35920 ft | 505 kts | 46° |
| 2026-05-08 15:45 | 18.16240 | 119.15484 | 35919 ft | 506 kts | 46° |
| 2026-05-08 15:45 | 18.20962 | 119.20980 | 35923 ft | 506 kts | 46° |
| 2026-05-08 15:46 | 18.25681 | 119.26476 | 35919 ft | 506 kts | 46° |
| 2026-05-08 15:46 | 18.30394 | 119.31971 | 35919 ft | 505 kts | 46° |
| 2026-05-08 15:47 | 18.35104 | 119.37467 | 35919 ft | 506 kts | 46° |
| 2026-05-08 15:47 | 18.39824 | 119.42978 | 35923 ft | 507 kts | 46° |
| 2026-05-08 15:48 | 18.46878 | 119.51225 | 35924 ft | 508 kts | 46° |
| 2026-05-08 15:49 | 18.51608 | 119.56761 | 35909 ft | 507 kts | 46° |
| 2026-05-08 15:49 | 18.56315 | 119.62277 | 35925 ft | 506 kts | 46° |
| 2026-05-08 15:50 | 18.61023 | 119.67796 | 35932 ft | 506 kts | 46° |
| 2026-05-08 15:50 | 18.65736 | 119.73324 | 35916 ft | 507 kts | 46° |
| 2026-05-08 15:51 | 18.70452 | 119.78866 | 35914 ft | 508 kts | 46° |
| 2026-05-08 15:51 | 18.75165 | 119.84407 | 35917 ft | 507 kts | 46° |
| 2026-05-08 15:52 | 18.79872 | 119.89947 | 35923 ft | 506 kts | 46° |
| 2026-05-08 15:52 | 18.84570 | 119.95481 | 35921 ft | 506 kts | 46° |
| 2026-05-08 15:53 | 18.89274 | 120.01026 | 35922 ft | 507 kts | 46° |
| 2026-05-08 15:53 | 18.93978 | 120.06576 | 35922 ft | 508 kts | 46° |
| 2026-05-08 15:54 | 18.98655 | 120.12100 | 35929 ft | 508 kts | 46° |
| 2026-05-08 15:54 | 19.03359 | 120.17662 | 35926 ft | 507 kts | 46° |
| 2026-05-08 15:55 | 19.08052 | 120.23216 | 35935 ft | 507 kts | 46° |
| 2026-05-08 15:55 | 19.15107 | 120.31572 | 35931 ft | 508 kts | 46° |
| 2026-05-08 15:56 | 19.19813 | 120.37154 | 35933 ft | 508 kts | 46° |
| 2026-05-08 15:56 | 19.24518 | 120.42738 | 35933 ft | 508 kts | 46° |
| 2026-05-08 15:57 | 19.29215 | 120.48320 | 35932 ft | 507 kts | 46° |
| 2026-05-08 15:57 | 19.33903 | 120.53895 | 35929 ft | 507 kts | 46° |
| 2026-05-08 15:58 | 19.38588 | 120.59473 | 35935 ft | 507 kts | 46° |
| 2026-05-08 15:58 | 19.43268 | 120.65055 | 35935 ft | 507 kts | 47° |
| 2026-05-08 15:59 | 19.47948 | 120.70639 | 35935 ft | 507 kts | 46° |
| 2026-05-08 15:59 | 19.52632 | 120.76226 | 35935 ft | 507 kts | 46° |
| 2026-05-08 16:00 | 19.57314 | 120.81819 | 35945 ft | 507 kts | 46° |
| 2026-05-08 16:00 | 19.61998 | 120.87420 | 35940 ft | 508 kts | 46° |
| 2026-05-08 16:01 | 19.66652 | 120.92993 | 35940 ft | 508 kts | 46° |
| 2026-05-08 16:01 | 19.71339 | 120.98610 | 35940 ft | 508 kts | 46° |
| 2026-05-08 16:02 | 19.76013 | 121.04218 | 35946 ft | 507 kts | 46° |
| 2026-05-08 16:02 | 19.80686 | 121.09828 | 35944 ft | 507 kts | 46° |
| 2026-05-08 16:03 | 19.85363 | 121.15449 | 35948 ft | 508 kts | 46° |
| 2026-05-08 16:03 | 19.90038 | 121.21073 | 35946 ft | 508 kts | 46° |
| 2026-05-08 16:04 | 19.94713 | 121.26703 | 35949 ft | 508 kts | 46° |
| 2026-05-08 16:04 | 19.99384 | 121.32334 | 35946 ft | 507 kts | 47° |
| 2026-05-08 16:05 | 20.04048 | 121.37961 | 35954 ft | 507 kts | 46° |
| 2026-05-08 16:05 | 20.08714 | 121.43596 | 35952 ft | 508 kts | 46° |
| 2026-05-08 16:06 | 20.13386 | 121.49244 | 35958 ft | 508 kts | 46° |
| 2026-05-08 16:06 | 20.18053 | 121.54892 | 35959 ft | 508 kts | 46° |
| 2026-05-08 16:07 | 20.22712 | 121.60536 | 35956 ft | 507 kts | 47° |
| 2026-05-08 16:07 | 20.27367 | 121.66180 | 35957 ft | 508 kts | 46° |
| 2026-05-08 16:08 | 20.32036 | 121.71846 | 35958 ft | 509 kts | 46° |
| 2026-05-08 16:08 | 20.36704 | 121.77517 | 35958 ft | 509 kts | 46° |
| 2026-05-08 16:09 | 20.40589 | 121.82242 | 35964 ft | 509 kts | 47° |
| 2026-05-08 16:09 | 20.46044 | 121.88882 | 35962 ft | 509 kts | 47° |
| 2026-05-08 16:10 | 20.50677 | 121.94527 | 35963 ft | 510 kts | 46° |
| 2026-05-08 16:10 | 20.55351 | 122.00228 | 35966 ft | 511 kts | 46° |
| 2026-05-08 16:11 | 20.60028 | 122.05940 | 35963 ft | 511 kts | 46° |
| 2026-05-08 16:11 | 20.64707 | 122.11658 | 35963 ft | 511 kts | 46° |
| 2026-05-08 16:12 | 20.69378 | 122.17374 | 35966 ft | 511 kts | 46° |
| 2026-05-08 16:12 | 20.74052 | 122.23099 | 35963 ft | 512 kts | 46° |
| 2026-05-08 16:13 | 20.78732 | 122.28835 | 35966 ft | 513 kts | 46° |
| 2026-05-08 16:13 | 20.83415 | 122.34583 | 35966 ft | 513 kts | 46° |
| 2026-05-08 16:14 | 20.88100 | 122.40339 | 35966 ft | 513 kts | 46° |
| 2026-05-08 16:14 | 20.92778 | 122.46092 | 35966 ft | 513 kts | 46° |
| 2026-05-08 16:15 | 20.97433 | 122.51820 | 35968 ft | 514 kts | 46° |
| 2026-05-08 16:15 | 21.02787 | 122.56850 | 35970 ft | 508 kts | 32° |
| 2026-05-08 16:16 | 21.08606 | 122.61050 | 35968 ft | 508 kts | 30° |
| 2026-05-08 16:16 | 21.14545 | 122.65150 | 35971 ft | 508 kts | 30° |
| 2026-05-08 16:17 | 21.19522 | 122.68581 | 35972 ft | 507 kts | 30° |
| 2026-05-08 16:17 | 21.26405 | 122.73358 | 35971 ft | 507 kts | 30° |
| 2026-05-08 16:18 | 21.32320 | 122.77484 | 35974 ft | 507 kts | 30° |
| 2026-05-08 16:18 | 21.38235 | 122.81615 | 35974 ft | 507 kts | 30° |
| 2026-05-08 16:19 | 21.44151 | 122.85751 | 35970 ft | 507 kts | 30° |
| 2026-05-08 16:19 | 21.50064 | 122.89887 | 35971 ft | 507 kts | 30° |
| 2026-05-08 16:20 | 21.55978 | 122.94029 | 35971 ft | 507 kts | 30° |
| 2026-05-08 16:20 | 21.61891 | 122.98173 | 35971 ft | 508 kts | 30° |
| 2026-05-08 16:21 | 21.67803 | 123.02321 | 35974 ft | 508 kts | 30° |
| 2026-05-08 16:21 | 21.73719 | 123.06476 | 35974 ft | 508 kts | 30° |
| 2026-05-08 16:22 | 21.79630 | 123.10632 | 35974 ft | 508 kts | 30° |
| 2026-05-08 16:22 | 21.85541 | 123.14792 | 35974 ft | 508 kts | 30° |
| 2026-05-08 16:23 | 21.91453 | 123.18957 | 35976 ft | 508 kts | 30° |
| 2026-05-08 16:23 | 21.97376 | 123.23133 | 35974 ft | 509 kts | 30° |
| 2026-05-08 16:24 | 22.03304 | 123.27318 | 35971 ft | 509 kts | 30° |
| 2026-05-08 16:24 | 22.09231 | 123.31506 | 35974 ft | 510 kts | 30° |
| 2026-05-08 16:25 | 22.15161 | 123.35700 | 35975 ft | 510 kts | 30° |
| 2026-05-08 16:25 | 22.21099 | 123.39904 | 35974 ft | 511 kts | 30° |
| 2026-05-08 16:26 | 22.27037 | 123.44113 | 35974 ft | 511 kts | 30° |
| 2026-05-08 16:26 | 22.32941 | 123.48302 | 35974 ft | 511 kts | 30° |
| 2026-05-08 16:27 | 22.38881 | 123.52521 | 35973 ft | 512 kts | 30° |
| 2026-05-08 16:27 | 22.44833 | 123.56753 | 35975 ft | 512 kts | 30° |
| 2026-05-08 16:28 | 22.50793 | 123.60994 | 35974 ft | 513 kts | 30° |
| 2026-05-08 16:28 | 22.56750 | 123.65239 | 35972 ft | 513 kts | 30° |
| 2026-05-08 16:29 | 22.62715 | 123.69493 | 35970 ft | 514 kts | 30° |
| 2026-05-08 16:29 | 22.68694 | 123.73761 | 35972 ft | 515 kts | 30° |
| 2026-05-08 16:30 | 22.74681 | 123.78041 | 35978 ft | 516 kts | 30° |
| 2026-05-08 16:30 | 22.79660 | 123.81604 | 35977 ft | 516 kts | 30° |
| 2026-05-08 16:31 | 22.85653 | 123.85901 | 35978 ft | 517 kts | 30° |
| 2026-05-08 16:31 | 22.91661 | 123.90205 | 35976 ft | 518 kts | 30° |
| 2026-05-08 16:32 | 22.97678 | 123.94521 | 35974 ft | 518 kts | 30° |
| 2026-05-08 16:32 | 23.03683 | 123.98858 | 35974 ft | 518 kts | 31° |
| 2026-05-08 16:33 | 23.09654 | 124.03265 | 35977 ft | 520 kts | 31° |
| 2026-05-08 16:33 | 23.15638 | 124.07700 | 35980 ft | 521 kts | 31° |
| 2026-05-08 16:34 | 23.21629 | 124.12134 | 35977 ft | 521 kts | 31° |
| 2026-05-08 16:34 | 23.27627 | 124.16571 | 35977 ft | 521 kts | 31° |
| 2026-05-08 16:35 | 23.33605 | 124.21087 | 35981 ft | 526 kts | 35° |
| 2026-05-08 16:35 | 23.38854 | 124.26701 | 35982 ft | 532 kts | 44° |
| 2026-05-08 16:36 | 23.43768 | 124.32736 | 35984 ft | 533 kts | 46° |
| 2026-05-08 16:36 | 23.48633 | 124.38851 | 35985 ft | 534 kts | 46° |
| 2026-05-08 16:37 | 23.53476 | 124.44925 | 35984 ft | 535 kts | 45° |
| 2026-05-08 16:37 | 23.58369 | 124.51040 | 35984 ft | 536 kts | 45° |
| 2026-05-08 16:38 | 23.63270 | 124.57162 | 35983 ft | 536 kts | 45° |
| 2026-05-08 16:38 | 23.68167 | 124.63287 | 35985 ft | 536 kts | 45° |
| 2026-05-08 16:39 | 23.73071 | 124.69429 | 35989 ft | 537 kts | 44° |
| 2026-05-08 16:39 | 23.77982 | 124.75587 | 35986 ft | 538 kts | 45° |
| 2026-05-08 16:40 | 23.82895 | 124.81756 | 35988 ft | 539 kts | 45° |
| 2026-05-08 16:40 | 23.87813 | 124.87939 | 35991 ft | 539 kts | 45° |
| 2026-05-08 16:41 | 23.92728 | 124.94128 | 35987 ft | 539 kts | 45° |
| 2026-05-08 16:42 | 24.00094 | 125.03415 | 35993 ft | 539 kts | 45° |
| 2026-05-08 16:42 | 24.05000 | 125.09610 | 35992 ft | 539 kts | 45° |
| 2026-05-08 16:43 | 24.09904 | 125.15812 | 36002 ft | 539 kts | 45° |
| 2026-05-08 16:43 | 24.14811 | 125.22023 | 35993 ft | 540 kts | 45° |
| 2026-05-08 16:44 | 24.19725 | 125.28252 | 35999 ft | 541 kts | 45° |
| 2026-05-08 16:44 | 24.24640 | 125.34492 | 35995 ft | 541 kts | 45° |
| 2026-05-08 16:45 | 24.29554 | 125.40739 | 36003 ft | 541 kts | 44° |
| 2026-05-08 16:45 | 24.34470 | 125.46994 | 35998 ft | 542 kts | 44° |
| 2026-05-08 16:46 | 24.39352 | 125.53215 | 35995 ft | 542 kts | 45° |
| 2026-05-08 16:46 | 24.44267 | 125.59486 | 36000 ft | 542 kts | 45° |
| 2026-05-08 16:47 | 24.49179 | 125.65762 | 36007 ft | 542 kts | 44° |
| 2026-05-08 16:47 | 24.54093 | 125.72048 | 36005 ft | 543 kts | 44° |
| 2026-05-08 16:48 | 24.59008 | 125.78344 | 36005 ft | 542 kts | 45° |
| 2026-05-08 16:48 | 24.63918 | 125.84641 | 36007 ft | 543 kts | 45° |
| 2026-05-08 16:49 | 24.68826 | 125.90946 | 36016 ft | 543 kts | 44° |
| 2026-05-08 16:49 | 24.73741 | 125.97267 | 36014 ft | 544 kts | 44° |
| 2026-05-08 16:50 | 24.78657 | 126.03596 | 36020 ft | 544 kts | 44° |
| 2026-05-08 16:50 | 24.83565 | 126.09925 | 36021 ft | 544 kts | 44° |
| 2026-05-08 16:51 | 24.88476 | 126.16268 | 36018 ft | 544 kts | 44° |
| 2026-05-08 16:51 | 24.93379 | 126.22607 | 36020 ft | 544 kts | 44° |
| 2026-05-08 16:52 | 24.98285 | 126.28958 | 36027 ft | 544 kts | 44° |
| 2026-05-08 16:52 | 25.03192 | 126.35320 | 36022 ft | 544 kts | 44° |
| 2026-05-08 16:53 | 25.10551 | 126.44875 | 36020 ft | 545 kts | 44° |
| 2026-05-08 16:53 | 25.15460 | 126.51261 | 36020 ft | 545 kts | 44° |
| 2026-05-08 16:54 | 25.20366 | 126.57652 | 36025 ft | 545 kts | 44° |
| 2026-05-08 16:54 | 25.25267 | 126.64045 | 36029 ft | 546 kts | 44° |
| 2026-05-08 16:55 | 25.30175 | 126.70455 | 36031 ft | 546 kts | 44° |
| 2026-05-08 16:55 | 25.35083 | 126.76875 | 36026 ft | 546 kts | 44° |
| 2026-05-08 16:56 | 25.39984 | 126.83295 | 36031 ft | 546 kts | 44° |
| 2026-05-08 16:56 | 25.44889 | 126.89727 | 36036 ft | 547 kts | 44° |
| 2026-05-08 16:57 | 25.49762 | 126.96126 | 36035 ft | 548 kts | 44° |
| 2026-05-08 16:57 | 25.54667 | 127.02579 | 36037 ft | 547 kts | 44° |
| 2026-05-08 16:58 | 25.59547 | 127.09010 | 36445 ft | 539 kts | 44° |
| 2026-05-08 16:58 | 25.61950 | 127.12155 | 36890 ft | 532 kts | 43° |
| 2026-05-08 16:58 | 25.64392 | 127.15235 | 37021 ft | 532 kts | 42° |
| 2026-05-08 16:59 | 25.69367 | 127.21366 | 37038 ft | 537 kts | 42° |
| 2026-05-08 16:59 | 25.74378 | 127.27561 | 37040 ft | 541 kts | 42° |
| 2026-05-08 17:00 | 25.79383 | 127.33811 | 37040 ft | 542 kts | 43° |
| 2026-05-08 17:00 | 25.84387 | 127.40091 | 37042 ft | 543 kts | 43° |
| 2026-05-08 17:01 | 25.89386 | 127.46376 | 37040 ft | 544 kts | 43° |
| 2026-05-08 17:01 | 25.94394 | 127.52676 | 37061 ft | 543 kts | 43° |
| 2026-05-08 17:02 | 25.99400 | 127.58981 | 37041 ft | 545 kts | 43° |
| 2026-05-08 17:02 | 26.04410 | 127.65300 | 37048 ft | 545 kts | 43° |
| 2026-05-08 17:03 | 26.09423 | 127.71633 | 37043 ft | 545 kts | 43° |
| 2026-05-08 17:03 | 26.14434 | 127.77967 | 37063 ft | 545 kts | 42° |
| 2026-05-08 17:04 | 26.19934 | 127.83657 | 37062 ft | 538 kts | 34° |
| 2026-05-08 17:04 | 26.25648 | 127.89039 | 37064 ft | 538 kts | 33° |
| 2026-05-08 17:05 | 26.31397 | 127.94378 | 37070 ft | 538 kts | 33° |
| 2026-05-08 17:05 | 26.37147 | 127.99733 | 37057 ft | 539 kts | 33° |
| 2026-05-08 17:06 | 26.42892 | 128.05107 | 37056 ft | 539 kts | 33° |
| 2026-05-08 17:06 | 26.48636 | 128.10494 | 37056 ft | 539 kts | 33° |
| 2026-05-08 17:07 | 26.54347 | 128.15858 | 37065 ft | 540 kts | 33° |
| 2026-05-08 17:07 | 26.60099 | 128.21267 | 37070 ft | 541 kts | 34° |
| 2026-05-08 17:08 | 26.65853 | 128.26686 | 37068 ft | 541 kts | 34° |
| 2026-05-08 17:08 | 26.71607 | 128.32110 | 37062 ft | 542 kts | 34° |
| 2026-05-08 17:09 | 26.77368 | 128.37550 | 37067 ft | 542 kts | 34° |
| 2026-05-08 17:09 | 26.83127 | 128.42995 | 37063 ft | 542 kts | 34° |
| 2026-05-08 17:10 | 26.88892 | 128.48453 | 37072 ft | 543 kts | 33° |
| 2026-05-08 17:10 | 26.94669 | 128.53930 | 37070 ft | 544 kts | 33° |
| 2026-05-08 17:11 | 27.00442 | 128.59411 | 37072 ft | 544 kts | 33° |
| 2026-05-08 17:11 | 27.06222 | 128.64906 | 37080 ft | 545 kts | 33° |
| 2026-05-08 17:12 | 27.12005 | 128.70412 | 37072 ft | 545 kts | 34° |
| 2026-05-08 17:12 | 27.17785 | 128.75923 | 37070 ft | 545 kts | 34° |
| 2026-05-08 17:13 | 27.23571 | 128.81448 | 37101 ft | 546 kts | 33° |
| 2026-05-08 17:13 | 27.29370 | 128.86991 | 37074 ft | 547 kts | 33° |
| 2026-05-08 17:14 | 27.35167 | 128.92542 | 37074 ft | 547 kts | 34° |
| 2026-05-08 17:14 | 27.40962 | 128.98099 | 37106 ft | 548 kts | 34° |
| 2026-05-08 17:15 | 27.46764 | 129.03670 | 37070 ft | 548 kts | 33° |
| 2026-05-08 17:15 | 27.52513 | 129.09327 | 37076 ft | 553 kts | 39° |
| 2026-05-08 17:16 | 27.57645 | 129.15854 | 37087 ft | 558 kts | 44° |
| 2026-05-08 17:16 | 27.62613 | 129.22589 | 37082 ft | 558 kts | 45° |
| 2026-05-08 17:17 | 27.67509 | 129.29307 | 37075 ft | 558 kts | 45° |
| 2026-05-08 17:17 | 27.72452 | 129.36076 | 37065 ft | 558 kts | 45° |
| 2026-05-08 17:18 | 27.77404 | 129.42845 | 37078 ft | 559 kts | 45° |
| 2026-05-08 17:18 | 27.82359 | 129.49624 | 37080 ft | 560 kts | 45° |
| 2026-05-08 17:19 | 27.87313 | 129.56411 | 37082 ft | 560 kts | 45° |
| 2026-05-08 17:19 | 27.92263 | 129.63205 | 37087 ft | 561 kts | 45° |
| 2026-05-08 17:20 | 27.96385 | 129.68871 | 37079 ft | 561 kts | 45° |
| 2026-05-08 17:20 | 28.01339 | 129.75691 | 37085 ft | 561 kts | 45° |
| 2026-05-08 17:21 | 28.06293 | 129.82521 | 37080 ft | 562 kts | 45° |
| 2026-05-08 17:21 | 28.11250 | 129.89366 | 37078 ft | 562 kts | 45° |
| 2026-05-08 17:22 | 28.16206 | 129.96222 | 37055 ft | 562 kts | 45° |
| 2026-05-08 17:22 | 28.21158 | 130.03084 | 37049 ft | 563 kts | 45° |
| 2026-05-08 17:23 | 28.26119 | 130.09967 | 37055 ft | 563 kts | 45° |
| 2026-05-08 17:23 | 28.31074 | 130.16855 | 37059 ft | 564 kts | 45° |
| 2026-05-08 17:24 | 28.36028 | 130.23753 | 37086 ft | 564 kts | 45° |
| 2026-05-08 17:24 | 28.40987 | 130.30667 | 37064 ft | 565 kts | 45° |
| 2026-05-08 17:25 | 28.45913 | 130.37548 | 37069 ft | 565 kts | 46° |
| 2026-05-08 17:25 | 28.50897 | 130.44522 | 37087 ft | 565 kts | 45° |
| 2026-05-08 17:26 | 28.55823 | 130.51425 | 37066 ft | 566 kts | 46° |
| 2026-05-08 17:26 | 28.60809 | 130.58424 | 37059 ft | 566 kts | 46° |
| 2026-05-08 17:27 | 28.65760 | 130.65386 | 37088 ft | 566 kts | 46° |
| 2026-05-08 17:27 | 28.70718 | 130.72370 | 37061 ft | 567 kts | 46° |
| 2026-05-08 17:28 | 28.75641 | 130.79316 | 37055 ft | 567 kts | 46° |
| 2026-05-08 17:28 | 28.80595 | 130.86316 | 37058 ft | 568 kts | 46° |
| 2026-05-08 17:29 | 28.85552 | 130.93332 | 37058 ft | 568 kts | 46° |
| 2026-05-08 17:29 | 28.90500 | 131.00349 | 37055 ft | 568 kts | 46° |
| 2026-05-08 17:30 | 28.95456 | 131.07388 | 37063 ft | 569 kts | 46° |
| 2026-05-08 17:30 | 29.00416 | 131.14443 | 37034 ft | 569 kts | 46° |
| 2026-05-08 17:31 | 29.05368 | 131.21502 | 37057 ft | 570 kts | 46° |
| 2026-05-08 17:31 | 29.10324 | 131.28577 | 37045 ft | 570 kts | 46° |
| 2026-05-08 17:32 | 29.15276 | 131.35659 | 37043 ft | 570 kts | 46° |
| 2026-05-08 17:32 | 29.20225 | 131.42748 | 37048 ft | 570 kts | 46° |
| 2026-05-08 17:33 | 29.25177 | 131.49855 | 37049 ft | 571 kts | 46° |
| 2026-05-08 17:33 | 29.30126 | 131.56968 | 37028 ft | 571 kts | 46° |
| 2026-05-08 17:34 | 29.35075 | 131.64093 | 37048 ft | 571 kts | 47° |
| 2026-05-08 17:34 | 29.40022 | 131.71229 | 37051 ft | 573 kts | 46° |
| 2026-05-08 17:35 | 29.44977 | 131.78389 | 37034 ft | 573 kts | 47° |
| 2026-05-08 17:35 | 29.49925 | 131.85552 | 37043 ft | 573 kts | 47° |
| 2026-05-08 17:36 | 29.54876 | 131.92732 | 37044 ft | 574 kts | 46° |
| 2026-05-08 17:36 | 29.59824 | 131.99919 | 37026 ft | 574 kts | 47° |
| 2026-05-08 17:37 | 29.64768 | 132.07114 | 37075 ft | 574 kts | 47° |
| 2026-05-08 17:37 | 29.69737 | 132.14227 | 37042 ft | 574 kts | 45° |
| 2026-05-08 17:38 | 29.74816 | 132.21297 | 37029 ft | 573 kts | 45° |
| 2026-05-08 17:38 | 29.79896 | 132.28380 | 37034 ft | 574 kts | 45° |
| 2026-05-08 17:39 | 29.84960 | 132.35490 | 37036 ft | 575 kts | 45° |
| 2026-05-08 17:39 | 29.90016 | 132.42622 | 37022 ft | 575 kts | 46° |
| 2026-05-08 17:40 | 29.95074 | 132.49769 | 37031 ft | 576 kts | 46° |
| 2026-05-08 17:40 | 30.00133 | 132.56929 | 37033 ft | 576 kts | 46° |
| 2026-05-08 17:41 | 30.05190 | 132.64097 | 37025 ft | 576 kts | 46° |
| 2026-05-08 17:41 | 30.10249 | 132.71281 | 37029 ft | 577 kts | 46° |
| 2026-05-08 17:42 | 30.15305 | 132.78475 | 37032 ft | 577 kts | 46° |
| 2026-05-08 17:42 | 30.20361 | 132.85682 | 37038 ft | 577 kts | 46° |
| 2026-05-08 17:43 | 30.25419 | 132.92903 | 37031 ft | 578 kts | 46° |
| 2026-05-08 17:43 | 30.30475 | 133.00135 | 37031 ft | 578 kts | 46° |
| 2026-05-08 17:44 | 30.35523 | 133.07368 | 37027 ft | 578 kts | 46° |
| 2026-05-08 17:44 | 30.40577 | 133.14624 | 37025 ft | 579 kts | 46° |
| 2026-05-08 17:45 | 30.45628 | 133.21889 | 37021 ft | 579 kts | 46° |
| 2026-05-08 17:45 | 30.50669 | 133.29153 | 37021 ft | 578 kts | 46° |
| 2026-05-08 17:46 | 30.55707 | 133.36425 | 37020 ft | 578 kts | 46° |
| 2026-05-08 17:46 | 30.60740 | 133.43704 | 37003 ft | 579 kts | 46° |
| 2026-05-08 17:47 | 30.65737 | 133.50944 | 37021 ft | 578 kts | 46° |
| 2026-05-08 17:47 | 30.69949 | 133.57057 | 37021 ft | 578 kts | 46° |
| 2026-05-08 17:48 | 30.75790 | 133.65549 | 37015 ft | 580 kts | 47° |
| 2026-05-08 17:48 | 30.80820 | 133.72877 | 37021 ft | 580 kts | 47° |
| 2026-05-08 17:49 | 30.85853 | 133.80224 | 37029 ft | 581 kts | 46° |
| 2026-05-08 17:49 | 30.90894 | 133.87587 | 37022 ft | 582 kts | 47° |
| 2026-05-08 17:50 | 30.95936 | 133.94968 | 37024 ft | 582 kts | 47° |
| 2026-05-08 17:50 | 31.00983 | 134.02371 | 37035 ft | 583 kts | 47° |
| 2026-05-08 17:51 | 31.06028 | 134.09785 | 37020 ft | 584 kts | 47° |
| 2026-05-08 17:51 | 31.11083 | 134.17228 | 37023 ft | 586 kts | 47° |
| 2026-05-08 17:52 | 31.16138 | 134.24687 | 37008 ft | 586 kts | 48° |
| 2026-05-08 17:53 | 31.23735 | 134.35921 | 37020 ft | 589 kts | 48° |
| 2026-05-08 17:53 | 31.28809 | 134.43444 | 36995 ft | 589 kts | 48° |
| 2026-05-08 17:54 | 31.33883 | 134.50981 | 37031 ft | 590 kts | 48° |
| 2026-05-08 17:54 | 31.38961 | 134.58537 | 37012 ft | 591 kts | 49° |
| 2026-05-08 17:55 | 31.44038 | 134.66109 | 37010 ft | 591 kts | 49° |
| 2026-05-08 17:55 | 31.49120 | 134.73701 | 37009 ft | 593 kts | 49° |
| 2026-05-08 17:56 | 31.54202 | 134.81310 | 37011 ft | 593 kts | 49° |
| 2026-05-08 17:56 | 31.59282 | 134.88931 | 37017 ft | 594 kts | 49° |
| 2026-05-08 17:57 | 31.64369 | 134.96578 | 37009 ft | 594 kts | 49° |
| 2026-05-08 17:57 | 31.69452 | 135.04231 | 37005 ft | 595 kts | 49° |
| 2026-05-08 17:58 | 31.74614 | 135.11839 | 37008 ft | 594 kts | 45° |
| 2026-05-08 17:58 | 31.80135 | 135.18959 | 37007 ft | 593 kts | 43° |
| 2026-05-08 17:59 | 31.85779 | 135.26051 | 37007 ft | 594 kts | 43° |
| 2026-05-08 17:59 | 31.91360 | 135.33229 | 37004 ft | 595 kts | 44° |
| 2026-05-08 18:00 | 31.96894 | 135.40472 | 37010 ft | 595 kts | 44° |
| 2026-05-08 18:00 | 32.05190 | 135.51385 | 37001 ft | 596 kts | 44° |
| 2026-05-08 18:01 | 32.10724 | 135.58671 | 37013 ft | 596 kts | 44° |
| 2026-05-08 18:01 | 32.16260 | 135.65969 | 36989 ft | 597 kts | 44° |
| 2026-05-08 18:02 | 32.20894 | 135.72089 | 36999 ft | 597 kts | 44° |
| 2026-05-08 18:02 | 32.27327 | 135.80602 | 36995 ft | 598 kts | 45° |
| 2026-05-08 18:03 | 32.32865 | 135.87946 | 36988 ft | 599 kts | 45° |
| 2026-05-08 18:03 | 32.38402 | 135.95306 | 36987 ft | 599 kts | 45° |
| 2026-05-08 18:04 | 32.43692 | 136.02933 | 36989 ft | 602 kts | 53° |
| 2026-05-08 18:04 | 32.48339 | 136.11203 | 36980 ft | 604 kts | 55° |
| 2026-05-08 18:05 | 32.52859 | 136.19590 | 36983 ft | 605 kts | 56° |
| 2026-05-08 18:05 | 32.57361 | 136.28012 | 36977 ft | 605 kts | 56° |
| 2026-05-08 18:06 | 32.61877 | 136.36436 | 36974 ft | 605 kts | 56° |
| 2026-05-08 18:06 | 32.66393 | 136.44851 | 36975 ft | 604 kts | 56° |
| 2026-05-08 18:07 | 32.70144 | 136.51851 | 36968 ft | 604 kts | 56° |
| 2026-05-08 18:07 | 32.75379 | 136.61645 | 36970 ft | 604 kts | 56° |
| 2026-05-08 18:08 | 32.79874 | 136.70078 | 36968 ft | 604 kts | 56° |
| 2026-05-08 18:08 | 32.83636 | 136.77150 | 36971 ft | 604 kts | 56° |
| 2026-05-08 18:09 | 32.88121 | 136.85598 | 36966 ft | 604 kts | 56° |
| 2026-05-08 18:09 | 32.92603 | 136.94063 | 36966 ft | 604 kts | 56° |
| 2026-05-08 18:10 | 32.97080 | 137.02535 | 36961 ft | 605 kts | 57° |
| 2026-05-08 18:10 | 33.01565 | 137.11042 | 36964 ft | 607 kts | 57° |
| 2026-05-08 18:11 | 33.06023 | 137.19518 | 36961 ft | 608 kts | 57° |
| 2026-05-08 18:11 | 33.10541 | 137.28128 | 36963 ft | 608 kts | 57° |
| 2026-05-08 18:12 | 33.14992 | 137.36629 | 36957 ft | 608 kts | 57° |
| 2026-05-08 18:12 | 33.19499 | 137.45253 | 36952 ft | 608 kts | 57° |
| 2026-05-08 18:13 | 33.23945 | 137.53775 | 36959 ft | 609 kts | 57° |
| 2026-05-08 18:13 | 33.28413 | 137.62363 | 36950 ft | 609 kts | 57° |
| 2026-05-08 18:14 | 33.32876 | 137.70961 | 36951 ft | 609 kts | 57° |
| 2026-05-08 18:14 | 33.37338 | 137.79575 | 36950 ft | 609 kts | 57° |
| 2026-05-08 18:15 | 33.41793 | 137.88196 | 36944 ft | 609 kts | 57° |
| 2026-05-08 18:15 | 33.46236 | 137.96824 | 36941 ft | 609 kts | 57° |
| 2026-05-08 18:16 | 33.50679 | 138.05459 | 36942 ft | 609 kts | 58° |
| 2026-05-08 18:16 | 33.55114 | 138.14104 | 36932 ft | 609 kts | 58° |
| 2026-05-08 18:17 | 33.59544 | 138.22755 | 36925 ft | 609 kts | 58° |
| 2026-05-08 18:17 | 33.63973 | 138.31415 | 36916 ft | 609 kts | 58° |
| 2026-05-08 18:18 | 33.68391 | 138.40081 | 36913 ft | 609 kts | 58° |
| 2026-05-08 18:18 | 33.72800 | 138.48752 | 36915 ft | 609 kts | 58° |
| 2026-05-08 18:19 | 33.77206 | 138.57450 | 36907 ft | 609 kts | 58° |
| 2026-05-08 18:19 | 33.81607 | 138.66142 | 36899 ft | 609 kts | 58° |
| 2026-05-08 18:20 | 33.85979 | 138.74793 | 36894 ft | 609 kts | 58° |
| 2026-05-08 18:20 | 33.90374 | 138.83515 | 36892 ft | 609 kts | 58° |
| 2026-05-08 18:21 | 33.94761 | 138.92247 | 36886 ft | 610 kts | 58° |
| 2026-05-08 18:21 | 33.99148 | 139.01000 | 36877 ft | 610 kts | 59° |
| 2026-05-08 18:22 | 34.03530 | 139.09763 | 36848 ft | 611 kts | 59° |
| 2026-05-08 18:22 | 34.07911 | 139.18545 | 36861 ft | 611 kts | 59° |
| 2026-05-08 18:23 | 34.12294 | 139.27354 | 36852 ft | 612 kts | 59° |
| 2026-05-08 18:23 | 34.16670 | 139.36161 | 36848 ft | 612 kts | 59° |
| 2026-05-08 18:24 | 34.21036 | 139.44978 | 36842 ft | 612 kts | 59° |
| 2026-05-08 18:24 | 34.25399 | 139.53812 | 36853 ft | 612 kts | 59° |
| 2026-05-08 18:25 | 34.29762 | 139.62666 | 36832 ft | 613 kts | 59° |
| 2026-05-08 18:25 | 34.34120 | 139.71531 | 36830 ft | 613 kts | 59° |
| 2026-05-08 18:26 | 34.38479 | 139.80420 | 36822 ft | 615 kts | 59° |
| 2026-05-08 18:26 | 34.42842 | 139.89339 | 36810 ft | 616 kts | 59° |
| 2026-05-08 18:27 | 34.46464 | 139.96761 | 36809 ft | 616 kts | 59° |
| 2026-05-08 18:27 | 34.51538 | 140.07185 | 36798 ft | 618 kts | 60° |
| 2026-05-08 18:28 | 34.55902 | 140.16176 | 36790 ft | 619 kts | 60° |
| 2026-05-08 18:28 | 34.60260 | 140.25177 | 36788 ft | 619 kts | 60° |
| 2026-05-08 18:29 | 34.64618 | 140.34199 | 36779 ft | 619 kts | 60° |
| 2026-05-08 18:29 | 34.68965 | 140.43225 | 36783 ft | 619 kts | 60° |
| 2026-05-08 18:30 | 34.73266 | 140.52306 | 36783 ft | 620 kts | 61° |
| 2026-05-08 18:30 | 34.77448 | 140.61467 | 36777 ft | 620 kts | 62° |
| 2026-05-08 18:31 | 34.81621 | 140.70656 | 36774 ft | 620 kts | 61° |
| 2026-05-08 18:31 | 34.85809 | 140.79835 | 36772 ft | 620 kts | 61° |
| 2026-05-08 18:32 | 34.90000 | 140.89012 | 36776 ft | 620 kts | 61° |
| 2026-05-08 18:32 | 34.94187 | 140.98201 | 36780 ft | 620 kts | 61° |
| 2026-05-08 18:33 | 34.98363 | 141.07398 | 36775 ft | 620 kts | 61° |
| 2026-05-08 18:33 | 35.02530 | 141.16602 | 36770 ft | 619 kts | 61° |
| 2026-05-08 18:34 | 35.06688 | 141.25810 | 36768 ft | 619 kts | 62° |
| 2026-05-08 18:34 | 35.10841 | 141.35032 | 36766 ft | 620 kts | 61° |
| 2026-05-08 18:35 | 35.14995 | 141.44282 | 36766 ft | 621 kts | 62° |
| 2026-05-08 18:35 | 35.19143 | 141.53543 | 36763 ft | 621 kts | 62° |
| 2026-05-08 18:36 | 35.23283 | 141.62812 | 36763 ft | 621 kts | 62° |
| 2026-05-08 18:36 | 35.27420 | 141.72100 | 36763 ft | 621 kts | 62° |
| 2026-05-08 18:37 | 35.31549 | 141.81394 | 36759 ft | 621 kts | 62° |
| 2026-05-08 18:37 | 35.35670 | 141.90695 | 36760 ft | 622 kts | 62° |
| 2026-05-08 18:38 | 35.39788 | 142.00016 | 36757 ft | 622 kts | 62° |
| 2026-05-08 18:38 | 35.43896 | 142.09339 | 36758 ft | 622 kts | 62° |
| 2026-05-08 18:39 | 35.47971 | 142.18614 | 36757 ft | 622 kts | 62° |
| 2026-05-08 18:39 | 35.52063 | 142.27954 | 36758 ft | 622 kts | 62° |
| 2026-05-08 18:40 | 35.56150 | 142.37307 | 36758 ft | 621 kts | 62° |
| 2026-05-08 18:40 | 35.60228 | 142.46666 | 36758 ft | 621 kts | 62° |
| 2026-05-08 18:41 | 35.64298 | 142.56032 | 36758 ft | 621 kts | 63° |
| 2026-05-08 18:41 | 35.68355 | 142.65397 | 36760 ft | 621 kts | 63° |
| 2026-05-08 18:42 | 35.72410 | 142.74781 | 36757 ft | 621 kts | 63° |
| 2026-05-08 18:42 | 35.76450 | 142.84157 | 36758 ft | 619 kts | 63° |
| 2026-05-08 18:43 | 35.80475 | 142.93524 | 36760 ft | 619 kts | 63° |
| 2026-05-08 18:43 | 35.84492 | 143.02900 | 36753 ft | 618 kts | 63° |
| 2026-05-08 18:44 | 35.88500 | 143.12282 | 36759 ft | 618 kts | 63° |
| 2026-05-08 18:44 | 35.90739 | 143.16793 | 36762 ft | 617 kts | 52° |
| 2026-05-08 18:44 | 35.93562 | 143.20762 | 36758 ft | 613 kts | 39° |
| 2026-05-08 18:45 | 35.96909 | 143.23942 | 36764 ft | 603 kts | 25° |
| 2026-05-08 18:45 | 36.00619 | 143.26229 | 36810 ft | 594 kts | 16° |
| 2026-05-08 18:45 | 36.08307 | 143.29910 | 36765 ft | 591 kts | 12° |
| 2026-05-08 18:46 | 36.16068 | 143.33285 | 36768 ft | 591 kts | 11° |
| 2026-05-08 18:46 | 36.23836 | 143.36691 | 36768 ft | 592 kts | 12° |
| 2026-05-08 18:47 | 36.31598 | 143.40173 | 36771 ft | 595 kts | 12° |
| 2026-05-08 18:47 | 36.39380 | 143.43704 | 36771 ft | 595 kts | 12° |
| 2026-05-08 18:48 | 36.47159 | 143.47243 | 36771 ft | 595 kts | 12° |
| 2026-05-08 18:48 | 36.54945 | 143.50787 | 36766 ft | 596 kts | 12° |
| 2026-05-08 18:49 | 36.62683 | 143.54314 | 36771 ft | 597 kts | 12° |
| 2026-05-08 18:49 | 36.70483 | 143.57877 | 36771 ft | 597 kts | 12° |
| 2026-05-08 18:50 | 36.78289 | 143.61450 | 36772 ft | 598 kts | 13° |
| 2026-05-08 18:50 | 36.86096 | 143.65032 | 36770 ft | 598 kts | 13° |
| 2026-05-08 18:51 | 36.93904 | 143.68622 | 36772 ft | 598 kts | 13° |
| 2026-05-08 18:51 | 37.01725 | 143.72226 | 36765 ft | 599 kts | 13° |
| 2026-05-08 18:52 | 37.09545 | 143.75838 | 36761 ft | 599 kts | 13° |
| 2026-05-08 18:52 | 37.17370 | 143.79459 | 36761 ft | 600 kts | 13° |
| 2026-05-08 18:53 | 37.25203 | 143.83093 | 36766 ft | 600 kts | 13° |
| 2026-05-08 18:53 | 37.33042 | 143.86737 | 36754 ft | 600 kts | 13° |
| 2026-05-08 18:54 | 37.40871 | 143.90385 | 36758 ft | 600 kts | 13° |
| 2026-05-08 18:54 | 37.48716 | 143.94048 | 36754 ft | 601 kts | 13° |
| 2026-05-08 18:55 | 37.60422 | 143.99531 | 36753 ft | 601 kts | 13° |
| 2026-05-08 18:56 | 37.68262 | 144.03212 | 36764 ft | 602 kts | 13° |
| 2026-05-08 18:56 | 37.76112 | 144.06906 | 36738 ft | 602 kts | 13° |
| 2026-05-08 18:57 | 37.83955 | 144.10607 | 36745 ft | 602 kts | 13° |
| 2026-05-08 18:57 | 37.90531 | 144.13715 | 36751 ft | 603 kts | 14° |
| 2026-05-08 18:58 | 37.98392 | 144.17438 | 36735 ft | 603 kts | 14° |
| 2026-05-08 18:58 | 38.06194 | 144.21143 | 36736 ft | 603 kts | 14° |
| 2026-05-08 18:59 | 38.14049 | 144.24881 | 36733 ft | 604 kts | 14° |
| 2026-05-08 18:59 | 38.21916 | 144.28633 | 36724 ft | 604 kts | 14° |
| 2026-05-08 19:00 | 38.29782 | 144.32394 | 36723 ft | 604 kts | 14° |
| 2026-05-08 19:00 | 38.37654 | 144.36166 | 36722 ft | 605 kts | 14° |
| 2026-05-08 19:01 | 38.45536 | 144.39952 | 36717 ft | 605 kts | 14° |
| 2026-05-08 19:01 | 38.53417 | 144.43746 | 36710 ft | 605 kts | 14° |
| 2026-05-08 19:02 | 38.61300 | 144.47551 | 36712 ft | 606 kts | 14° |
| 2026-05-08 19:02 | 38.68991 | 144.52072 | 36704 ft | 617 kts | 30° |
| 2026-05-08 19:03 | 38.75740 | 144.58940 | 36700 ft | 622 kts | 39° |
| 2026-05-08 19:03 | 38.82209 | 144.66321 | 36700 ft | 623 kts | 40° |
| 2026-05-08 19:04 | 38.88619 | 144.73812 | 36690 ft | 624 kts | 40° |
| 2026-05-08 19:04 | 38.95050 | 144.81277 | 36692 ft | 624 kts | 40° |
| 2026-05-08 19:05 | 39.01512 | 144.88731 | 36688 ft | 624 kts | 40° |
| 2026-05-08 19:05 | 39.07968 | 144.96182 | 36681 ft | 624 kts | 40° |
| 2026-05-08 19:06 | 39.14382 | 145.03607 | 36675 ft | 624 kts | 40° |
| 2026-05-08 19:06 | 39.20790 | 145.11051 | 36676 ft | 624 kts | 40° |
| 2026-05-08 19:07 | 39.27235 | 145.18559 | 36670 ft | 624 kts | 40° |
| 2026-05-08 19:07 | 39.33681 | 145.26087 | 36662 ft | 624 kts | 40° |
| 2026-05-08 19:08 | 39.40111 | 145.33616 | 36652 ft | 624 kts | 40° |
| 2026-05-08 19:08 | 39.46534 | 145.41156 | 36672 ft | 624 kts | 40° |
| 2026-05-08 19:09 | 39.52972 | 145.48733 | 36630 ft | 625 kts | 40° |
| 2026-05-08 19:09 | 39.59393 | 145.56310 | 36632 ft | 625 kts | 40° |
| 2026-05-08 19:10 | 39.65817 | 145.63911 | 36633 ft | 625 kts | 40° |
| 2026-05-08 19:10 | 39.72233 | 145.71521 | 36616 ft | 625 kts | 41° |
| 2026-05-08 19:11 | 39.78649 | 145.79152 | 36610 ft | 625 kts | 41° |
| 2026-05-08 19:11 | 39.85056 | 145.86793 | 36590 ft | 625 kts | 41° |
| 2026-05-08 19:12 | 39.91464 | 145.94455 | 36582 ft | 625 kts | 41° |
| 2026-05-08 19:12 | 39.97864 | 146.02128 | 36564 ft | 625 kts | 41° |
| 2026-05-08 19:13 | 40.04260 | 146.09817 | 36575 ft | 625 kts | 41° |
| 2026-05-08 19:13 | 40.10656 | 146.17526 | 36579 ft | 626 kts | 41° |
| 2026-05-08 19:14 | 40.17053 | 146.25256 | 36553 ft | 626 kts | 41° |
| 2026-05-08 19:14 | 40.23451 | 146.33009 | 36551 ft | 626 kts | 41° |
| 2026-05-08 19:15 | 40.29838 | 146.40769 | 36532 ft | 626 kts | 41° |
| 2026-05-08 19:15 | 40.36172 | 146.48487 | 36541 ft | 626 kts | 41° |
| 2026-05-08 19:16 | 40.42553 | 146.56282 | 36556 ft | 628 kts | 41° |
| 2026-05-08 19:16 | 40.48944 | 146.64110 | 36526 ft | 628 kts | 41° |
| 2026-05-08 19:17 | 40.55333 | 146.71958 | 36517 ft | 629 kts | 41° |
| 2026-05-08 19:17 | 40.61717 | 146.79821 | 36511 ft | 628 kts | 41° |
| 2026-05-08 19:18 | 40.68085 | 146.87687 | 36510 ft | 628 kts | 41° |
| 2026-05-08 19:18 | 40.74453 | 146.95573 | 36518 ft | 628 kts | 41° |
| 2026-05-08 19:19 | 40.80819 | 147.03478 | 36501 ft | 629 kts | 41° |
| 2026-05-08 19:19 | 40.87187 | 147.11408 | 36498 ft | 629 kts | 41° |
| 2026-05-08 19:20 | 40.93540 | 147.19343 | 36495 ft | 629 kts | 41° |
| 2026-05-08 19:20 | 40.99890 | 147.27295 | 36498 ft | 629 kts | 41° |
| 2026-05-08 19:21 | 41.06238 | 147.35266 | 36523 ft | 629 kts | 41° |
| 2026-05-08 19:21 | 41.12589 | 147.43264 | 36491 ft | 630 kts | 41° |
| 2026-05-08 19:22 | 41.18934 | 147.51277 | 36493 ft | 630 kts | 41° |
| 2026-05-08 19:22 | 41.25263 | 147.59293 | 36498 ft | 629 kts | 41° |
| 2026-05-08 19:23 | 41.31589 | 147.67326 | 36495 ft | 628 kts | 41° |
| 2026-05-08 19:23 | 41.37901 | 147.75365 | 36492 ft | 628 kts | 41° |
| 2026-05-08 19:24 | 41.44224 | 147.83439 | 36495 ft | 630 kts | 41° |
| 2026-05-08 19:24 | 41.50501 | 147.91479 | 36495 ft | 630 kts | 41° |
| 2026-05-08 19:25 | 41.56809 | 147.99582 | 36493 ft | 630 kts | 41° |
| 2026-05-08 19:25 | 41.63114 | 148.07704 | 36498 ft | 630 kts | 41° |
| 2026-05-08 19:26 | 41.69416 | 148.15844 | 36504 ft | 630 kts | 41° |
| 2026-05-08 19:26 | 41.75713 | 148.24008 | 36502 ft | 631 kts | 42° |
| 2026-05-08 19:27 | 41.81969 | 148.32254 | 36512 ft | 631 kts | 43° |
| 2026-05-08 19:27 | 41.88191 | 148.40536 | 36509 ft | 630 kts | 43° |
| 2026-05-08 19:28 | 41.94410 | 148.48824 | 36520 ft | 630 kts | 43° |
| 2026-05-08 19:28 | 42.00634 | 148.57124 | 36519 ft | 630 kts | 42° |
| 2026-05-08 19:29 | 42.06852 | 148.65434 | 36547 ft | 631 kts | 42° |
| 2026-05-08 19:29 | 42.13077 | 148.73779 | 36535 ft | 631 kts | 42° |
| 2026-05-08 19:30 | 42.19289 | 148.82134 | 36538 ft | 631 kts | 42° |
| 2026-05-08 19:30 | 42.25490 | 148.90498 | 36546 ft | 631 kts | 42° |
| 2026-05-08 19:31 | 42.31690 | 148.98885 | 36537 ft | 630 kts | 42° |
| 2026-05-08 19:31 | 42.37878 | 149.07282 | 36553 ft | 630 kts | 43° |
| 2026-05-08 19:32 | 42.44065 | 149.15699 | 36556 ft | 631 kts | 43° |
| 2026-05-08 19:32 | 42.50250 | 149.24142 | 36566 ft | 631 kts | 43° |
| 2026-05-08 19:33 | 42.56423 | 149.32594 | 36567 ft | 631 kts | 43° |
| 2026-05-08 19:33 | 42.62590 | 149.41060 | 36557 ft | 630 kts | 43° |
| 2026-05-08 19:34 | 42.68737 | 149.49527 | 36578 ft | 629 kts | 43° |
| 2026-05-08 19:34 | 42.74872 | 149.58000 | 36615 ft | 629 kts | 43° |
| 2026-05-08 19:35 | 42.81009 | 149.66503 | 36581 ft | 629 kts | 43° |
| 2026-05-08 19:35 | 42.87144 | 149.75028 | 36590 ft | 629 kts | 43° |
| 2026-05-08 19:36 | 42.93225 | 149.83504 | 36592 ft | 629 kts | 43° |
| 2026-05-08 19:36 | 42.99337 | 149.92049 | 36594 ft | 629 kts | 43° |
| 2026-05-08 19:37 | 43.05445 | 150.00614 | 36603 ft | 629 kts | 43° |
| 2026-05-08 19:37 | 43.11542 | 150.09189 | 36598 ft | 628 kts | 43° |
| 2026-05-08 19:38 | 43.17668 | 150.17832 | 36612 ft | 628 kts | 43° |
| 2026-05-08 19:38 | 43.23743 | 150.26429 | 36619 ft | 628 kts | 43° |
| 2026-05-08 19:39 | 43.29811 | 150.35042 | 36627 ft | 628 kts | 43° |
| 2026-05-08 19:39 | 43.35834 | 150.43618 | 36633 ft | 628 kts | 43° |
| 2026-05-08 19:40 | 43.41888 | 150.52263 | 36702 ft | 628 kts | 43° |
| 2026-05-08 19:40 | 43.47943 | 150.60938 | 36641 ft | 628 kts | 43° |
| 2026-05-08 19:41 | 43.53997 | 150.69637 | 36651 ft | 628 kts | 43° |
| 2026-05-08 19:41 | 43.60032 | 150.78338 | 36654 ft | 628 kts | 43° |
| 2026-05-08 19:42 | 43.66070 | 150.87068 | 36662 ft | 629 kts | 43° |
| 2026-05-08 19:42 | 43.72106 | 150.95823 | 36670 ft | 629 kts | 43° |
| 2026-05-08 19:43 | 43.77112 | 151.03105 | 36708 ft | 629 kts | 43° |
| 2026-05-08 19:43 | 43.84158 | 151.13386 | 36681 ft | 629 kts | 43° |
| 2026-05-08 19:44 | 43.90178 | 151.22200 | 36693 ft | 629 kts | 43° |
| 2026-05-08 19:44 | 43.95175 | 151.29538 | 36694 ft | 629 kts | 43° |
| 2026-05-08 19:45 | 44.01179 | 151.38380 | 36707 ft | 629 kts | 43° |
| 2026-05-08 19:45 | 44.07176 | 151.47239 | 36693 ft | 629 kts | 43° |
| 2026-05-08 19:46 | 44.13169 | 151.56120 | 36741 ft | 630 kts | 43° |
| 2026-05-08 19:46 | 44.22152 | 151.69486 | 36713 ft | 630 kts | 44° |
| 2026-05-08 19:47 | 44.28126 | 151.78411 | 36719 ft | 629 kts | 44° |
| 2026-05-08 19:47 | 44.34092 | 151.87351 | 36724 ft | 629 kts | 44° |
| 2026-05-08 19:48 | 44.40048 | 151.96306 | 36725 ft | 629 kts | 44° |
| 2026-05-08 19:48 | 44.45999 | 152.05282 | 36727 ft | 629 kts | 44° |
| 2026-05-08 19:49 | 44.51942 | 152.14274 | 36732 ft | 629 kts | 44° |
| 2026-05-08 19:49 | 44.57873 | 152.23279 | 36735 ft | 628 kts | 44° |
| 2026-05-08 19:50 | 44.63787 | 152.32287 | 36741 ft | 627 kts | 44° |
| 2026-05-08 19:50 | 44.69694 | 152.41311 | 36741 ft | 627 kts | 44° |
| 2026-05-08 19:51 | 44.75589 | 152.50348 | 36751 ft | 627 kts | 43° |
| 2026-05-08 19:51 | 44.81471 | 152.59393 | 36750 ft | 626 kts | 43° |
| 2026-05-08 19:52 | 44.87341 | 152.68449 | 36757 ft | 625 kts | 44° |
| 2026-05-08 19:52 | 44.93187 | 152.77498 | 36760 ft | 623 kts | 44° |
| 2026-05-08 19:53 | 44.98977 | 152.86489 | 36760 ft | 623 kts | 44° |
| 2026-05-08 19:53 | 45.04803 | 152.95564 | 36763 ft | 623 kts | 44° |
| 2026-05-08 19:54 | 45.10612 | 153.04646 | 36771 ft | 622 kts | 43° |
| 2026-05-08 19:54 | 45.16403 | 153.13729 | 36777 ft | 621 kts | 44° |
| 2026-05-08 19:55 | 45.22185 | 153.22826 | 36780 ft | 620 kts | 44° |
| 2026-05-08 19:55 | 45.27935 | 153.31905 | 36785 ft | 617 kts | 43° |
| 2026-05-08 19:56 | 45.33656 | 153.40966 | 36787 ft | 616 kts | 43° |
| 2026-05-08 19:56 | 45.39368 | 153.50038 | 36787 ft | 615 kts | 43° |
| 2026-05-08 19:57 | 45.45057 | 153.59108 | 36796 ft | 613 kts | 43° |
| 2026-05-08 19:57 | 45.50724 | 153.68172 | 36853 ft | 611 kts | 43° |
| 2026-05-08 19:58 | 45.53527 | 153.72673 | 37363 ft | 601 kts | 43° |
| 2026-05-08 19:58 | 45.56280 | 153.77120 | 37878 ft | 597 kts | 43° |
| 2026-05-08 19:58 | 45.59009 | 153.81561 | 38216 ft | 594 kts | 43° |
| 2026-05-08 19:58 | 45.61722 | 153.85992 | 38538 ft | 591 kts | 43° |
| 2026-05-08 19:59 | 45.64425 | 153.90416 | 38748 ft | 590 kts | 43° |
| 2026-05-08 19:59 | 45.67131 | 153.94847 | 38805 ft | 593 kts | 43° |
| 2026-05-08 19:59 | 45.72582 | 154.03780 | 38813 ft | 599 kts | 43° |
| 2026-05-08 20:00 | 45.78056 | 154.12779 | 38819 ft | 602 kts | 44° |
| 2026-05-08 20:00 | 45.83556 | 154.21854 | 38827 ft | 603 kts | 44° |
| 2026-05-08 20:01 | 45.89045 | 154.30943 | 38831 ft | 603 kts | 44° |
| 2026-05-08 20:01 | 45.94538 | 154.40067 | 38840 ft | 604 kts | 44° |
| 2026-05-08 20:02 | 46.00023 | 154.49207 | 38845 ft | 603 kts | 44° |
| 2026-05-08 20:02 | 46.05459 | 154.58294 | 38846 ft | 603 kts | 44° |
| 2026-05-08 20:03 | 46.10917 | 154.67450 | 38851 ft | 601 kts | 44° |
| 2026-05-08 20:03 | 46.16354 | 154.76599 | 38854 ft | 600 kts | 44° |
| 2026-05-08 20:04 | 46.21775 | 154.85752 | 38859 ft | 600 kts | 44° |
| 2026-05-08 20:04 | 46.27191 | 154.94927 | 38881 ft | 599 kts | 44° |
| 2026-05-08 20:05 | 46.32594 | 155.04109 | 38866 ft | 600 kts | 44° |
| 2026-05-08 20:05 | 46.37996 | 155.13321 | 38873 ft | 600 kts | 44° |
| 2026-05-08 20:06 | 46.43382 | 155.22538 | 38875 ft | 599 kts | 44° |
| 2026-05-08 20:06 | 46.48750 | 155.31755 | 38875 ft | 598 kts | 44° |
| 2026-05-08 20:07 | 46.54108 | 155.40984 | 38871 ft | 598 kts | 44° |
| 2026-05-08 20:07 | 46.59460 | 155.50232 | 38875 ft | 598 kts | 44° |
| 2026-05-08 20:08 | 46.64804 | 155.59499 | 38877 ft | 598 kts | 44° |
| 2026-05-08 20:08 | 46.70141 | 155.68787 | 38872 ft | 598 kts | 45° |
| 2026-05-08 20:09 | 46.75470 | 155.78091 | 38879 ft | 597 kts | 45° |
| 2026-05-08 20:09 | 46.80778 | 155.87393 | 38887 ft | 596 kts | 45° |
| 2026-05-08 20:10 | 46.86038 | 155.96640 | 38888 ft | 596 kts | 45° |
| 2026-05-08 20:10 | 46.91327 | 156.05966 | 38891 ft | 595 kts | 45° |
| 2026-05-08 20:11 | 46.96596 | 156.15293 | 38892 ft | 594 kts | 45° |
| 2026-05-08 20:11 | 47.01852 | 156.24626 | 38903 ft | 594 kts | 45° |
| 2026-05-08 20:12 | 47.07099 | 156.33977 | 38897 ft | 593 kts | 45° |
| 2026-05-08 20:12 | 47.12331 | 156.43333 | 38900 ft | 592 kts | 45° |
| 2026-05-08 20:13 | 47.17552 | 156.52702 | 38903 ft | 592 kts | 45° |
| 2026-05-08 20:13 | 47.22762 | 156.62080 | 38906 ft | 592 kts | 45° |
| 2026-05-08 20:14 | 47.27962 | 156.71475 | 38908 ft | 591 kts | 45° |
| 2026-05-08 20:14 | 47.33151 | 156.80882 | 38914 ft | 591 kts | 45° |
| 2026-05-08 20:15 | 47.38330 | 156.90302 | 38925 ft | 591 kts | 45° |
| 2026-05-08 20:15 | 47.43502 | 156.99739 | 38921 ft | 591 kts | 45° |
| 2026-05-08 20:16 | 47.48669 | 157.09203 | 38926 ft | 591 kts | 45° |
| 2026-05-08 20:16 | 47.53818 | 157.18668 | 38926 ft | 591 kts | 45° |
| 2026-05-08 20:17 | 47.58966 | 157.28164 | 38926 ft | 591 kts | 46° |
| 2026-05-08 20:17 | 47.64098 | 157.37664 | 38931 ft | 590 kts | 46° |
| 2026-05-08 20:18 | 47.69213 | 157.47165 | 38929 ft | 589 kts | 46° |
| 2026-05-08 20:18 | 47.74324 | 157.56691 | 38966 ft | 590 kts | 46° |
| 2026-05-08 20:19 | 47.79394 | 157.66172 | 38938 ft | 589 kts | 46° |
| 2026-05-08 20:19 | 47.84483 | 157.75725 | 38938 ft | 589 kts | 46° |
| 2026-05-08 20:20 | 47.89564 | 157.85296 | 38944 ft | 589 kts | 46° |
| 2026-05-08 20:20 | 47.94639 | 157.94887 | 38944 ft | 589 kts | 47° |
| 2026-05-08 20:21 | 47.99707 | 158.04501 | 38944 ft | 589 kts | 47° |
| 2026-05-08 20:21 | 48.04771 | 158.14142 | 38949 ft | 589 kts | 47° |
| 2026-05-08 20:22 | 48.09822 | 158.23791 | 38954 ft | 589 kts | 47° |
| 2026-05-08 20:22 | 48.14055 | 158.31903 | 38956 ft | 591 kts | 47° |
| 2026-05-08 20:23 | 48.19922 | 158.43192 | 38952 ft | 591 kts | 47° |
| 2026-05-08 20:23 | 48.24961 | 158.52923 | 38951 ft | 591 kts | 48° |
| 2026-05-08 20:24 | 48.29991 | 158.62672 | 38952 ft | 591 kts | 48° |
| 2026-05-08 20:24 | 48.35016 | 158.72446 | 38953 ft | 591 kts | 48° |
| 2026-05-08 20:25 | 48.40028 | 158.82232 | 38956 ft | 591 kts | 48° |
| 2026-05-08 20:25 | 48.45035 | 158.92041 | 38958 ft | 591 kts | 48° |
| 2026-05-08 20:26 | 48.50036 | 159.01875 | 38967 ft | 591 kts | 49° |
| 2026-05-08 20:26 | 48.54999 | 159.11670 | 38961 ft | 591 kts | 49° |
| 2026-05-08 20:27 | 48.60017 | 159.21610 | 38959 ft | 591 kts | 49° |
| 2026-05-08 20:27 | 48.64958 | 159.31435 | 38963 ft | 591 kts | 49° |
| 2026-05-08 20:28 | 48.69926 | 159.41347 | 38962 ft | 591 kts | 49° |
| 2026-05-08 20:28 | 48.74886 | 159.51280 | 38964 ft | 591 kts | 49° |
| 2026-05-08 20:29 | 48.79839 | 159.61239 | 38966 ft | 591 kts | 49° |
| 2026-05-08 20:29 | 48.84786 | 159.71218 | 38985 ft | 592 kts | 49° |
| 2026-05-08 20:30 | 48.89726 | 159.81225 | 38970 ft | 592 kts | 49° |
| 2026-05-08 20:30 | 48.94660 | 159.91255 | 38973 ft | 592 kts | 49° |
| 2026-05-08 20:31 | 48.99582 | 160.01297 | 38969 ft | 592 kts | 49° |
| 2026-05-08 20:31 | 49.04426 | 160.11454 | 38976 ft | 593 kts | 51° |
| 2026-05-08 20:32 | 49.09179 | 160.21724 | 38985 ft | 593 kts | 51° |
| 2026-05-08 20:32 | 49.13929 | 160.32011 | 38979 ft | 593 kts | 51° |
| 2026-05-08 20:33 | 49.17885 | 160.40561 | 38972 ft | 592 kts | 51° |
| 2026-05-08 20:33 | 49.22639 | 160.50846 | 38974 ft | 592 kts | 51° |
| 2026-05-08 20:34 | 49.27379 | 160.61139 | 38971 ft | 591 kts | 51° |
| 2026-05-08 20:35 | 49.35233 | 160.78286 | 38971 ft | 591 kts | 51° |
| 2026-05-08 20:35 | 49.39177 | 160.86942 | 38971 ft | 591 kts | 51° |
| 2026-05-08 20:36 | 49.43877 | 160.97293 | 38974 ft | 591 kts | 51° |
| 2026-05-08 20:36 | 49.48570 | 161.07666 | 38969 ft | 591 kts | 51° |
| 2026-05-08 20:37 | 49.53249 | 161.18070 | 38970 ft | 591 kts | 51° |
| 2026-05-08 20:37 | 49.57890 | 161.28510 | 38968 ft | 591 kts | 52° |
| 2026-05-08 20:38 | 49.62493 | 161.38921 | 38967 ft | 591 kts | 52° |
| 2026-05-08 20:38 | 49.67139 | 161.49462 | 38966 ft | 590 kts | 52° |
| 2026-05-08 20:39 | 49.71748 | 161.59950 | 38963 ft | 590 kts | 52° |
| 2026-05-08 20:39 | 49.76315 | 161.70383 | 38965 ft | 590 kts | 52° |
| 2026-05-08 20:40 | 49.80899 | 161.80897 | 38960 ft | 589 kts | 52° |
| 2026-05-08 20:40 | 49.85473 | 161.91429 | 38960 ft | 589 kts | 52° |
| 2026-05-08 20:41 | 49.90039 | 162.01985 | 38965 ft | 589 kts | 52° |
| 2026-05-08 20:41 | 49.94593 | 162.12554 | 38963 ft | 589 kts | 52° |
| 2026-05-08 20:42 | 49.99136 | 162.23144 | 38966 ft | 589 kts | 52° |
| 2026-05-08 20:42 | 50.03666 | 162.33743 | 38964 ft | 588 kts | 52° |
| 2026-05-08 20:43 | 50.08176 | 162.44338 | 38961 ft | 587 kts | 52° |
| 2026-05-08 20:43 | 50.12675 | 162.54951 | 38960 ft | 587 kts | 52° |
| 2026-05-08 20:44 | 50.17160 | 162.65572 | 38965 ft | 587 kts | 52° |
| 2026-05-08 20:44 | 50.21638 | 162.76220 | 38959 ft | 587 kts | 52° |
| 2026-05-08 20:45 | 50.26100 | 162.86876 | 38957 ft | 585 kts | 52° |
| 2026-05-08 20:45 | 50.30544 | 162.97529 | 38957 ft | 585 kts | 52° |
| 2026-05-08 20:46 | 50.34978 | 163.08199 | 38957 ft | 584 kts | 53° |
| 2026-05-08 20:46 | 50.39397 | 163.18881 | 38958 ft | 584 kts | 53° |
| 2026-05-08 20:47 | 50.43803 | 163.29573 | 38953 ft | 584 kts | 53° |
| 2026-05-08 20:47 | 50.48170 | 163.40213 | 38954 ft | 584 kts | 53° |
| 2026-05-08 20:48 | 50.52553 | 163.50936 | 38956 ft | 584 kts | 53° |
| 2026-05-08 20:48 | 50.56925 | 163.61678 | 38948 ft | 583 kts | 53° |
| 2026-05-08 20:49 | 50.61286 | 163.72437 | 38953 ft | 583 kts | 53° |
| 2026-05-08 20:49 | 50.65634 | 163.83206 | 38951 ft | 583 kts | 53° |
| 2026-05-08 20:50 | 50.69973 | 163.93999 | 38986 ft | 583 kts | 53° |
| 2026-05-08 20:50 | 50.74298 | 164.04802 | 38948 ft | 581 kts | 53° |
| 2026-05-08 20:51 | 50.78603 | 164.15601 | 38946 ft | 581 kts | 53° |
| 2026-05-08 20:51 | 50.82897 | 164.26416 | 38936 ft | 580 kts | 53° |
| 2026-05-08 20:52 | 50.87182 | 164.37251 | 38943 ft | 580 kts | 54° |
| 2026-05-08 20:52 | 50.91449 | 164.48085 | 38942 ft | 580 kts | 53° |
| 2026-05-08 20:53 | 50.95726 | 164.58912 | 38949 ft | 579 kts | 53° |
| 2026-05-08 20:53 | 51.00000 | 164.69754 | 38945 ft | 579 kts | 54° |
| 2026-05-08 20:54 | 51.04258 | 164.80610 | 38942 ft | 579 kts | 54° |
| 2026-05-08 20:54 | 51.08500 | 164.91480 | 38944 ft | 578 kts | 54° |
| 2026-05-08 20:55 | 51.12718 | 165.02339 | 38946 ft | 577 kts | 54° |
| 2026-05-08 20:55 | 51.16923 | 165.13207 | 38947 ft | 576 kts | 54° |
| 2026-05-08 20:56 | 51.21113 | 165.24084 | 38942 ft | 575 kts | 54° |
| 2026-05-08 20:56 | 51.25283 | 165.34953 | 38941 ft | 574 kts | 54° |
| 2026-05-08 20:57 | 51.29440 | 165.45832 | 38941 ft | 574 kts | 55° |
| 2026-05-08 20:57 | 51.33564 | 165.56671 | 38944 ft | 574 kts | 55° |
| 2026-05-08 20:58 | 51.37698 | 165.67580 | 38941 ft | 573 kts | 55° |
| 2026-05-08 20:58 | 51.41839 | 165.78492 | 38941 ft | 573 kts | 55° |
| 2026-05-08 20:59 | 51.45973 | 165.89410 | 38942 ft | 572 kts | 55° |
| 2026-05-08 20:59 | 51.50083 | 166.00325 | 38943 ft | 571 kts | 55° |
| 2026-05-08 21:00 | 51.54177 | 166.11247 | 38943 ft | 571 kts | 55° |
| 2026-05-08 21:00 | 51.58261 | 166.22195 | 38946 ft | 571 kts | 56° |
| 2026-05-08 21:01 | 51.62334 | 166.33156 | 38943 ft | 571 kts | 56° |
| 2026-05-08 21:01 | 51.66399 | 166.44147 | 38947 ft | 571 kts | 56° |
| 2026-05-08 21:02 | 51.70448 | 166.55139 | 38938 ft | 570 kts | 56° |
| 2026-05-08 21:02 | 51.74484 | 166.66146 | 38937 ft | 570 kts | 56° |
| 2026-05-08 21:03 | 51.78515 | 166.77183 | 38962 ft | 570 kts | 56° |
| 2026-05-08 21:03 | 51.82525 | 166.88215 | 38946 ft | 568 kts | 56° |
| 2026-05-08 21:04 | 51.86512 | 166.99231 | 38937 ft | 567 kts | 57° |
| 2026-05-08 21:04 | 51.90486 | 167.10256 | 38943 ft | 567 kts | 57° |
| 2026-05-08 21:05 | 51.94446 | 167.21290 | 38940 ft | 567 kts | 57° |
| 2026-05-08 21:05 | 51.98394 | 167.32342 | 38941 ft | 566 kts | 57° |
| 2026-05-08 21:06 | 52.02306 | 167.43336 | 38941 ft | 566 kts | 57° |
| 2026-05-08 21:06 | 52.06232 | 167.54422 | 38940 ft | 566 kts | 57° |
| 2026-05-08 21:07 | 52.10150 | 167.65534 | 38947 ft | 566 kts | 57° |
| 2026-05-08 21:07 | 52.14055 | 167.76660 | 38950 ft | 566 kts | 57° |
| 2026-05-08 21:08 | 52.17943 | 167.87785 | 38942 ft | 564 kts | 57° |
| 2026-05-08 21:08 | 52.21813 | 167.98907 | 38944 ft | 564 kts | 57° |
| 2026-05-08 21:09 | 52.25671 | 168.10046 | 38946 ft | 563 kts | 57° |
| 2026-05-08 21:09 | 52.29510 | 168.21177 | 38941 ft | 563 kts | 58° |
| 2026-05-08 21:10 | 52.33338 | 168.32328 | 38944 ft | 562 kts | 58° |
| 2026-05-08 21:10 | 52.37158 | 168.43503 | 38947 ft | 562 kts | 58° |
| 2026-05-08 21:11 | 52.40961 | 168.54679 | 38941 ft | 562 kts | 58° |
| 2026-05-08 21:11 | 52.44753 | 168.65876 | 38941 ft | 562 kts | 58° |
| 2026-05-08 21:12 | 52.48532 | 168.77083 | 38957 ft | 561 kts | 58° |
| 2026-05-08 21:12 | 52.52294 | 168.88290 | 38944 ft | 560 kts | 58° |
| 2026-05-08 21:13 | 52.56041 | 168.99506 | 38944 ft | 559 kts | 58° |
| 2026-05-08 21:13 | 52.59739 | 169.10623 | 38943 ft | 559 kts | 58° |
| 2026-05-08 21:14 | 52.63456 | 169.21847 | 38944 ft | 559 kts | 58° |
| 2026-05-08 21:14 | 52.67164 | 169.33095 | 38946 ft | 559 kts | 58° |
| 2026-05-08 21:15 | 52.70864 | 169.44368 | 38948 ft | 559 kts | 59° |
| 2026-05-08 21:15 | 52.74547 | 169.55645 | 38943 ft | 558 kts | 59° |
| 2026-05-08 21:16 | 52.78221 | 169.66946 | 38935 ft | 558 kts | 59° |
| 2026-05-08 21:16 | 52.81883 | 169.78259 | 38947 ft | 558 kts | 59° |
| 2026-05-08 21:17 | 52.85529 | 169.89579 | 38947 ft | 557 kts | 59° |
| 2026-05-08 21:17 | 52.89160 | 170.00904 | 38942 ft | 556 kts | 59° |
| 2026-05-08 21:18 | 52.92806 | 170.12198 | 38939 ft | 554 kts | 56° |
| 2026-05-08 21:18 | 52.97391 | 170.22350 | 38940 ft | 549 kts | 47° |
| 2026-05-08 21:19 | 53.02301 | 170.31937 | 38941 ft | 548 kts | 45° |
| 2026-05-08 21:19 | 53.07297 | 170.41523 | 38939 ft | 548 kts | 45° |
| 2026-05-08 21:20 | 53.12276 | 170.51135 | 38960 ft | 549 kts | 46° |
| 2026-05-08 21:20 | 53.17234 | 170.60786 | 38941 ft | 548 kts | 46° |
| 2026-05-08 21:21 | 53.22172 | 170.70452 | 38938 ft | 547 kts | 46° |
| 2026-05-08 21:21 | 53.27096 | 170.80129 | 38940 ft | 546 kts | 46° |
| 2026-05-08 21:22 | 53.32003 | 170.89808 | 38935 ft | 545 kts | 46° |
| 2026-05-08 21:22 | 53.36892 | 170.99488 | 38936 ft | 545 kts | 47° |
| 2026-05-08 21:23 | 53.41777 | 171.09196 | 38947 ft | 545 kts | 47° |
| 2026-05-08 21:23 | 53.46646 | 171.18912 | 38935 ft | 544 kts | 47° |
| 2026-05-08 21:24 | 53.50680 | 171.26992 | 38933 ft | 542 kts | 47° |
| 2026-05-08 21:24 | 53.55548 | 171.36775 | 38937 ft | 541 kts | 48° |
| 2026-05-08 21:25 | 53.60341 | 171.46446 | 38935 ft | 541 kts | 48° |
| 2026-05-08 21:25 | 53.65151 | 171.56189 | 38937 ft | 541 kts | 48° |
| 2026-05-08 21:26 | 53.69958 | 171.65965 | 38932 ft | 541 kts | 48° |
| 2026-05-08 21:26 | 53.74751 | 171.75751 | 38935 ft | 540 kts | 48° |
| 2026-05-08 21:27 | 53.79530 | 171.85547 | 38933 ft | 540 kts | 48° |
| 2026-05-08 21:27 | 53.84302 | 171.95367 | 38934 ft | 540 kts | 48° |
| 2026-05-08 21:28 | 53.89064 | 172.05205 | 38930 ft | 540 kts | 49° |
| 2026-05-08 21:28 | 53.93816 | 172.15061 | 38930 ft | 540 kts | 49° |
| 2026-05-08 21:29 | 53.98554 | 172.24929 | 38934 ft | 539 kts | 49° |
| 2026-05-08 21:29 | 54.03284 | 172.34818 | 38932 ft | 538 kts | 49° |
| 2026-05-08 21:30 | 54.07996 | 172.44711 | 38928 ft | 538 kts | 49° |
| 2026-05-08 21:30 | 54.12699 | 172.54622 | 38930 ft | 538 kts | 49° |
| 2026-05-08 21:31 | 54.17388 | 172.64545 | 38931 ft | 537 kts | 50° |
| 2026-05-08 21:31 | 54.22066 | 172.74483 | 38930 ft | 536 kts | 50° |
| 2026-05-08 21:32 | 54.26575 | 172.84641 | 38928 ft | 537 kts | 54° |
| 2026-05-08 21:32 | 54.30747 | 172.95256 | 38932 ft | 537 kts | 55° |
| 2026-05-08 21:33 | 54.34847 | 173.05937 | 38925 ft | 536 kts | 56° |
| 2026-05-08 21:33 | 54.38925 | 173.16628 | 38922 ft | 535 kts | 56° |
| 2026-05-08 21:34 | 54.42994 | 173.27323 | 38922 ft | 535 kts | 56° |
| 2026-05-08 21:34 | 54.47030 | 173.37963 | 38919 ft | 535 kts | 56° |
| 2026-05-08 21:35 | 54.51085 | 173.48693 | 38921 ft | 535 kts | 56° |
| 2026-05-08 21:35 | 54.55126 | 173.59437 | 38915 ft | 534 kts | 56° |
| 2026-05-08 21:36 | 54.59155 | 173.70194 | 38926 ft | 534 kts | 56° |
| 2026-05-08 21:36 | 54.63169 | 173.80959 | 38924 ft | 533 kts | 57° |
| 2026-05-08 21:37 | 54.67169 | 173.91732 | 38908 ft | 533 kts | 57° |
| 2026-05-08 21:37 | 54.71158 | 174.02524 | 38907 ft | 532 kts | 57° |
| 2026-05-08 21:38 | 54.75131 | 174.13318 | 38918 ft | 532 kts | 57° |
| 2026-05-08 21:38 | 54.79093 | 174.24132 | 38916 ft | 531 kts | 57° |
| 2026-05-08 21:39 | 54.83042 | 174.34957 | 38911 ft | 531 kts | 57° |
| 2026-05-08 21:39 | 54.86985 | 174.45810 | 38907 ft | 531 kts | 57° |
| 2026-05-08 21:40 | 54.90911 | 174.56668 | 38903 ft | 530 kts | 58° |
| 2026-05-08 21:40 | 54.94820 | 174.67525 | 38896 ft | 529 kts | 58° |
| 2026-05-08 21:41 | 55.00654 | 174.83818 | 38897 ft | 528 kts | 58° |
| 2026-05-08 21:41 | 55.04503 | 174.94629 | 38894 ft | 528 kts | 58° |
| 2026-05-08 21:42 | 55.08367 | 175.05530 | 38891 ft | 528 kts | 58° |
| 2026-05-08 21:42 | 55.12224 | 175.16457 | 38891 ft | 528 kts | 58° |
| 2026-05-08 21:43 | 55.16068 | 175.27399 | 38888 ft | 528 kts | 58° |
| 2026-05-08 21:43 | 55.19904 | 175.38364 | 38886 ft | 528 kts | 59° |
| 2026-05-08 21:44 | 55.23725 | 175.49338 | 38886 ft | 527 kts | 59° |
| 2026-05-08 21:44 | 55.27535 | 175.60329 | 38871 ft | 527 kts | 59° |
| 2026-05-08 21:45 | 55.31334 | 175.71339 | 38880 ft | 527 kts | 59° |
| 2026-05-08 21:45 | 55.35124 | 175.82371 | 38879 ft | 527 kts | 59° |
| 2026-05-08 21:46 | 55.38901 | 175.93415 | 38878 ft | 527 kts | 59° |
| 2026-05-08 21:46 | 55.42670 | 176.04488 | 38873 ft | 527 kts | 59° |
| 2026-05-08 21:47 | 55.46431 | 176.15586 | 38872 ft | 527 kts | 59° |
| 2026-05-08 21:47 | 55.50169 | 176.26667 | 38864 ft | 525 kts | 60° |
| 2026-05-08 21:48 | 55.53864 | 176.37672 | 38869 ft | 524 kts | 60° |
| 2026-05-08 21:48 | 55.57566 | 176.48748 | 38864 ft | 524 kts | 60° |
| 2026-05-08 21:49 | 55.61258 | 176.59845 | 38865 ft | 523 kts | 60° |
| 2026-05-08 21:49 | 55.64939 | 176.70961 | 38868 ft | 523 kts | 60° |
| 2026-05-08 21:50 | 55.68604 | 176.82078 | 38867 ft | 522 kts | 60° |
| 2026-05-08 21:50 | 55.72255 | 176.93203 | 38862 ft | 522 kts | 60° |
| 2026-05-08 21:51 | 55.75899 | 177.04359 | 38865 ft | 522 kts | 60° |
| 2026-05-08 21:51 | 55.79525 | 177.15511 | 38862 ft | 521 kts | 61° |
| 2026-05-08 21:52 | 55.83139 | 177.26679 | 38856 ft | 520 kts | 61° |
| 2026-05-08 21:52 | 55.86736 | 177.37848 | 38860 ft | 520 kts | 61° |
| 2026-05-08 21:53 | 55.90327 | 177.49049 | 38859 ft | 521 kts | 61° |
| 2026-05-08 21:53 | 55.93906 | 177.60264 | 38859 ft | 520 kts | 61° |
| 2026-05-08 21:54 | 55.97474 | 177.71498 | 38863 ft | 520 kts | 61° |
| 2026-05-08 21:54 | 56.01030 | 177.82747 | 38864 ft | 520 kts | 62° |
| 2026-05-08 21:55 | 56.04579 | 177.94025 | 38864 ft | 520 kts | 62° |
| 2026-05-08 21:56 | 56.09878 | 178.10968 | 38867 ft | 520 kts | 62° |
| 2026-05-08 21:56 | 56.13395 | 178.22286 | 38872 ft | 520 kts | 62° |
| 2026-05-08 21:57 | 56.16901 | 178.33628 | 38871 ft | 519 kts | 62° |
| 2026-05-08 21:57 | 56.20385 | 178.44946 | 38878 ft | 518 kts | 63° |
| 2026-05-08 21:58 | 56.23859 | 178.56289 | 38878 ft | 518 kts | 63° |
| 2026-05-08 21:58 | 56.27319 | 178.67644 | 38881 ft | 518 kts | 62° |
| 2026-05-08 21:59 | 56.30771 | 178.79023 | 38887 ft | 517 kts | 62° |
| 2026-05-08 21:59 | 56.34202 | 178.90384 | 38885 ft | 515 kts | 63° |
| 2026-05-08 22:00 | 56.37610 | 179.01728 | 38886 ft | 513 kts | 63° |
| 2026-05-08 22:00 | 56.40976 | 179.12988 | 38895 ft | 513 kts | 63° |
| 2026-05-08 22:01 | 56.44353 | 179.24341 | 38893 ft | 513 kts | 63° |
| 2026-05-08 22:01 | 56.47723 | 179.35719 | 38894 ft | 513 kts | 63° |
| 2026-05-08 22:02 | 56.51083 | 179.47120 | 38893 ft | 513 kts | 63° |
| 2026-05-08 22:02 | 56.54425 | 179.58520 | 38903 ft | 513 kts | 63° |
| 2026-05-08 22:03 | 56.57761 | 179.69954 | 38904 ft | 513 kts | 63° |
| 2026-05-08 22:03 | 56.61086 | 179.81400 | 38915 ft | 513 kts | 64° |
| 2026-05-08 22:04 | 56.64402 | 179.92878 | 38919 ft | 513 kts | 63° |
| 2026-05-08 22:04 | 56.67707 | -179.95629 | 38916 ft | 513 kts | 64° |
| 2026-05-08 22:05 | 56.71002 | -179.84110 | 38922 ft | 513 kts | 64° |
| 2026-05-08 22:05 | 56.74287 | -179.72570 | 38924 ft | 513 kts | 64° |
| 2026-05-08 22:06 | 56.77561 | -179.61011 | 38924 ft | 513 kts | 64° |
| 2026-05-08 22:06 | 56.80824 | -179.49435 | 38930 ft | 513 kts | 64° |
| 2026-05-08 22:07 | 56.84077 | -179.37834 | 38930 ft | 513 kts | 64° |
| 2026-05-08 22:07 | 56.87317 | -179.26222 | 38940 ft | 512 kts | 64° |
| 2026-05-08 22:08 | 56.90539 | -179.14615 | 38943 ft | 512 kts | 65° |
| 2026-05-08 22:08 | 56.93753 | -179.02979 | 38946 ft | 512 kts | 65° |
| 2026-05-08 22:09 | 56.96955 | -178.91324 | 38948 ft | 512 kts | 65° |
| 2026-05-08 22:09 | 57.00147 | -178.79652 | 38956 ft | 511 kts | 65° |
| 2026-05-08 22:10 | 57.03297 | -178.68070 | 38959 ft | 510 kts | 65° |
| 2026-05-08 22:10 | 57.06451 | -178.56414 | 38966 ft | 509 kts | 65° |
| 2026-05-08 22:11 | 57.09593 | -178.44742 | 38966 ft | 509 kts | 65° |
| 2026-05-08 22:11 | 57.12720 | -178.33070 | 38968 ft | 508 kts | 65° |
| 2026-05-08 22:12 | 57.15828 | -178.21404 | 38971 ft | 507 kts | 65° |
| 2026-05-08 22:12 | 57.18916 | -178.09756 | 38976 ft | 506 kts | 65° |
| 2026-05-08 22:13 | 57.21474 | -178.00061 | 38980 ft | 505 kts | 65° |
| 2026-05-08 22:13 | 57.24538 | -177.88393 | 38980 ft | 505 kts | 65° |
| 2026-05-08 22:14 | 57.27590 | -177.76708 | 38988 ft | 505 kts | 65° |
| 2026-05-08 22:14 | 57.30632 | -177.65003 | 38990 ft | 505 kts | 65° |
| 2026-05-08 22:15 | 57.33660 | -177.53288 | 38990 ft | 505 kts | 65° |
| 2026-05-08 22:15 | 57.36680 | -177.41548 | 38990 ft | 504 kts | 65° |
| 2026-05-08 22:16 | 57.39679 | -177.29823 | 38998 ft | 503 kts | 65° |
| 2026-05-08 22:16 | 57.42666 | -177.18084 | 38993 ft | 503 kts | 65° |
| 2026-05-08 22:17 | 57.45643 | -177.06324 | 39006 ft | 503 kts | 65° |
| 2026-05-08 22:17 | 57.48604 | -176.94561 | 39006 ft | 502 kts | 65° |
| 2026-05-08 22:18 | 57.51552 | -176.82793 | 39004 ft | 502 kts | 65° |
| 2026-05-08 22:18 | 57.54471 | -176.71072 | 39004 ft | 502 kts | 66° |
| 2026-05-08 22:19 | 57.57397 | -176.59263 | 39013 ft | 502 kts | 66° |
| 2026-05-08 22:19 | 57.60311 | -176.47443 | 39012 ft | 502 kts | 66° |
| 2026-05-08 22:20 | 57.63221 | -176.35608 | 39015 ft | 502 kts | 65° |
| 2026-05-08 22:20 | 57.66126 | -176.23760 | 39015 ft | 502 kts | 65° |
| 2026-05-08 22:21 | 57.69019 | -176.11890 | 39017 ft | 502 kts | 66° |
| 2026-05-08 22:21 | 57.71898 | -176.00015 | 39018 ft | 502 kts | 66° |
| 2026-05-08 22:22 | 57.74767 | -175.88118 | 39015 ft | 501 kts | 66° |
| 2026-05-08 22:22 | 57.77624 | -175.76200 | 39023 ft | 502 kts | 66° |
| 2026-05-08 22:23 | 57.80471 | -175.64265 | 39024 ft | 501 kts | 66° |
| 2026-05-08 22:23 | 57.83304 | -175.52316 | 39023 ft | 501 kts | 66° |
| 2026-05-08 22:24 | 57.86124 | -175.40359 | 39028 ft | 501 kts | 66° |
| 2026-05-08 22:24 | 57.88931 | -175.28392 | 39030 ft | 500 kts | 66° |
| 2026-05-08 22:25 | 57.91724 | -175.16415 | 39031 ft | 500 kts | 66° |
| 2026-05-08 22:25 | 57.94503 | -175.04432 | 39037 ft | 500 kts | 66° |
| 2026-05-08 22:26 | 57.97273 | -174.92424 | 39037 ft | 500 kts | 66° |
| 2026-05-08 22:26 | 58.00028 | -174.80408 | 39043 ft | 500 kts | 66° |
| 2026-05-08 22:27 | 58.02773 | -174.68371 | 39039 ft | 500 kts | 66° |
| 2026-05-08 22:27 | 58.05490 | -174.56388 | 39045 ft | 500 kts | 66° |
| 2026-05-08 22:28 | 58.08213 | -174.44311 | 39047 ft | 500 kts | 66° |
| 2026-05-08 22:28 | 58.10923 | -174.32221 | 39049 ft | 499 kts | 66° |
| 2026-05-08 22:29 | 58.13621 | -174.20120 | 39050 ft | 499 kts | 66° |
| 2026-05-08 22:29 | 58.16306 | -174.08001 | 39050 ft | 499 kts | 66° |
| 2026-05-08 22:30 | 58.18979 | -173.95869 | 39053 ft | 499 kts | 67° |
| 2026-05-08 22:30 | 58.21642 | -173.83715 | 39053 ft | 499 kts | 67° |
| 2026-05-08 22:31 | 58.24292 | -173.71543 | 39058 ft | 500 kts | 67° |
| 2026-05-08 22:31 | 58.26936 | -173.59331 | 39056 ft | 500 kts | 67° |
| 2026-05-08 22:32 | 58.29612 | -173.47128 | 39053 ft | 500 kts | 66° |
| 2026-05-08 22:32 | 58.32339 | -173.34957 | 39059 ft | 500 kts | 66° |
| 2026-05-08 22:33 | 58.35055 | -173.22761 | 39057 ft | 500 kts | 66° |
| 2026-05-08 22:33 | 58.37752 | -173.10532 | 39059 ft | 500 kts | 66° |
| 2026-05-08 22:34 | 58.40430 | -172.98289 | 39060 ft | 501 kts | 67° |
| 2026-05-08 22:34 | 58.43097 | -172.86019 | 39059 ft | 501 kts | 67° |
| 2026-05-08 22:35 | 58.45753 | -172.73730 | 39057 ft | 501 kts | 67° |
| 2026-05-08 22:35 | 58.48397 | -172.61427 | 39059 ft | 501 kts | 67° |
| 2026-05-08 22:36 | 58.51029 | -172.49104 | 39063 ft | 501 kts | 67° |
| 2026-05-08 22:36 | 58.53651 | -172.36758 | 39059 ft | 501 kts | 67° |
| 2026-05-08 22:37 | 58.56263 | -172.24383 | 39057 ft | 501 kts | 67° |
| 2026-05-08 22:37 | 58.58862 | -172.11994 | 39061 ft | 501 kts | 67° |
| 2026-05-08 22:38 | 58.61449 | -171.99588 | 39063 ft | 501 kts | 67° |
| 2026-05-08 22:38 | 58.64023 | -171.87164 | 39058 ft | 501 kts | 68° |
| 2026-05-08 22:39 | 58.66588 | -171.74711 | 39062 ft | 502 kts | 68° |
| 2026-05-08 22:39 | 58.69142 | -171.62235 | 39062 ft | 502 kts | 68° |
| 2026-05-08 22:40 | 58.71687 | -171.49729 | 39060 ft | 502 kts | 68° |
| 2026-05-08 22:40 | 58.74219 | -171.37206 | 39056 ft | 502 kts | 68° |
| 2026-05-08 22:41 | 58.76762 | -171.24687 | 39057 ft | 502 kts | 67° |
| 2026-05-08 22:41 | 58.79444 | -171.12276 | 39064 ft | 502 kts | 66° |
| 2026-05-08 22:42 | 58.82130 | -170.99946 | 39051 ft | 502 kts | 66° |
| 2026-05-08 22:42 | 58.84803 | -170.87492 | 39053 ft | 502 kts | 66° |
| 2026-05-08 22:43 | 58.87448 | -170.75013 | 39049 ft | 502 kts | 67° |
| 2026-05-08 22:43 | 58.90079 | -170.62507 | 39048 ft | 502 kts | 67° |
| 2026-05-08 22:44 | 58.92700 | -170.49978 | 39050 ft | 502 kts | 67° |
| 2026-05-08 22:44 | 58.95311 | -170.37421 | 39051 ft | 503 kts | 67° |
| 2026-05-08 22:45 | 58.97911 | -170.24839 | 39042 ft | 503 kts | 67° |
| 2026-05-08 22:45 | 59.00503 | -170.12220 | 39045 ft | 503 kts | 67° |
| 2026-05-08 22:46 | 59.03081 | -169.99587 | 39042 ft | 503 kts | 67° |
| 2026-05-08 22:46 | 59.05647 | -169.86937 | 39039 ft | 504 kts | 67° |
| 2026-05-08 22:47 | 59.08202 | -169.74260 | 39039 ft | 504 kts | 68° |
| 2026-05-08 22:47 | 59.10746 | -169.61561 | 39034 ft | 504 kts | 68° |
| 2026-05-08 22:48 | 59.13280 | -169.48826 | 39036 ft | 504 kts | 68° |
| 2026-05-08 22:48 | 59.15803 | -169.36069 | 39034 ft | 505 kts | 68° |
| 2026-05-08 22:49 | 59.18312 | -169.23296 | 39034 ft | 505 kts | 68° |
| 2026-05-08 22:49 | 59.22056 | -169.04085 | 39029 ft | 505 kts | 68° |
| 2026-05-08 22:50 | 59.24536 | -168.91254 | 39023 ft | 505 kts | 68° |
| 2026-05-08 22:50 | 59.27006 | -168.78392 | 39020 ft | 506 kts | 68° |
| 2026-05-08 22:51 | 59.29465 | -168.65500 | 39020 ft | 506 kts | 68° |
| 2026-05-08 22:51 | 59.31910 | -168.52599 | 39015 ft | 506 kts | 68° |
| 2026-05-08 22:52 | 59.34343 | -168.39673 | 39015 ft | 506 kts | 68° |
| 2026-05-08 22:52 | 59.36764 | -168.26727 | 39009 ft | 506 kts | 68° |
| 2026-05-08 22:53 | 59.39158 | -168.13835 | 39004 ft | 507 kts | 68° |
| 2026-05-08 22:53 | 59.41558 | -168.00826 | 39001 ft | 507 kts | 69° |
| 2026-05-08 22:54 | 59.43944 | -167.87805 | 39000 ft | 507 kts | 69° |
| 2026-05-08 22:54 | 59.46318 | -167.74758 | 39002 ft | 507 kts | 69° |
| 2026-05-08 22:55 | 59.48678 | -167.61702 | 38995 ft | 507 kts | 69° |
| 2026-05-08 22:55 | 59.51029 | -167.48608 | 38996 ft | 508 kts | 69° |
| 2026-05-08 22:56 | 59.53411 | -167.35495 | 38991 ft | 508 kts | 68° |
| 2026-05-08 22:56 | 59.55800 | -167.22381 | 38998 ft | 509 kts | 68° |
| 2026-05-08 22:57 | 59.58172 | -167.09246 | 38992 ft | 508 kts | 69° |
| 2026-05-08 22:57 | 59.60526 | -166.96094 | 38991 ft | 508 kts | 69° |
| 2026-05-08 22:58 | 59.62863 | -166.82936 | 38991 ft | 508 kts | 69° |
| 2026-05-08 22:58 | 59.65192 | -166.69737 | 38977 ft | 509 kts | 69° |
| 2026-05-08 22:59 | 59.67511 | -166.56497 | 38978 ft | 510 kts | 69° |
| 2026-05-08 22:59 | 59.69819 | -166.43224 | 38978 ft | 510 kts | 69° |
| 2026-05-08 23:00 | 59.71726 | -166.32186 | 38980 ft | 510 kts | 69° |
| 2026-05-08 23:00 | 59.74378 | -166.16718 | 38985 ft | 510 kts | 69° |
| 2026-05-08 23:01 | 59.76279 | -166.05557 | 38976 ft | 510 kts | 69° |
| 2026-05-08 23:01 | 59.78533 | -165.92229 | 38969 ft | 509 kts | 69° |
| 2026-05-08 23:02 | 59.80773 | -165.78889 | 38970 ft | 509 kts | 69° |
| 2026-05-08 23:02 | 59.82985 | -165.65617 | 38962 ft | 509 kts | 70° |
| 2026-05-08 23:03 | 59.85198 | -165.52236 | 38961 ft | 509 kts | 70° |
| 2026-05-08 23:03 | 59.87398 | -165.38837 | 38963 ft | 509 kts | 70° |
| 2026-05-08 23:04 | 59.89587 | -165.25406 | 38952 ft | 511 kts | 70° |
| 2026-05-08 23:04 | 59.91767 | -165.11932 | 38957 ft | 511 kts | 70° |
| 2026-05-08 23:05 | 59.93933 | -164.98433 | 38946 ft | 511 kts | 70° |
| 2026-05-08 23:05 | 59.96083 | -164.84931 | 38945 ft | 511 kts | 70° |
| 2026-05-08 23:06 | 59.98219 | -164.71415 | 38955 ft | 510 kts | 70° |
| 2026-05-08 23:06 | 60.00341 | -164.57887 | 38964 ft | 511 kts | 70° |
| 2026-05-08 23:07 | 60.02453 | -164.44313 | 38952 ft | 512 kts | 70° |
| 2026-05-08 23:07 | 60.04555 | -164.30695 | 38952 ft | 512 kts | 71° |
| 2026-05-08 23:08 | 60.06644 | -164.17055 | 38963 ft | 512 kts | 71° |
| 2026-05-08 23:08 | 60.08719 | -164.03399 | 38935 ft | 513 kts | 71° |
| 2026-05-08 23:09 | 60.10780 | -163.89718 | 38935 ft | 513 kts | 71° |
| 2026-05-08 23:09 | 60.12831 | -163.76002 | 38936 ft | 514 kts | 71° |
| 2026-05-08 23:10 | 60.14856 | -163.62343 | 38938 ft | 515 kts | 71° |
| 2026-05-08 23:10 | 60.16884 | -163.48552 | 38930 ft | 515 kts | 71° |
| 2026-05-08 23:11 | 60.18896 | -163.34757 | 38931 ft | 515 kts | 71° |
| 2026-05-08 23:11 | 60.20895 | -163.20929 | 38922 ft | 515 kts | 71° |
| 2026-05-08 23:12 | 60.22880 | -163.07087 | 38919 ft | 515 kts | 71° |
| 2026-05-08 23:12 | 60.24854 | -162.93209 | 38925 ft | 517 kts | 72° |
| 2026-05-08 23:13 | 60.26818 | -162.79277 | 38913 ft | 517 kts | 72° |
| 2026-05-08 23:13 | 60.28768 | -162.65329 | 38914 ft | 517 kts | 72° |
| 2026-05-08 23:14 | 60.30746 | -162.51386 | 38907 ft | 517 kts | 71° |
| 2026-05-08 23:14 | 60.32759 | -162.37460 | 38907 ft | 517 kts | 71° |
| 2026-05-08 23:15 | 60.34755 | -162.23514 | 38899 ft | 518 kts | 72° |
| 2026-05-08 23:15 | 60.36733 | -162.09514 | 38895 ft | 519 kts | 72° |
| 2026-05-08 23:16 | 60.38694 | -161.95478 | 38882 ft | 519 kts | 72° |
| 2026-05-08 23:16 | 60.40639 | -161.81422 | 38882 ft | 519 kts | 72° |
| 2026-05-08 23:17 | 60.42571 | -161.67343 | 38882 ft | 519 kts | 72° |
| 2026-05-08 23:17 | 60.44487 | -161.53262 | 38888 ft | 519 kts | 72° |
| 2026-05-08 23:18 | 60.46389 | -161.39156 | 38889 ft | 519 kts | 73° |
| 2026-05-08 23:18 | 60.48279 | -161.25019 | 38903 ft | 520 kts | 73° |
| 2026-05-08 23:19 | 60.50153 | -161.10862 | 38895 ft | 520 kts | 73° |
| 2026-05-08 23:19 | 60.52015 | -160.96674 | 38911 ft | 520 kts | 73° |
| 2026-05-08 23:20 | 60.53860 | -160.82477 | 38912 ft | 520 kts | 73° |
| 2026-05-08 23:20 | 60.55691 | -160.68257 | 38926 ft | 520 kts | 73° |
| 2026-05-08 23:21 | 60.57496 | -160.54113 | 38918 ft | 521 kts | 74° |
| 2026-05-08 23:21 | 60.59299 | -160.39845 | 38919 ft | 521 kts | 74° |
| 2026-05-08 23:22 | 60.61088 | -160.25552 | 38921 ft | 521 kts | 74° |
| 2026-05-08 23:22 | 60.62861 | -160.11246 | 38921 ft | 521 kts | 74° |
| 2026-05-08 23:23 | 60.64620 | -159.96919 | 38914 ft | 521 kts | 75° |
| 2026-05-08 23:23 | 60.66365 | -159.82562 | 38904 ft | 522 kts | 75° |
| 2026-05-08 23:24 | 60.68096 | -159.68177 | 38867 ft | 522 kts | 75° |
| 2026-05-08 23:24 | 60.69813 | -159.53774 | 38866 ft | 522 kts | 75° |
| 2026-05-08 23:25 | 60.71514 | -159.39352 | 38844 ft | 523 kts | 75° |
| 2026-05-08 23:25 | 60.73200 | -159.24913 | 38847 ft | 523 kts | 75° |
| 2026-05-08 23:26 | 60.74871 | -159.10454 | 38848 ft | 523 kts | 76° |
| 2026-05-08 23:26 | 60.76527 | -158.95968 | 38841 ft | 524 kts | 76° |
| 2026-05-08 23:27 | 60.78164 | -158.81512 | 38839 ft | 525 kts | 76° |
| 2026-05-08 23:27 | 60.79807 | -158.66837 | 38841 ft | 526 kts | 76° |
| 2026-05-08 23:28 | 60.81425 | -158.52231 | 38845 ft | 526 kts | 76° |
| 2026-05-08 23:28 | 60.83015 | -158.37713 | 38834 ft | 525 kts | 76° |
| 2026-05-08 23:29 | 60.84599 | -158.23097 | 38835 ft | 525 kts | 76° |
| 2026-05-08 23:29 | 60.86169 | -158.08459 | 38827 ft | 525 kts | 76° |
| 2026-05-08 23:30 | 60.87721 | -157.93814 | 38826 ft | 525 kts | 77° |
| 2026-05-08 23:30 | 60.89258 | -157.79151 | 38827 ft | 525 kts | 77° |
| 2026-05-08 23:31 | 60.90779 | -157.64478 | 38817 ft | 525 kts | 77° |
| 2026-05-08 23:31 | 60.92283 | -157.49791 | 38818 ft | 525 kts | 77° |
| 2026-05-08 23:32 | 60.93774 | -157.35076 | 38817 ft | 526 kts | 77° |
| 2026-05-08 23:32 | 60.95252 | -157.20308 | 38814 ft | 527 kts | 78° |
| 2026-05-08 23:33 | 60.96713 | -157.05527 | 38808 ft | 527 kts | 78° |
| 2026-05-08 23:33 | 60.98160 | -156.90718 | 38807 ft | 528 kts | 78° |
| 2026-05-08 23:34 | 60.99591 | -156.75888 | 38799 ft | 528 kts | 78° |
| 2026-05-08 23:34 | 61.01006 | -156.61045 | 38797 ft | 528 kts | 78° |
| 2026-05-08 23:35 | 61.02406 | -156.46176 | 38801 ft | 529 kts | 79° |
| 2026-05-08 23:35 | 61.03792 | -156.31264 | 38794 ft | 529 kts | 79° |
| 2026-05-08 23:36 | 61.05162 | -156.16338 | 38795 ft | 529 kts | 79° |
| 2026-05-08 23:36 | 61.06515 | -156.01405 | 38793 ft | 529 kts | 79° |
| 2026-05-08 23:37 | 61.07851 | -155.86470 | 38791 ft | 529 kts | 79° |
| 2026-05-08 23:37 | 61.09173 | -155.71522 | 38817 ft | 527 kts | 79° |
| 2026-05-08 23:38 | 61.10088 | -155.64248 | 39164 ft | 520 kts | 71° |
| 2026-05-08 23:38 | 61.11453 | -155.57385 | 39504 ft | 513 kts | 65° |
| 2026-05-08 23:38 | 61.12971 | -155.50742 | 39790 ft | 510 kts | 64° |
| 2026-05-08 23:38 | 61.14545 | -155.44168 | 40003 ft | 509 kts | 63° |
| 2026-05-08 23:39 | 61.16145 | -155.37632 | 40179 ft | 508 kts | 63° |
| 2026-05-08 23:39 | 61.17753 | -155.31108 | 40422 ft | 508 kts | 63° |
| 2026-05-08 23:39 | 61.19355 | -155.24589 | 40609 ft | 507 kts | 63° |
| 2026-05-08 23:39 | 61.20947 | -155.18070 | 40754 ft | 507 kts | 63° |
| 2026-05-08 23:40 | 61.24109 | -155.05004 | 40779 ft | 513 kts | 63° |
| 2026-05-08 23:40 | 61.27302 | -154.91673 | 40773 ft | 518 kts | 63° |
| 2026-05-08 23:41 | 61.30504 | -154.78213 | 40775 ft | 520 kts | 63° |
| 2026-05-08 23:41 | 61.33704 | -154.64680 | 40775 ft | 522 kts | 64° |
| 2026-05-08 23:42 | 61.36899 | -154.51085 | 40770 ft | 522 kts | 64° |
| 2026-05-08 23:42 | 61.40083 | -154.37454 | 40772 ft | 523 kts | 64° |
| 2026-05-08 23:43 | 61.43254 | -154.23789 | 40775 ft | 523 kts | 64° |
| 2026-05-08 23:43 | 61.46413 | -154.10095 | 40780 ft | 523 kts | 64° |
| 2026-05-08 23:44 | 61.49557 | -153.96373 | 40791 ft | 523 kts | 64° |
| 2026-05-08 23:44 | 61.52691 | -153.82610 | 40790 ft | 523 kts | 64° |
| 2026-05-08 23:45 | 61.55808 | -153.68829 | 40782 ft | 523 kts | 65° |
| 2026-05-08 23:45 | 61.58913 | -153.55017 | 40789 ft | 523 kts | 65° |
| 2026-05-08 23:46 | 61.62004 | -153.41173 | 40785 ft | 524 kts | 65° |
| 2026-05-08 23:46 | 61.65083 | -153.27291 | 40781 ft | 524 kts | 65° |
| 2026-05-08 23:47 | 61.68149 | -153.13379 | 40777 ft | 524 kts | 65° |
| 2026-05-08 23:47 | 61.71203 | -152.99431 | 40784 ft | 524 kts | 65° |
| 2026-05-08 23:48 | 61.74243 | -152.85456 | 40781 ft | 524 kts | 66° |
| 2026-05-08 23:48 | 61.76757 | -152.73825 | 40797 ft | 524 kts | 66° |
| 2026-05-08 23:49 | 61.79769 | -152.59808 | 40789 ft | 524 kts | 66° |
| 2026-05-08 23:49 | 61.82768 | -152.45754 | 40796 ft | 524 kts | 66° |
| 2026-05-08 23:50 | 61.85756 | -152.31659 | 40793 ft | 525 kts | 66° |
| 2026-05-08 23:50 | 61.88730 | -152.17533 | 40793 ft | 525 kts | 66° |
| 2026-05-08 23:51 | 61.91691 | -152.03370 | 40787 ft | 525 kts | 66° |
| 2026-05-08 23:51 | 61.94639 | -151.89176 | 40781 ft | 525 kts | 67° |
| 2026-05-08 23:52 | 61.97570 | -151.74963 | 40778 ft | 525 kts | 67° |
| 2026-05-08 23:52 | 62.00489 | -151.60714 | 40776 ft | 525 kts | 67° |
| 2026-05-08 23:53 | 62.03393 | -151.46434 | 40770 ft | 525 kts | 67° |
| 2026-05-08 23:53 | 62.06265 | -151.32217 | 40772 ft | 526 kts | 68° |
| 2026-05-08 23:54 | 62.09145 | -151.17858 | 40771 ft | 527 kts | 68° |
| 2026-05-08 23:55 | 62.13439 | -150.96256 | 40769 ft | 527 kts | 68° |
| 2026-05-08 23:55 | 62.16284 | -150.81817 | 40766 ft | 527 kts | 68° |
| 2026-05-08 23:56 | 62.19114 | -150.67354 | 40768 ft | 527 kts | 68° |
| 2026-05-08 23:56 | 62.21929 | -150.52861 | 40754 ft | 527 kts | 68° |
| 2026-05-08 23:57 | 62.24729 | -150.38338 | 40752 ft | 527 kts | 68° |
| 2026-05-08 23:57 | 62.27515 | -150.23783 | 40777 ft | 527 kts | 69° |
| 2026-05-08 23:58 | 62.30289 | -150.09183 | 40775 ft | 528 kts | 69° |
| 2026-05-08 23:58 | 62.33050 | -149.94545 | 40707 ft | 528 kts | 69° |
| 2026-05-08 23:59 | 62.35798 | -149.79871 | 40708 ft | 528 kts | 69° |
| 2026-05-08 23:59 | 62.38526 | -149.65186 | 40703 ft | 528 kts | 69° |
| 2026-05-09 00:00 | 62.41242 | -149.50467 | 40705 ft | 528 kts | 69° |
| 2026-05-09 00:00 | 62.43942 | -149.35712 | 40708 ft | 528 kts | 69° |
| 2026-05-09 00:01 | 62.46626 | -149.20936 | 40738 ft | 528 kts | 70° |
| 2026-05-09 00:01 | 62.49295 | -149.06129 | 40742 ft | 529 kts | 70° |
| 2026-05-09 00:02 | 62.51934 | -148.91381 | 40743 ft | 529 kts | 70° |
| 2026-05-09 00:02 | 62.54592 | -148.76403 | 40741 ft | 530 kts | 70° |
| 2026-05-09 00:03 | 62.57221 | -148.61480 | 40740 ft | 530 kts | 70° |
| 2026-05-09 00:03 | 62.59815 | -148.46644 | 40742 ft | 529 kts | 70° |
| 2026-05-09 00:04 | 62.62410 | -148.31679 | 40741 ft | 530 kts | 70° |
| 2026-05-09 00:04 | 62.64989 | -148.16682 | 40744 ft | 530 kts | 71° |
| 2026-05-09 00:05 | 62.67570 | -148.01562 | 40745 ft | 530 kts | 71° |
| 2026-05-09 00:05 | 62.70101 | -147.86613 | 40743 ft | 530 kts | 71° |
| 2026-05-09 00:06 | 62.72633 | -147.71533 | 40743 ft | 530 kts | 71° |
| 2026-05-09 00:06 | 62.75149 | -147.56432 | 40741 ft | 530 kts | 71° |
| 2026-05-09 00:07 | 62.77648 | -147.41304 | 40741 ft | 530 kts | 71° |
| 2026-05-09 00:07 | 62.80134 | -147.26137 | 40735 ft | 530 kts | 72° |
| 2026-05-09 00:08 | 62.82603 | -147.10947 | 40737 ft | 530 kts | 72° |
| 2026-05-09 00:08 | 62.85053 | -146.95747 | 40738 ft | 530 kts | 72° |
| 2026-05-09 00:09 | 62.87489 | -146.80509 | 40729 ft | 530 kts | 72° |
| 2026-05-09 00:09 | 62.89905 | -146.65261 | 40738 ft | 530 kts | 72° |
| 2026-05-09 00:10 | 62.92306 | -146.49984 | 40740 ft | 530 kts | 72° |
| 2026-05-09 00:10 | 62.94692 | -146.34671 | 40745 ft | 530 kts | 72° |
| 2026-05-09 00:11 | 62.97064 | -146.19314 | 40739 ft | 531 kts | 73° |
| 2026-05-09 00:11 | 62.99409 | -146.03920 | 40735 ft | 530 kts | 74° |
| 2026-05-09 00:12 | 63.01017 | -145.88124 | 40736 ft | 529 kts | 81° |
| 2026-05-09 00:12 | 63.02346 | -145.72309 | 40728 ft | 529 kts | 82° |
| 2026-05-09 00:13 | 63.03631 | -145.56273 | 40744 ft | 528 kts | 82° |
| 2026-05-09 00:13 | 63.04896 | -145.40325 | 40755 ft | 529 kts | 82° |
| 2026-05-09 00:14 | 63.06152 | -145.24355 | 40757 ft | 529 kts | 82° |
| 2026-05-09 00:14 | 63.07396 | -145.08361 | 40759 ft | 529 kts | 82° |
| 2026-05-09 00:15 | 63.08620 | -144.92366 | 40771 ft | 529 kts | 82° |
| 2026-05-09 00:15 | 63.09826 | -144.76353 | 40765 ft | 529 kts | 83° |
| 2026-05-09 00:16 | 63.11006 | -144.60436 | 40750 ft | 528 kts | 83° |
| 2026-05-09 00:16 | 63.12174 | -144.44423 | 40749 ft | 528 kts | 83° |
| 2026-05-09 00:17 | 63.13325 | -144.28377 | 40750 ft | 528 kts | 83° |
| 2026-05-09 00:17 | 63.14457 | -144.12317 | 40719 ft | 529 kts | 83° |
| 2026-05-09 00:18 | 63.15572 | -143.96254 | 40719 ft | 528 kts | 83° |
| 2026-05-09 00:18 | 63.16669 | -143.80171 | 40701 ft | 529 kts | 83° |
| 2026-05-09 00:19 | 63.17747 | -143.64088 | 40702 ft | 529 kts | 84° |
| 2026-05-09 00:19 | 63.18807 | -143.47994 | 40700 ft | 528 kts | 84° |
| 2026-05-09 00:20 | 63.19848 | -143.31896 | 40702 ft | 528 kts | 84° |
| 2026-05-09 00:20 | 63.20871 | -143.15781 | 40702 ft | 528 kts | 84° |
| 2026-05-09 00:21 | 63.21877 | -142.99645 | 40700 ft | 528 kts | 84° |
| 2026-05-09 00:21 | 63.22863 | -142.83517 | 40711 ft | 528 kts | 84° |
| 2026-05-09 00:22 | 63.23830 | -142.67398 | 40711 ft | 527 kts | 84° |
| 2026-05-09 00:22 | 63.24778 | -142.51261 | 40702 ft | 527 kts | 85° |
| 2026-05-09 00:23 | 63.25708 | -142.35133 | 40710 ft | 527 kts | 85° |
| 2026-05-09 00:23 | 63.26619 | -142.18994 | 40707 ft | 527 kts | 85° |
| 2026-05-09 00:24 | 63.27512 | -142.02834 | 40702 ft | 527 kts | 85° |
| 2026-05-09 00:24 | 63.28386 | -141.86670 | 40707 ft | 527 kts | 85° |
| 2026-05-09 00:25 | 63.29244 | -141.70484 | 40710 ft | 527 kts | 85° |
| 2026-05-09 00:25 | 63.30082 | -141.54301 | 40710 ft | 527 kts | 85° |
| 2026-05-09 00:26 | 63.30897 | -141.38212 | 40707 ft | 526 kts | 86° |
| 2026-05-09 00:26 | 63.31703 | -141.21934 | 40716 ft | 526 kts | 86° |
| 2026-05-09 00:27 | 63.32449 | -141.05753 | 40715 ft | 525 kts | 89° |
| 2026-05-09 00:27 | 63.31951 | -140.89794 | 40719 ft | 520 kts | 101° |
| 2026-05-09 00:28 | 63.30773 | -140.73928 | 40722 ft | 520 kts | 103° |
| 2026-05-09 00:28 | 63.29475 | -140.58114 | 40722 ft | 520 kts | 103° |
| 2026-05-09 00:29 | 63.28166 | -140.42317 | 40724 ft | 519 kts | 103° |
| 2026-05-09 00:29 | 63.26859 | -140.26533 | 40725 ft | 520 kts | 103° |
| 2026-05-09 00:30 | 63.25542 | -140.10763 | 40717 ft | 519 kts | 103° |
| 2026-05-09 00:30 | 63.24208 | -139.95005 | 40723 ft | 520 kts | 103° |
| 2026-05-09 00:31 | 63.22854 | -139.79238 | 40721 ft | 520 kts | 103° |
| 2026-05-09 00:31 | 63.21483 | -139.63483 | 40707 ft | 520 kts | 103° |
| 2026-05-09 00:32 | 63.20095 | -139.47769 | 40722 ft | 520 kts | 104° |
| 2026-05-09 00:32 | 63.18690 | -139.32063 | 40718 ft | 520 kts | 104° |
| 2026-05-09 00:33 | 63.17268 | -139.16377 | 40712 ft | 520 kts | 104° |
| 2026-05-09 00:33 | 63.15829 | -139.00711 | 40715 ft | 520 kts | 104° |
| 2026-05-09 00:34 | 63.14371 | -138.85037 | 40720 ft | 520 kts | 104° |
| 2026-05-09 00:34 | 63.12898 | -138.69411 | 40727 ft | 519 kts | 104° |
| 2026-05-09 00:35 | 63.11408 | -138.53797 | 40728 ft | 519 kts | 104° |
| 2026-05-09 00:35 | 63.10156 | -138.40825 | 40727 ft | 520 kts | 104° |
| 2026-05-09 00:36 | 63.08381 | -138.22669 | 40732 ft | 521 kts | 105° |
| 2026-05-09 00:36 | 63.06837 | -138.07068 | 40732 ft | 521 kts | 105° |
| 2026-05-09 00:37 | 63.05275 | -137.91486 | 40733 ft | 520 kts | 105° |
| 2026-05-09 00:37 | 63.03953 | -137.78437 | 40731 ft | 521 kts | 105° |
| 2026-05-09 00:38 | 63.02370 | -137.62990 | 40731 ft | 520 kts | 105° |
| 2026-05-09 00:38 | 63.00761 | -137.47465 | 40737 ft | 520 kts | 105° |
| 2026-05-09 00:39 | 62.99133 | -137.31942 | 40735 ft | 520 kts | 105° |
| 2026-05-09 00:39 | 62.97489 | -137.16449 | 40717 ft | 520 kts | 106° |
| 2026-05-09 00:40 | 62.95830 | -137.00986 | 40738 ft | 520 kts | 106° |
| 2026-05-09 00:40 | 62.94154 | -136.85541 | 40745 ft | 520 kts | 106° |
| 2026-05-09 00:41 | 62.91604 | -136.62366 | 40749 ft | 521 kts | 106° |
| 2026-05-09 00:41 | 62.89882 | -136.46931 | 40752 ft | 521 kts | 106° |
| 2026-05-09 00:42 | 62.88146 | -136.31528 | 40754 ft | 520 kts | 107° |
| 2026-05-09 00:42 | 62.86396 | -136.16175 | 40765 ft | 519 kts | 107° |
| 2026-05-09 00:43 | 62.84630 | -136.00857 | 40766 ft | 519 kts | 107° |
| 2026-05-09 00:43 | 62.82847 | -135.85550 | 40770 ft | 519 kts | 107° |
| 2026-05-09 00:44 | 62.81049 | -135.70267 | 40766 ft | 519 kts | 107° |
| 2026-05-09 00:44 | 62.79233 | -135.54996 | 40740 ft | 519 kts | 107° |
| 2026-05-09 00:45 | 62.77403 | -135.39765 | 40764 ft | 518 kts | 107° |
| 2026-05-09 00:45 | 62.75571 | -135.24669 | 40766 ft | 518 kts | 107° |
| 2026-05-09 00:46 | 62.73709 | -135.09479 | 40774 ft | 518 kts | 108° |
| 2026-05-09 00:46 | 62.71830 | -134.94304 | 40774 ft | 518 kts | 108° |
| 2026-05-09 00:47 | 62.69934 | -134.79146 | 40782 ft | 518 kts | 108° |
| 2026-05-09 00:47 | 62.68024 | -134.64021 | 40773 ft | 518 kts | 108° |
| 2026-05-09 00:48 | 62.66097 | -134.48920 | 40778 ft | 518 kts | 108° |
| 2026-05-09 00:48 | 62.64155 | -134.33844 | 40780 ft | 518 kts | 108° |
| 2026-05-09 00:49 | 62.62196 | -134.18776 | 40791 ft | 518 kts | 109° |
| 2026-05-09 00:49 | 62.60222 | -134.03742 | 40805 ft | 518 kts | 109° |
| 2026-05-09 00:50 | 62.58233 | -133.88733 | 40788 ft | 517 kts | 108° |
| 2026-05-09 00:50 | 62.56227 | -133.73730 | 40792 ft | 518 kts | 108° |
| 2026-05-09 00:51 | 62.54202 | -133.58740 | 40804 ft | 518 kts | 109° |
| 2026-05-09 00:51 | 62.52162 | -133.43772 | 40802 ft | 518 kts | 109° |
| 2026-05-09 00:52 | 62.50106 | -133.28816 | 40815 ft | 518 kts | 109° |
| 2026-05-09 00:52 | 62.48033 | -133.13885 | 40797 ft | 518 kts | 109° |
| 2026-05-09 00:53 | 62.45947 | -132.98986 | 40813 ft | 519 kts | 109° |
| 2026-05-09 00:53 | 62.43839 | -132.84075 | 40816 ft | 519 kts | 109° |
| 2026-05-09 00:54 | 62.41715 | -132.69184 | 40819 ft | 519 kts | 109° |
| 2026-05-09 00:54 | 62.39591 | -132.54420 | 40823 ft | 519 kts | 109° |
| 2026-05-09 00:55 | 62.37439 | -132.39589 | 40824 ft | 519 kts | 110° |
| 2026-05-09 00:55 | 62.35266 | -132.24750 | 40829 ft | 520 kts | 110° |
| 2026-05-09 00:56 | 62.33075 | -132.09918 | 40832 ft | 520 kts | 110° |
| 2026-05-09 00:56 | 62.30867 | -131.95090 | 40829 ft | 521 kts | 110° |
| 2026-05-09 00:57 | 62.28642 | -131.80278 | 40828 ft | 521 kts | 110° |
| 2026-05-09 00:57 | 62.26402 | -131.65495 | 40822 ft | 521 kts | 110° |
| 2026-05-09 00:58 | 62.24147 | -131.50736 | 40822 ft | 520 kts | 110° |
| 2026-05-09 00:58 | 62.21877 | -131.36008 | 40833 ft | 520 kts | 110° |
| 2026-05-09 00:59 | 62.19590 | -131.21293 | 40831 ft | 521 kts | 110° |
| 2026-05-09 00:59 | 62.17287 | -131.06597 | 40829 ft | 520 kts | 111° |
| 2026-05-09 01:00 | 62.14968 | -130.91917 | 40846 ft | 521 kts | 111° |
| 2026-05-09 01:00 | 62.12633 | -130.77259 | 40862 ft | 521 kts | 111° |
| 2026-05-09 01:01 | 62.10277 | -130.62592 | 40862 ft | 522 kts | 111° |
| 2026-05-09 01:01 | 62.07918 | -130.48023 | 40860 ft | 523 kts | 111° |
| 2026-05-09 01:02 | 62.05528 | -130.33378 | 40872 ft | 523 kts | 111° |
| 2026-05-09 01:02 | 62.03124 | -130.18766 | 40888 ft | 522 kts | 111° |
| 2026-05-09 01:03 | 62.00701 | -130.04188 | 40882 ft | 522 kts | 112° |
| 2026-05-09 01:03 | 61.97680 | -129.90211 | 40896 ft | 520 kts | 118° |
| 2026-05-09 01:04 | 61.94414 | -129.76518 | 40910 ft | 519 kts | 120° |
| 2026-05-09 01:04 | 61.91097 | -129.62893 | 40920 ft | 519 kts | 120° |
| 2026-05-09 01:05 | 61.87774 | -129.49293 | 40920 ft | 519 kts | 120° |
| 2026-05-09 01:06 | 61.82771 | -129.28903 | 40930 ft | 521 kts | 120° |
| 2026-05-09 01:06 | 61.79412 | -129.15311 | 40943 ft | 522 kts | 120° |
| 2026-05-09 01:07 | 61.76036 | -129.01725 | 40955 ft | 523 kts | 120° |
| 2026-05-09 01:07 | 61.72643 | -128.88165 | 40961 ft | 522 kts | 120° |
| 2026-05-09 01:08 | 61.69240 | -128.74644 | 40943 ft | 522 kts | 120° |
| 2026-05-09 01:08 | 61.65822 | -128.61148 | 40959 ft | 523 kts | 121° |
| 2026-05-09 01:09 | 61.62387 | -128.47667 | 40961 ft | 523 kts | 121° |
| 2026-05-09 01:09 | 61.58937 | -128.34210 | 40960 ft | 523 kts | 121° |
| 2026-05-09 01:10 | 61.55497 | -128.20873 | 40961 ft | 523 kts | 121° |
| 2026-05-09 01:10 | 61.52023 | -128.07484 | 40948 ft | 523 kts | 121° |
| 2026-05-09 01:11 | 61.48543 | -127.94149 | 40957 ft | 522 kts | 121° |
| 2026-05-09 01:11 | 61.45046 | -127.80833 | 40950 ft | 522 kts | 121° |
| 2026-05-09 01:12 | 61.41533 | -127.67534 | 40941 ft | 523 kts | 121° |
| 2026-05-09 01:12 | 61.37998 | -127.54233 | 40939 ft | 525 kts | 121° |
| 2026-05-09 01:13 | 61.34445 | -127.40941 | 40935 ft | 525 kts | 122° |
| 2026-05-09 01:13 | 61.30881 | -127.27685 | 40926 ft | 525 kts | 122° |
| 2026-05-09 01:14 | 61.27301 | -127.14448 | 40928 ft | 525 kts | 122° |
| 2026-05-09 01:14 | 61.23708 | -127.01241 | 40919 ft | 525 kts | 122° |
| 2026-05-09 01:15 | 61.20108 | -126.88086 | 40921 ft | 525 kts | 122° |
| 2026-05-09 01:15 | 61.16492 | -126.74951 | 40919 ft | 524 kts | 122° |
| 2026-05-09 01:16 | 61.12865 | -126.61851 | 40918 ft | 525 kts | 122° |
| 2026-05-09 01:16 | 61.09223 | -126.48772 | 40916 ft | 524 kts | 122° |
| 2026-05-09 01:17 | 61.03742 | -126.29230 | 40924 ft | 524 kts | 123° |
| 2026-05-09 01:17 | 61.00074 | -126.16245 | 40922 ft | 524 kts | 123° |
| 2026-05-09 01:18 | 60.96391 | -126.03284 | 40931 ft | 524 kts | 123° |
| 2026-05-09 01:18 | 60.92696 | -125.90353 | 40930 ft | 524 kts | 123° |
| 2026-05-09 01:19 | 60.88993 | -125.77463 | 40930 ft | 524 kts | 123° |
| 2026-05-09 01:19 | 60.85300 | -125.64684 | 40939 ft | 524 kts | 123° |
| 2026-05-09 01:20 | 60.81572 | -125.51856 | 40940 ft | 524 kts | 123° |
| 2026-05-09 01:20 | 60.77809 | -125.38978 | 40950 ft | 523 kts | 123° |
| 2026-05-09 01:21 | 60.74087 | -125.26312 | 40947 ft | 523 kts | 123° |
| 2026-05-09 01:21 | 60.70325 | -125.13582 | 40952 ft | 523 kts | 124° |
| 2026-05-09 01:22 | 60.66550 | -125.00881 | 40950 ft | 523 kts | 124° |
| 2026-05-09 01:22 | 60.62763 | -124.88206 | 40964 ft | 523 kts | 124° |
| 2026-05-09 01:23 | 60.58967 | -124.75568 | 40969 ft | 523 kts | 124° |
| 2026-05-09 01:23 | 60.55159 | -124.62962 | 40969 ft | 523 kts | 124° |
| 2026-05-09 01:24 | 60.51333 | -124.50369 | 40969 ft | 523 kts | 124° |
| 2026-05-09 01:24 | 60.47502 | -124.37824 | 40960 ft | 524 kts | 124° |
| 2026-05-09 01:25 | 60.43643 | -124.25258 | 40961 ft | 526 kts | 124° |
| 2026-05-09 01:25 | 60.39767 | -124.12703 | 40960 ft | 526 kts | 124° |
| 2026-05-09 01:26 | 60.36537 | -124.02290 | 40960 ft | 526 kts | 124° |
| 2026-05-09 01:26 | 60.32638 | -123.89787 | 40958 ft | 526 kts | 124° |
| 2026-05-09 01:27 | 60.28727 | -123.77314 | 40970 ft | 526 kts | 124° |
| 2026-05-09 01:27 | 60.24805 | -123.64870 | 40971 ft | 526 kts | 124° |
| 2026-05-09 01:28 | 60.20872 | -123.52457 | 40971 ft | 526 kts | 125° |
| 2026-05-09 01:28 | 60.16929 | -123.40083 | 40975 ft | 526 kts | 125° |
| 2026-05-09 01:29 | 60.12974 | -123.27735 | 40962 ft | 526 kts | 125° |
| 2026-05-09 01:29 | 60.09007 | -123.15415 | 40986 ft | 526 kts | 125° |
| 2026-05-09 01:30 | 60.05030 | -123.03128 | 41003 ft | 526 kts | 125° |
| 2026-05-09 01:30 | 60.01042 | -122.90870 | 40998 ft | 526 kts | 125° |
| 2026-05-09 01:31 | 59.97040 | -122.78638 | 41002 ft | 527 kts | 125° |
| 2026-05-09 01:31 | 59.93013 | -122.66394 | 41000 ft | 528 kts | 125° |
| 2026-05-09 01:32 | 59.88969 | -122.54158 | 41017 ft | 529 kts | 125° |
| 2026-05-09 01:32 | 59.84911 | -122.41944 | 41021 ft | 529 kts | 125° |
| 2026-05-09 01:33 | 59.80843 | -122.29765 | 41024 ft | 529 kts | 126° |
| 2026-05-09 01:33 | 59.76763 | -122.17614 | 41022 ft | 529 kts | 126° |
| 2026-05-09 01:34 | 59.72670 | -122.05489 | 41021 ft | 529 kts | 126° |
| 2026-05-09 01:34 | 59.68568 | -121.93398 | 41029 ft | 529 kts | 126° |
| 2026-05-09 01:35 | 59.64453 | -121.81330 | 41028 ft | 529 kts | 126° |
| 2026-05-09 01:35 | 59.60353 | -121.69369 | 41024 ft | 529 kts | 126° |
| 2026-05-09 01:36 | 59.56217 | -121.57365 | 41016 ft | 529 kts | 126° |
| 2026-05-09 01:36 | 59.52070 | -121.45388 | 41023 ft | 529 kts | 126° |
| 2026-05-09 01:37 | 59.47913 | -121.33446 | 41029 ft | 529 kts | 126° |
| 2026-05-09 01:37 | 59.43703 | -121.21415 | 41021 ft | 531 kts | 126° |
| 2026-05-09 01:38 | 59.39534 | -121.09557 | 41027 ft | 532 kts | 126° |
| 2026-05-09 01:38 | 59.35323 | -120.97640 | 41030 ft | 532 kts | 126° |
| 2026-05-09 01:39 | 59.31099 | -120.85748 | 41028 ft | 532 kts | 126° |
| 2026-05-09 01:39 | 59.26862 | -120.73879 | 41027 ft | 532 kts | 126° |
| 2026-05-09 01:40 | 59.22613 | -120.62036 | 41025 ft | 532 kts | 126° |
| 2026-05-09 01:40 | 59.18356 | -120.50230 | 41023 ft | 532 kts | 127° |
| 2026-05-09 01:41 | 59.14089 | -120.38456 | 41027 ft | 532 kts | 127° |
| 2026-05-09 01:41 | 59.09812 | -120.26712 | 41027 ft | 532 kts | 127° |
| 2026-05-09 01:42 | 59.05523 | -120.14995 | 41023 ft | 532 kts | 127° |
| 2026-05-09 01:42 | 59.01222 | -120.03303 | 41023 ft | 532 kts | 127° |
| 2026-05-09 01:43 | 58.97035 | -119.91475 | 41029 ft | 533 kts | 123° |
| 2026-05-09 01:43 | 58.93184 | -119.79182 | 41031 ft | 535 kts | 121° |
| 2026-05-09 01:44 | 58.89340 | -119.66862 | 41030 ft | 535 kts | 122° |
| 2026-05-09 01:44 | 58.85422 | -119.54618 | 41045 ft | 535 kts | 123° |
| 2026-05-09 01:45 | 58.81463 | -119.42445 | 41040 ft | 535 kts | 123° |
| 2026-05-09 01:45 | 58.77484 | -119.30297 | 41046 ft | 536 kts | 123° |
| 2026-05-09 01:46 | 58.73498 | -119.18183 | 41046 ft | 536 kts | 123° |
| 2026-05-09 01:46 | 58.69497 | -119.06079 | 41057 ft | 536 kts | 123° |
| 2026-05-09 01:47 | 58.65488 | -118.94010 | 41058 ft | 536 kts | 123° |
| 2026-05-09 01:47 | 58.61467 | -118.81968 | 41057 ft | 536 kts | 123° |
| 2026-05-09 01:48 | 58.57433 | -118.69946 | 41063 ft | 536 kts | 123° |
| 2026-05-09 01:48 | 58.53382 | -118.57940 | 41068 ft | 538 kts | 123° |
| 2026-05-09 01:49 | 58.49308 | -118.45921 | 41070 ft | 539 kts | 123° |
| 2026-05-09 01:49 | 58.45222 | -118.33930 | 41070 ft | 539 kts | 123° |
| 2026-05-09 01:50 | 58.41144 | -118.22022 | 41071 ft | 539 kts | 123° |
| 2026-05-09 01:50 | 58.37033 | -118.10077 | 41081 ft | 539 kts | 123° |
| 2026-05-09 01:51 | 58.32912 | -117.98166 | 41081 ft | 539 kts | 124° |
| 2026-05-09 01:51 | 58.28777 | -117.86273 | 41081 ft | 539 kts | 124° |
| 2026-05-09 01:52 | 58.24631 | -117.74408 | 41084 ft | 539 kts | 124° |
| 2026-05-09 01:52 | 58.20475 | -117.62570 | 41090 ft | 539 kts | 124° |
| 2026-05-09 01:53 | 58.16308 | -117.50761 | 41094 ft | 539 kts | 124° |
| 2026-05-09 01:53 | 58.12120 | -117.38956 | 41097 ft | 541 kts | 124° |
| 2026-05-09 01:54 | 58.07914 | -117.27155 | 41092 ft | 541 kts | 124° |
| 2026-05-09 01:54 | 58.03696 | -117.15378 | 41099 ft | 542 kts | 124° |
| 2026-05-09 01:55 | 57.99465 | -117.03623 | 41095 ft | 542 kts | 124° |
| 2026-05-09 01:55 | 57.95220 | -116.91890 | 41091 ft | 542 kts | 124° |
| 2026-05-09 01:56 | 57.90966 | -116.80187 | 41092 ft | 542 kts | 124° |
| 2026-05-09 01:56 | 57.86699 | -116.68507 | 41080 ft | 542 kts | 124° |
| 2026-05-09 01:57 | 57.82417 | -116.56842 | 41075 ft | 543 kts | 124° |
| 2026-05-09 01:57 | 57.78123 | -116.45200 | 41074 ft | 543 kts | 124° |
| 2026-05-09 01:58 | 57.73819 | -116.33588 | 41070 ft | 543 kts | 124° |
| 2026-05-09 01:58 | 57.69501 | -116.21996 | 41062 ft | 544 kts | 124° |
| 2026-05-09 01:59 | 57.65164 | -116.10408 | 41068 ft | 544 kts | 124° |
| 2026-05-09 01:59 | 57.60816 | -115.98848 | 41068 ft | 544 kts | 124° |
| 2026-05-09 02:00 | 57.56453 | -115.87303 | 41067 ft | 545 kts | 124° |
| 2026-05-09 02:00 | 57.52082 | -115.75792 | 41066 ft | 545 kts | 125° |
| 2026-05-09 02:01 | 57.47726 | -115.64374 | 41063 ft | 545 kts | 125° |
| 2026-05-09 02:01 | 57.43332 | -115.52913 | 41063 ft | 545 kts | 125° |
| 2026-05-09 02:02 | 57.38929 | -115.41483 | 41062 ft | 545 kts | 125° |
| 2026-05-09 02:02 | 57.34512 | -115.30068 | 41061 ft | 545 kts | 125° |
| 2026-05-09 02:03 | 57.30085 | -115.18684 | 41084 ft | 546 kts | 125° |
| 2026-05-09 02:03 | 57.25636 | -115.07298 | 41064 ft | 547 kts | 125° |
| 2026-05-09 02:04 | 57.21174 | -114.95932 | 41066 ft | 547 kts | 125° |
| 2026-05-09 02:04 | 57.16705 | -114.84600 | 41070 ft | 547 kts | 125° |
| 2026-05-09 02:05 | 57.12221 | -114.73285 | 41066 ft | 547 kts | 125° |
| 2026-05-09 02:05 | 57.07728 | -114.61999 | 41069 ft | 547 kts | 126° |
| 2026-05-09 02:06 | 57.03223 | -114.50738 | 41075 ft | 547 kts | 126° |
| 2026-05-09 02:07 | 56.96444 | -114.33887 | 41069 ft | 547 kts | 126° |
| 2026-05-09 02:07 | 56.91912 | -114.22690 | 41064 ft | 547 kts | 126° |
| 2026-05-09 02:08 | 56.87369 | -114.11514 | 41069 ft | 548 kts | 126° |
| 2026-05-09 02:08 | 56.82807 | -114.00345 | 41066 ft | 549 kts | 126° |
| 2026-05-09 02:09 | 56.78228 | -113.89186 | 41057 ft | 549 kts | 126° |
| 2026-05-09 02:09 | 56.73639 | -113.78054 | 41043 ft | 549 kts | 126° |
| 2026-05-09 02:10 | 56.69035 | -113.66937 | 41058 ft | 551 kts | 126° |
| 2026-05-09 02:10 | 56.64410 | -113.55819 | 41060 ft | 551 kts | 126° |
| 2026-05-09 02:11 | 56.59774 | -113.44727 | 41053 ft | 551 kts | 126° |
| 2026-05-09 02:11 | 56.55914 | -113.35530 | 41048 ft | 551 kts | 126° |
| 2026-05-09 02:12 | 56.50501 | -113.22692 | 41063 ft | 551 kts | 127° |
| 2026-05-09 02:12 | 56.46594 | -113.13468 | 41063 ft | 551 kts | 127° |
| 2026-05-09 02:13 | 56.41160 | -113.00696 | 41058 ft | 551 kts | 127° |
| 2026-05-09 02:13 | 56.37237 | -112.91517 | 41059 ft | 551 kts | 127° |
| 2026-05-09 02:14 | 56.32572 | -112.80649 | 41062 ft | 551 kts | 127° |
| 2026-05-09 02:14 | 56.27839 | -112.69669 | 41061 ft | 552 kts | 127° |
| 2026-05-09 02:15 | 56.23155 | -112.58855 | 41067 ft | 552 kts | 127° |
| 2026-05-09 02:15 | 56.18432 | -112.47997 | 41061 ft | 552 kts | 127° |
| 2026-05-09 02:16 | 56.13701 | -112.37169 | 41065 ft | 552 kts | 127° |
| 2026-05-09 02:16 | 56.08954 | -112.26354 | 41067 ft | 551 kts | 127° |
| 2026-05-09 02:17 | 56.04202 | -112.15574 | 41060 ft | 552 kts | 127° |
| 2026-05-09 02:17 | 55.99488 | -112.04763 | 41101 ft | 551 kts | 125° |
| 2026-05-09 02:18 | 55.95162 | -111.93450 | 41063 ft | 552 kts | 122° |
| 2026-05-09 02:18 | 55.90922 | -111.82021 | 41085 ft | 553 kts | 122° |
| 2026-05-09 02:19 | 55.86611 | -111.70675 | 41081 ft | 553 kts | 123° |
| 2026-05-09 02:19 | 55.82243 | -111.59391 | 41082 ft | 553 kts | 123° |
| 2026-05-09 02:20 | 55.77852 | -111.48146 | 41063 ft | 553 kts | 123° |
| 2026-05-09 02:20 | 55.73454 | -111.36929 | 41072 ft | 554 kts | 124° |
| 2026-05-09 02:21 | 55.69042 | -111.25717 | 41073 ft | 554 kts | 124° |
| 2026-05-09 02:21 | 55.64616 | -111.14519 | 41084 ft | 555 kts | 124° |
| 2026-05-09 02:22 | 55.60173 | -111.03329 | 41062 ft | 556 kts | 124° |
| 2026-05-09 02:22 | 55.55711 | -110.92142 | 41060 ft | 557 kts | 124° |
| 2026-05-09 02:23 | 55.51237 | -110.80978 | 41061 ft | 558 kts | 124° |
| 2026-05-09 02:23 | 55.46746 | -110.69820 | 41060 ft | 558 kts | 124° |
| 2026-05-09 02:24 | 55.42244 | -110.58686 | 41055 ft | 558 kts | 124° |
| 2026-05-09 02:24 | 55.37764 | -110.47658 | 41052 ft | 558 kts | 124° |
| 2026-05-09 02:25 | 55.33211 | -110.36499 | 41057 ft | 558 kts | 124° |
| 2026-05-09 02:25 | 55.28708 | -110.25512 | 41080 ft | 558 kts | 124° |
| 2026-05-09 02:26 | 55.24162 | -110.14469 | 41051 ft | 558 kts | 124° |
| 2026-05-09 02:26 | 55.19607 | -110.03456 | 41050 ft | 558 kts | 124° |
| 2026-05-09 02:27 | 55.15044 | -109.92469 | 41044 ft | 558 kts | 124° |
| 2026-05-09 02:27 | 55.10467 | -109.81501 | 41044 ft | 559 kts | 125° |
| 2026-05-09 02:28 | 55.05879 | -109.70553 | 41046 ft | 559 kts | 125° |
| 2026-05-09 02:28 | 55.01284 | -109.59637 | 41052 ft | 559 kts | 125° |
| 2026-05-09 02:29 | 54.96673 | -109.48732 | 41056 ft | 559 kts | 125° |
| 2026-05-09 02:29 | 54.92048 | -109.37842 | 41060 ft | 560 kts | 125° |
| 2026-05-09 02:30 | 54.87420 | -109.26992 | 41053 ft | 559 kts | 125° |
| 2026-05-09 02:30 | 54.82783 | -109.16170 | 41056 ft | 558 kts | 125° |
| 2026-05-09 02:31 | 54.78141 | -109.05381 | 41048 ft | 559 kts | 125° |
| 2026-05-09 02:31 | 54.73483 | -108.94603 | 41050 ft | 559 kts | 125° |
| 2026-05-09 02:32 | 54.68811 | -108.83839 | 41058 ft | 560 kts | 125° |
| 2026-05-09 02:32 | 54.64129 | -108.73100 | 41056 ft | 560 kts | 126° |
| 2026-05-09 02:33 | 54.59435 | -108.62378 | 41059 ft | 560 kts | 126° |
| 2026-05-09 02:33 | 54.54763 | -108.51755 | 41067 ft | 560 kts | 126° |
| 2026-05-09 02:34 | 54.50052 | -108.41087 | 41061 ft | 559 kts | 126° |
| 2026-05-09 02:34 | 54.45338 | -108.30457 | 41058 ft | 559 kts | 126° |
| 2026-05-09 02:35 | 54.40613 | -108.19851 | 41062 ft | 559 kts | 126° |
| 2026-05-09 02:35 | 54.35880 | -108.09270 | 41056 ft | 559 kts | 126° |
| 2026-05-09 02:36 | 54.31130 | -107.98697 | 41053 ft | 560 kts | 126° |
| 2026-05-09 02:36 | 54.26372 | -107.88151 | 41045 ft | 560 kts | 126° |
| 2026-05-09 02:37 | 54.21605 | -107.77629 | 41038 ft | 560 kts | 126° |
| 2026-05-09 02:37 | 54.16826 | -107.67124 | 41040 ft | 561 kts | 126° |
| 2026-05-09 02:38 | 54.12030 | -107.56629 | 41038 ft | 561 kts | 127° |
| 2026-05-09 02:38 | 54.07231 | -107.46169 | 41031 ft | 561 kts | 127° |
| 2026-05-09 02:39 | 54.02418 | -107.35723 | 41030 ft | 561 kts | 127° |
| 2026-05-09 02:39 | 53.97596 | -107.25302 | 41026 ft | 561 kts | 127° |
| 2026-05-09 02:40 | 53.92760 | -107.14895 | 41023 ft | 562 kts | 127° |
| 2026-05-09 02:40 | 53.87910 | -107.04500 | 41023 ft | 562 kts | 127° |
| 2026-05-09 02:41 | 53.83054 | -106.94136 | 41032 ft | 562 kts | 127° |
| 2026-05-09 02:41 | 53.78188 | -106.83792 | 41022 ft | 562 kts | 127° |
| 2026-05-09 02:42 | 53.73307 | -106.73461 | 41020 ft | 562 kts | 127° |
| 2026-05-09 02:42 | 53.68418 | -106.63156 | 41018 ft | 562 kts | 127° |
| 2026-05-09 02:43 | 53.63517 | -106.52868 | 41016 ft | 562 kts | 127° |
| 2026-05-09 02:43 | 53.58610 | -106.42610 | 41011 ft | 563 kts | 127° |
| 2026-05-09 02:44 | 53.53686 | -106.32359 | 40995 ft | 563 kts | 128° |
| 2026-05-09 02:44 | 53.48786 | -106.22198 | 41004 ft | 563 kts | 128° |
| 2026-05-09 02:45 | 53.43845 | -106.11995 | 41004 ft | 563 kts | 128° |
| 2026-05-09 02:45 | 53.38902 | -106.01829 | 40997 ft | 562 kts | 128° |
| 2026-05-09 02:46 | 53.33950 | -105.91685 | 40962 ft | 562 kts | 128° |
| 2026-05-09 02:46 | 53.28990 | -105.81565 | 40941 ft | 562 kts | 128° |
| 2026-05-09 02:47 | 53.24022 | -105.71473 | 40936 ft | 563 kts | 128° |
| 2026-05-09 02:47 | 53.19035 | -105.61414 | 40927 ft | 563 kts | 129° |
| 2026-05-09 02:48 | 53.13970 | -105.51449 | 40938 ft | 563 kts | 129° |
| 2026-05-09 02:48 | 53.08886 | -105.41528 | 40974 ft | 564 kts | 129° |
| 2026-05-09 02:49 | 53.03797 | -105.31608 | 40963 ft | 563 kts | 129° |
| 2026-05-09 02:49 | 52.98720 | -105.21728 | 40979 ft | 562 kts | 129° |
| 2026-05-09 02:50 | 52.93630 | -105.11859 | 40980 ft | 563 kts | 129° |
| 2026-05-09 02:50 | 52.88535 | -105.02020 | 40971 ft | 563 kts | 129° |
| 2026-05-09 02:51 | 52.83425 | -104.92191 | 40971 ft | 563 kts | 129° |
| 2026-05-09 02:51 | 52.78309 | -104.82391 | 40968 ft | 563 kts | 129° |
| 2026-05-09 02:52 | 52.73183 | -104.72608 | 40971 ft | 564 kts | 129° |
| 2026-05-09 02:52 | 52.68040 | -104.62832 | 40967 ft | 564 kts | 130° |
| 2026-05-09 02:53 | 52.62892 | -104.53085 | 40972 ft | 564 kts | 130° |
| 2026-05-09 02:53 | 52.57735 | -104.43359 | 40965 ft | 564 kts | 130° |
| 2026-05-09 02:54 | 52.52568 | -104.33653 | 40968 ft | 564 kts | 130° |
| 2026-05-09 02:54 | 52.47394 | -104.23971 | 40960 ft | 564 kts | 130° |
| 2026-05-09 02:55 | 52.42215 | -104.14317 | 40964 ft | 564 kts | 130° |
| 2026-05-09 02:55 | 52.37024 | -104.04678 | 40959 ft | 565 kts | 130° |
| 2026-05-09 02:56 | 52.31850 | -103.95107 | 40962 ft | 566 kts | 130° |
| 2026-05-09 02:56 | 52.26634 | -103.85496 | 40949 ft | 565 kts | 130° |
| 2026-05-09 02:57 | 52.21421 | -103.75926 | 40952 ft | 564 kts | 130° |
| 2026-05-09 02:57 | 52.16196 | -103.66371 | 40941 ft | 565 kts | 130° |
| 2026-05-09 02:58 | 52.10958 | -103.56829 | 40941 ft | 565 kts | 130° |
| 2026-05-09 02:58 | 52.05709 | -103.47304 | 40942 ft | 565 kts | 131° |
| 2026-05-09 02:59 | 52.00453 | -103.37803 | 40941 ft | 565 kts | 131° |
| 2026-05-09 02:59 | 51.95189 | -103.28323 | 40963 ft | 566 kts | 131° |
| 2026-05-09 03:00 | 51.90773 | -103.20398 | 40936 ft | 565 kts | 131° |
| 2026-05-09 03:00 | 51.85536 | -103.11031 | 40934 ft | 564 kts | 131° |
| 2026-05-09 03:01 | 51.80261 | -103.01633 | 40934 ft | 564 kts | 131° |
| 2026-05-09 03:01 | 51.74975 | -102.92249 | 40928 ft | 565 kts | 131° |
| 2026-05-09 03:02 | 51.69679 | -102.82883 | 40927 ft | 565 kts | 131° |
| 2026-05-09 03:02 | 51.64379 | -102.73545 | 40920 ft | 565 kts | 131° |
| 2026-05-09 03:03 | 51.59059 | -102.64209 | 40909 ft | 565 kts | 131° |
| 2026-05-09 03:03 | 51.53735 | -102.54898 | 40917 ft | 566 kts | 131° |
| 2026-05-09 03:04 | 51.48408 | -102.45617 | 40911 ft | 565 kts | 131° |
| 2026-05-09 03:04 | 51.43079 | -102.36368 | 40906 ft | 565 kts | 131° |
| 2026-05-09 03:05 | 51.37743 | -102.27139 | 40898 ft | 565 kts | 132° |
| 2026-05-09 03:05 | 51.32394 | -102.17923 | 40899 ft | 565 kts | 132° |
| 2026-05-09 03:06 | 51.27039 | -102.08731 | 40889 ft | 565 kts | 132° |
| 2026-05-09 03:06 | 51.21671 | -101.99549 | 40889 ft | 566 kts | 132° |
| 2026-05-09 03:07 | 51.16298 | -101.90394 | 40885 ft | 565 kts | 132° |
| 2026-05-09 03:07 | 51.10925 | -101.81270 | 40875 ft | 564 kts | 132° |
| 2026-05-09 03:08 | 51.05549 | -101.72176 | 40876 ft | 564 kts | 132° |
| 2026-05-09 03:08 | 51.00167 | -101.63104 | 40875 ft | 564 kts | 132° |
| 2026-05-09 03:09 | 50.94778 | -101.54054 | 40868 ft | 564 kts | 132° |
| 2026-05-09 03:09 | 50.89380 | -101.45020 | 40869 ft | 564 kts | 133° |
| 2026-05-09 03:10 | 50.83975 | -101.36008 | 40857 ft | 565 kts | 133° |
| 2026-05-09 03:10 | 50.78558 | -101.27008 | 40852 ft | 565 kts | 133° |
| 2026-05-09 03:11 | 50.73137 | -101.18033 | 40859 ft | 565 kts | 133° |
| 2026-05-09 03:11 | 50.67703 | -101.09071 | 40860 ft | 565 kts | 133° |
| 2026-05-09 03:12 | 50.62263 | -101.00130 | 40857 ft | 565 kts | 133° |
| 2026-05-09 03:12 | 50.56813 | -100.91204 | 40857 ft | 565 kts | 133° |
| 2026-05-09 03:13 | 50.48663 | -100.77915 | 40856 ft | 565 kts | 133° |
| 2026-05-09 03:13 | 50.43196 | -100.69039 | 40884 ft | 566 kts | 133° |
| 2026-05-09 03:14 | 50.37726 | -100.60192 | 40833 ft | 564 kts | 133° |
| 2026-05-09 03:14 | 50.32269 | -100.51395 | 40842 ft | 563 kts | 133° |
| 2026-05-09 03:15 | 50.26807 | -100.42621 | 40839 ft | 563 kts | 134° |
| 2026-05-09 03:15 | 50.21334 | -100.33862 | 40834 ft | 563 kts | 134° |
| 2026-05-09 03:16 | 50.15862 | -100.25133 | 40837 ft | 563 kts | 134° |
| 2026-05-09 03:16 | 50.10372 | -100.16408 | 40835 ft | 564 kts | 134° |
| 2026-05-09 03:17 | 50.04876 | -100.07702 | 40868 ft | 564 kts | 134° |
| 2026-05-09 03:17 | 49.99764 | -99.98510 | 40837 ft | 561 kts | 121° |
| 2026-05-09 03:18 | 49.95942 | -99.87964 | 40838 ft | 560 kts | 115° |
| 2026-05-09 03:18 | 49.92395 | -99.77203 | 40835 ft | 560 kts | 114° |
| 2026-05-09 03:19 | 49.88871 | -99.66426 | 40817 ft | 560 kts | 115° |
| 2026-05-09 03:19 | 49.85310 | -99.55681 | 40822 ft | 560 kts | 115° |
| 2026-05-09 03:20 | 49.81724 | -99.44974 | 40832 ft | 559 kts | 115° |
| 2026-05-09 03:20 | 49.78129 | -99.34303 | 40834 ft | 559 kts | 115° |
| 2026-05-09 03:21 | 49.74526 | -99.23649 | 40830 ft | 559 kts | 115° |
| 2026-05-09 03:21 | 49.70913 | -99.13006 | 40829 ft | 559 kts | 115° |
| 2026-05-09 03:22 | 49.67289 | -99.02373 | 40849 ft | 559 kts | 116° |
| 2026-05-09 03:22 | 49.63658 | -98.91766 | 40826 ft | 559 kts | 116° |
| 2026-05-09 03:23 | 49.60021 | -98.81184 | 40824 ft | 559 kts | 116° |
| 2026-05-09 03:23 | 49.56374 | -98.70616 | 40823 ft | 559 kts | 116° |
| 2026-05-09 03:24 | 49.52715 | -98.60057 | 40818 ft | 559 kts | 116° |
| 2026-05-09 03:24 | 49.49046 | -98.49515 | 40818 ft | 559 kts | 116° |
| 2026-05-09 03:25 | 49.45367 | -98.38985 | 40813 ft | 559 kts | 116° |
| 2026-05-09 03:25 | 49.41703 | -98.28543 | 40812 ft | 560 kts | 116° |
| 2026-05-09 03:26 | 49.37998 | -98.18026 | 40801 ft | 560 kts | 116° |
| 2026-05-09 03:26 | 49.34281 | -98.07517 | 40801 ft | 560 kts | 116° |
| 2026-05-09 03:27 | 49.30555 | -97.97027 | 40788 ft | 560 kts | 117° |
| 2026-05-09 03:27 | 49.26821 | -97.86555 | 40785 ft | 560 kts | 117° |
| 2026-05-09 03:28 | 49.23079 | -97.76105 | 40765 ft | 560 kts | 117° |
| 2026-05-09 03:28 | 49.19326 | -97.65664 | 40766 ft | 560 kts | 117° |
| 2026-05-09 03:29 | 49.15563 | -97.55240 | 40752 ft | 560 kts | 117° |
| 2026-05-09 03:29 | 49.11790 | -97.44827 | 40753 ft | 560 kts | 117° |
| 2026-05-09 03:30 | 49.08013 | -97.34447 | 40737 ft | 560 kts | 117° |
| 2026-05-09 03:30 | 49.04226 | -97.24081 | 40738 ft | 560 kts | 117° |
| 2026-05-09 03:31 | 49.00429 | -97.13727 | 40734 ft | 560 kts | 117° |
| 2026-05-09 03:31 | 48.96621 | -97.03385 | 40771 ft | 560 kts | 117° |
| 2026-05-09 03:32 | 48.92805 | -96.93064 | 40749 ft | 559 kts | 117° |
| 2026-05-09 03:32 | 48.88989 | -96.82779 | 40753 ft | 559 kts | 117° |
| 2026-05-09 03:33 | 48.85162 | -96.72508 | 40745 ft | 558 kts | 118° |
| 2026-05-09 03:33 | 48.81356 | -96.62333 | 40744 ft | 558 kts | 118° |
| 2026-05-09 03:34 | 48.77513 | -96.52096 | 40746 ft | 558 kts | 118° |
| 2026-05-09 03:34 | 48.73662 | -96.41881 | 40734 ft | 558 kts | 118° |
| 2026-05-09 03:35 | 48.69803 | -96.31685 | 40732 ft | 558 kts | 118° |
| 2026-05-09 03:35 | 48.65940 | -96.21515 | 40734 ft | 558 kts | 118° |
| 2026-05-09 03:36 | 48.62067 | -96.11358 | 40727 ft | 558 kts | 118° |
| 2026-05-09 03:36 | 48.58185 | -96.01215 | 40732 ft | 558 kts | 118° |
| 2026-05-09 03:37 | 48.54295 | -95.91094 | 40729 ft | 557 kts | 118° |
| 2026-05-09 03:37 | 48.50400 | -95.80996 | 40710 ft | 557 kts | 119° |
| 2026-05-09 03:38 | 48.46498 | -95.70917 | 40731 ft | 557 kts | 119° |
| 2026-05-09 03:38 | 48.42586 | -95.60853 | 40733 ft | 557 kts | 119° |
| 2026-05-09 03:39 | 48.38667 | -95.50808 | 40730 ft | 556 kts | 119° |
| 2026-05-09 03:39 | 48.34742 | -95.40785 | 40728 ft | 556 kts | 119° |
| 2026-05-09 03:40 | 48.30806 | -95.30773 | 40714 ft | 556 kts | 120° |
| 2026-05-09 03:40 | 48.26866 | -95.20786 | 40732 ft | 556 kts | 120° |
| 2026-05-09 03:41 | 48.22939 | -95.10870 | 40735 ft | 556 kts | 120° |
| 2026-05-09 03:41 | 48.18979 | -95.00909 | 40724 ft | 556 kts | 120° |
| 2026-05-09 03:42 | 48.15011 | -94.90964 | 40719 ft | 556 kts | 120° |
| 2026-05-09 03:42 | 48.11035 | -94.81035 | 40710 ft | 556 kts | 120° |
| 2026-05-09 03:43 | 48.07047 | -94.71114 | 40712 ft | 556 kts | 120° |
| 2026-05-09 03:43 | 48.03053 | -94.61213 | 40718 ft | 557 kts | 120° |
| 2026-05-09 03:44 | 47.99045 | -94.51314 | 40714 ft | 557 kts | 121° |
| 2026-05-09 03:44 | 47.95029 | -94.41433 | 40719 ft | 557 kts | 121° |
| 2026-05-09 03:45 | 47.91002 | -94.31560 | 40708 ft | 557 kts | 121° |
| 2026-05-09 03:45 | 47.86969 | -94.21710 | 40724 ft | 557 kts | 121° |
| 2026-05-09 03:46 | 47.82923 | -94.11863 | 40710 ft | 557 kts | 121° |
| 2026-05-09 03:46 | 47.78869 | -94.02032 | 40713 ft | 557 kts | 121° |
| 2026-05-09 03:47 | 47.75495 | -93.93878 | 40713 ft | 557 kts | 121° |
| 2026-05-09 03:47 | 47.71424 | -93.84071 | 40708 ft | 558 kts | 121° |
| 2026-05-09 03:48 | 47.67343 | -93.74275 | 40711 ft | 558 kts | 121° |
| 2026-05-09 03:48 | 47.63252 | -93.64491 | 40705 ft | 558 kts | 121° |
| 2026-05-09 03:49 | 47.59151 | -93.54719 | 40706 ft | 558 kts | 121° |
| 2026-05-09 03:49 | 47.55038 | -93.44954 | 40705 ft | 559 kts | 122° |
| 2026-05-09 03:50 | 47.50918 | -93.35204 | 40704 ft | 559 kts | 122° |
| 2026-05-09 03:50 | 47.46793 | -93.25481 | 40691 ft | 558 kts | 122° |
| 2026-05-09 03:51 | 47.42665 | -93.15784 | 40675 ft | 557 kts | 122° |
| 2026-05-09 03:51 | 47.38534 | -93.06114 | 40670 ft | 557 kts | 122° |
| 2026-05-09 03:52 | 47.34423 | -92.96524 | 40651 ft | 557 kts | 122° |
| 2026-05-09 03:52 | 47.30251 | -92.86826 | 40669 ft | 557 kts | 122° |
| 2026-05-09 03:53 | 47.26120 | -92.77259 | 40681 ft | 557 kts | 122° |
| 2026-05-09 03:53 | 47.21959 | -92.67654 | 40680 ft | 557 kts | 122° |
| 2026-05-09 03:54 | 47.17789 | -92.58062 | 40677 ft | 557 kts | 122° |
| 2026-05-09 03:54 | 47.13611 | -92.48486 | 40673 ft | 557 kts | 123° |
| 2026-05-09 03:55 | 47.09421 | -92.38914 | 40673 ft | 557 kts | 123° |
| 2026-05-09 03:55 | 47.05226 | -92.29366 | 40668 ft | 557 kts | 123° |
| 2026-05-09 03:56 | 47.01023 | -92.19833 | 40666 ft | 557 kts | 123° |
| 2026-05-09 03:56 | 46.96817 | -92.10324 | 40665 ft | 557 kts | 123° |
| 2026-05-09 03:57 | 46.92601 | -92.00827 | 40666 ft | 556 kts | 123° |
| 2026-05-09 03:57 | 46.88383 | -91.91356 | 40659 ft | 555 kts | 123° |
| 2026-05-09 03:58 | 46.84163 | -91.81915 | 40655 ft | 555 kts | 123° |
| 2026-05-09 03:58 | 46.79938 | -91.72494 | 40658 ft | 555 kts | 123° |
| 2026-05-09 03:59 | 46.75701 | -91.63078 | 40662 ft | 555 kts | 123° |
| 2026-05-09 03:59 | 46.71455 | -91.53674 | 40667 ft | 555 kts | 124° |
| 2026-05-09 04:00 | 46.67203 | -91.44288 | 40664 ft | 555 kts | 124° |
| 2026-05-09 04:00 | 46.62941 | -91.34913 | 40664 ft | 555 kts | 124° |
| 2026-05-09 04:01 | 46.58669 | -91.25548 | 40658 ft | 555 kts | 124° |
| 2026-05-09 04:01 | 46.54394 | -91.16206 | 40657 ft | 555 kts | 124° |
| 2026-05-09 04:02 | 46.50136 | -91.06933 | 40652 ft | 556 kts | 124° |
| 2026-05-09 04:02 | 46.45838 | -90.97605 | 40653 ft | 556 kts | 124° |
| 2026-05-09 04:03 | 46.41533 | -90.88292 | 40630 ft | 556 kts | 124° |
| 2026-05-09 04:03 | 46.37220 | -90.78994 | 40653 ft | 556 kts | 124° |
| 2026-05-09 04:04 | 46.32902 | -90.69715 | 40650 ft | 556 kts | 125° |
| 2026-05-09 04:04 | 46.28578 | -90.60453 | 40650 ft | 556 kts | 125° |
| 2026-05-09 04:05 | 46.24246 | -90.51205 | 40656 ft | 556 kts | 125° |
| 2026-05-09 04:05 | 46.19904 | -90.41967 | 40653 ft | 556 kts | 125° |
| 2026-05-09 04:06 | 46.15558 | -90.32749 | 40647 ft | 555 kts | 125° |
| 2026-05-09 04:06 | 46.11210 | -90.23559 | 40653 ft | 555 kts | 125° |
| 2026-05-09 04:07 | 46.06854 | -90.14381 | 40658 ft | 555 kts | 125° |
| 2026-05-09 04:07 | 46.02489 | -90.05215 | 40658 ft | 555 kts | 125° |
| 2026-05-09 04:08 | 45.98433 | -89.95780 | 40645 ft | 555 kts | 120° |
| 2026-05-09 04:08 | 45.94755 | -89.86123 | 40634 ft | 554 kts | 119° |
| 2026-05-09 04:09 | 45.91102 | -89.76374 | 40636 ft | 554 kts | 119° |
| 2026-05-09 04:09 | 45.87436 | -89.66629 | 40637 ft | 554 kts | 119° |
| 2026-05-09 04:10 | 45.83755 | -89.56912 | 40642 ft | 554 kts | 119° |
| 2026-05-09 04:10 | 45.80060 | -89.47209 | 40649 ft | 554 kts | 119° |
| 2026-05-09 04:11 | 45.76357 | -89.37519 | 40651 ft | 554 kts | 120° |
| 2026-05-09 04:11 | 45.72647 | -89.27844 | 40655 ft | 555 kts | 120° |
| 2026-05-09 04:12 | 45.68926 | -89.18174 | 40663 ft | 554 kts | 120° |
| 2026-05-09 04:12 | 45.65203 | -89.08532 | 40668 ft | 554 kts | 120° |
| 2026-05-09 04:13 | 45.61473 | -88.98905 | 40674 ft | 554 kts | 120° |
| 2026-05-09 04:13 | 45.57733 | -88.89288 | 40675 ft | 554 kts | 120° |
| 2026-05-09 04:14 | 45.53986 | -88.79686 | 40673 ft | 554 kts | 120° |
| 2026-05-09 04:14 | 45.50228 | -88.70088 | 40666 ft | 555 kts | 120° |
| 2026-05-09 04:15 | 45.46461 | -88.60500 | 40675 ft | 555 kts | 120° |
| 2026-05-09 04:15 | 45.42684 | -88.50922 | 40678 ft | 555 kts | 121° |
| 2026-05-09 04:16 | 45.38922 | -88.41414 | 40661 ft | 555 kts | 121° |
| 2026-05-09 04:16 | 45.35130 | -88.31863 | 40669 ft | 554 kts | 121° |
| 2026-05-09 04:17 | 45.31330 | -88.22325 | 40666 ft | 555 kts | 121° |
| 2026-05-09 04:17 | 45.27524 | -88.12803 | 40668 ft | 555 kts | 121° |
| 2026-05-09 04:18 | 45.23706 | -88.03284 | 40671 ft | 555 kts | 121° |
| 2026-05-09 04:18 | 45.19883 | -87.93787 | 40679 ft | 555 kts | 121° |
| 2026-05-09 04:19 | 45.16052 | -87.84301 | 40664 ft | 554 kts | 121° |
| 2026-05-09 04:19 | 45.12212 | -87.74825 | 40672 ft | 555 kts | 122° |
| 2026-05-09 04:20 | 45.08365 | -87.65363 | 40678 ft | 555 kts | 122° |
| 2026-05-09 04:20 | 45.04500 | -87.55892 | 40676 ft | 556 kts | 122° |
| 2026-05-09 04:21 | 45.00628 | -87.46432 | 40670 ft | 556 kts | 122° |
| 2026-05-09 04:22 | 44.94808 | -87.32274 | 40708 ft | 556 kts | 122° |
| 2026-05-09 04:22 | 44.90914 | -87.22841 | 40701 ft | 557 kts | 122° |
| 2026-05-09 04:23 | 44.87005 | -87.13404 | 40697 ft | 557 kts | 122° |
| 2026-05-09 04:23 | 44.83091 | -87.03986 | 40700 ft | 557 kts | 122° |
| 2026-05-09 04:24 | 44.79195 | -86.94642 | 40709 ft | 557 kts | 122° |
| 2026-05-09 04:24 | 44.75267 | -86.85252 | 40707 ft | 557 kts | 122° |
| 2026-05-09 04:25 | 44.71330 | -86.75873 | 40716 ft | 557 kts | 122° |
| 2026-05-09 04:25 | 44.67385 | -86.66505 | 40716 ft | 557 kts | 123° |
| 2026-05-09 04:26 | 44.63434 | -86.57154 | 40718 ft | 557 kts | 123° |
| 2026-05-09 04:26 | 44.59474 | -86.47813 | 40726 ft | 557 kts | 123° |
| 2026-05-09 04:27 | 44.55502 | -86.38474 | 40712 ft | 557 kts | 123° |
| 2026-05-09 04:27 | 44.51523 | -86.29150 | 40731 ft | 558 kts | 123° |
| 2026-05-09 04:28 | 44.47532 | -86.19826 | 40730 ft | 558 kts | 123° |
| 2026-05-09 04:28 | 44.43530 | -86.10511 | 40733 ft | 559 kts | 123° |
| 2026-05-09 04:29 | 44.39518 | -86.01199 | 40739 ft | 559 kts | 123° |
| 2026-05-09 04:29 | 44.35500 | -85.91904 | 40738 ft | 559 kts | 123° |
| 2026-05-09 04:30 | 44.31474 | -85.82622 | 40744 ft | 559 kts | 123° |
| 2026-05-09 04:30 | 44.27441 | -85.73355 | 40758 ft | 559 kts | 123° |
| 2026-05-09 04:31 | 44.23422 | -85.64146 | 40758 ft | 559 kts | 123° |
| 2026-05-09 04:31 | 44.19369 | -85.54891 | 40759 ft | 559 kts | 123° |
| 2026-05-09 04:32 | 44.15310 | -85.45652 | 40760 ft | 559 kts | 124° |
| 2026-05-09 04:32 | 44.11245 | -85.36429 | 40760 ft | 559 kts | 124° |
| 2026-05-09 04:33 | 44.07174 | -85.27222 | 40775 ft | 559 kts | 124° |
| 2026-05-09 04:33 | 44.03095 | -85.18027 | 40782 ft | 559 kts | 124° |
| 2026-05-09 04:34 | 43.99009 | -85.08844 | 40785 ft | 559 kts | 124° |
| 2026-05-09 04:34 | 43.94914 | -84.99671 | 40788 ft | 558 kts | 124° |
| 2026-05-09 04:35 | 43.90817 | -84.90521 | 40768 ft | 558 kts | 124° |
| 2026-05-09 04:35 | 43.86713 | -84.81387 | 40786 ft | 558 kts | 124° |
| 2026-05-09 04:36 | 43.82599 | -84.72259 | 40784 ft | 559 kts | 125° |
| 2026-05-09 04:36 | 43.78478 | -84.63142 | 40782 ft | 559 kts | 125° |
| 2026-05-09 04:37 | 43.74352 | -84.54042 | 40786 ft | 558 kts | 125° |
| 2026-05-09 04:37 | 43.70216 | -84.44950 | 40787 ft | 558 kts | 125° |
| 2026-05-09 04:38 | 43.66776 | -84.37411 | 40782 ft | 558 kts | 125° |
| 2026-05-09 04:38 | 43.62629 | -84.28347 | 40775 ft | 559 kts | 125° |
| 2026-05-09 04:39 | 43.58472 | -84.19288 | 40808 ft | 559 kts | 125° |
| 2026-05-09 04:39 | 43.54308 | -84.10243 | 40805 ft | 559 kts | 126° |
| 2026-05-09 04:40 | 43.50139 | -84.01215 | 40804 ft | 559 kts | 126° |
| 2026-05-09 04:40 | 43.45960 | -83.92192 | 40797 ft | 559 kts | 126° |
| 2026-05-09 04:41 | 43.41773 | -83.83183 | 40798 ft | 559 kts | 126° |
| 2026-05-09 04:41 | 43.37575 | -83.74174 | 40787 ft | 560 kts | 126° |
| 2026-05-09 04:42 | 43.33365 | -83.65170 | 40796 ft | 560 kts | 126° |
| 2026-05-09 04:42 | 43.29153 | -83.56186 | 40802 ft | 560 kts | 126° |
| 2026-05-09 04:43 | 43.24960 | -83.47273 | 40806 ft | 560 kts | 126° |
| 2026-05-09 04:43 | 43.20733 | -83.38312 | 40824 ft | 560 kts | 126° |
| 2026-05-09 04:44 | 43.16495 | -83.29358 | 40814 ft | 560 kts | 126° |
| 2026-05-09 04:44 | 43.12252 | -83.20417 | 40818 ft | 560 kts | 127° |
| 2026-05-09 04:45 | 43.08003 | -83.11493 | 40815 ft | 560 kts | 127° |
| 2026-05-09 04:45 | 43.03744 | -83.02575 | 40816 ft | 560 kts | 127° |
| 2026-05-09 04:46 | 42.99478 | -82.93667 | 40805 ft | 560 kts | 127° |
| 2026-05-09 04:46 | 42.95197 | -82.84757 | 40826 ft | 561 kts | 127° |
| 2026-05-09 04:47 | 42.90907 | -82.75854 | 40826 ft | 562 kts | 127° |
| 2026-05-09 04:47 | 42.86610 | -82.66964 | 40815 ft | 562 kts | 127° |
| 2026-05-09 04:48 | 42.82395 | -82.57985 | 40816 ft | 565 kts | 121° |
| 2026-05-09 04:48 | 42.79709 | -82.47894 | 40837 ft | 571 kts | 106° |
| 2026-05-09 04:49 | 42.77878 | -82.37375 | 40840 ft | 572 kts | 104° |
| 2026-05-09 04:49 | 42.76181 | -82.26795 | 40841 ft | 572 kts | 104° |
| 2026-05-09 04:50 | 42.74456 | -82.16225 | 40852 ft | 573 kts | 104° |
| 2026-05-09 04:50 | 42.72684 | -82.05652 | 40844 ft | 574 kts | 104° |
| 2026-05-09 04:51 | 42.70889 | -81.95086 | 40863 ft | 574 kts | 105° |
| 2026-05-09 04:51 | 42.69084 | -81.84521 | 40863 ft | 574 kts | 105° |
| 2026-05-09 04:52 | 42.67272 | -81.73966 | 40852 ft | 574 kts | 105° |
| 2026-05-09 04:52 | 42.65463 | -81.63487 | 40866 ft | 574 kts | 105° |
| 2026-05-09 04:53 | 42.63630 | -81.52933 | 40866 ft | 574 kts | 105° |
| 2026-05-09 04:53 | 42.61788 | -81.42388 | 40868 ft | 574 kts | 105° |
| 2026-05-09 04:54 | 42.59937 | -81.31854 | 40867 ft | 574 kts | 105° |
| 2026-05-09 04:54 | 42.58076 | -81.21321 | 40864 ft | 574 kts | 105° |
| 2026-05-09 04:55 | 42.56204 | -81.10790 | 40872 ft | 575 kts | 105° |
| 2026-05-09 04:55 | 42.54321 | -81.00255 | 40875 ft | 574 kts | 105° |
| 2026-05-09 04:56 | 42.52430 | -80.89735 | 40871 ft | 574 kts | 105° |
| 2026-05-09 04:56 | 42.50527 | -80.79211 | 40879 ft | 575 kts | 105° |
| 2026-05-09 04:57 | 42.48613 | -80.68685 | 40885 ft | 575 kts | 105° |
| 2026-05-09 04:57 | 42.46689 | -80.58162 | 40890 ft | 576 kts | 106° |
| 2026-05-09 04:58 | 42.44754 | -80.47639 | 40889 ft | 576 kts | 106° |
| 2026-05-09 04:58 | 42.42809 | -80.37121 | 40892 ft | 576 kts | 106° |
| 2026-05-09 04:59 | 42.40854 | -80.26605 | 40894 ft | 576 kts | 106° |
| 2026-05-09 04:59 | 42.38887 | -80.16086 | 40896 ft | 576 kts | 106° |
| 2026-05-09 05:00 | 42.36910 | -80.05571 | 40898 ft | 577 kts | 106° |
| 2026-05-09 05:00 | 42.34921 | -79.95051 | 40903 ft | 578 kts | 106° |
| 2026-05-09 05:01 | 42.32921 | -79.84525 | 40905 ft | 578 kts | 107° |
| 2026-05-09 05:01 | 42.30912 | -79.74014 | 40903 ft | 578 kts | 107° |
| 2026-05-09 05:02 | 42.28892 | -79.63501 | 40908 ft | 579 kts | 107° |
| 2026-05-09 05:02 | 42.26860 | -79.52983 | 40912 ft | 579 kts | 107° |
| 2026-05-09 05:03 | 42.24820 | -79.42479 | 40902 ft | 579 kts | 107° |
| 2026-05-09 05:03 | 42.22769 | -79.31974 | 40911 ft | 579 kts | 107° |
| 2026-05-09 05:04 | 42.20707 | -79.21474 | 40914 ft | 579 kts | 107° |
| 2026-05-09 05:04 | 42.18649 | -79.11046 | 40916 ft | 579 kts | 107° |
| 2026-05-09 05:05 | 42.16244 | -79.00706 | 40917 ft | 578 kts | 112° |
| 2026-05-09 05:05 | 42.13564 | -78.90501 | 40926 ft | 578 kts | 112° |
| 2026-05-09 05:06 | 42.10906 | -78.80272 | 40932 ft | 578 kts | 111° |
| 2026-05-09 05:06 | 42.08301 | -78.70023 | 40930 ft | 579 kts | 111° |
| 2026-05-09 05:07 | 42.05710 | -78.59773 | 40935 ft | 579 kts | 111° |
| 2026-05-09 05:07 | 42.03108 | -78.49520 | 40923 ft | 579 kts | 111° |
| 2026-05-09 05:08 | 42.00492 | -78.39274 | 40937 ft | 580 kts | 112° |
| 2026-05-09 05:08 | 41.97861 | -78.29020 | 40938 ft | 580 kts | 112° |
| 2026-05-09 05:09 | 41.95219 | -78.18770 | 40940 ft | 580 kts | 112° |
| 2026-05-09 05:09 | 41.92570 | -78.08535 | 40944 ft | 580 kts | 112° |
| 2026-05-09 05:10 | 41.89910 | -77.98303 | 40946 ft | 581 kts | 112° |
| 2026-05-09 05:10 | 41.87242 | -77.88080 | 40951 ft | 580 kts | 112° |
| 2026-05-09 05:11 | 41.84567 | -77.77859 | 40961 ft | 580 kts | 112° |
| 2026-05-09 05:11 | 41.81878 | -77.67656 | 40961 ft | 580 kts | 112° |
| 2026-05-09 05:12 | 41.79179 | -77.57458 | 40960 ft | 580 kts | 112° |
| 2026-05-09 05:12 | 41.76471 | -77.47271 | 40958 ft | 580 kts | 112° |
| 2026-05-09 05:13 | 41.73758 | -77.37090 | 40954 ft | 581 kts | 112° |
| 2026-05-09 05:13 | 41.71037 | -77.26915 | 40955 ft | 580 kts | 112° |
| 2026-05-09 05:14 | 41.68306 | -77.16755 | 40934 ft | 580 kts | 112° |
| 2026-05-09 05:14 | 41.65558 | -77.06586 | 40956 ft | 582 kts | 112° |
| 2026-05-09 05:15 | 41.62800 | -76.96412 | 40955 ft | 582 kts | 112° |
| 2026-05-09 05:15 | 41.60034 | -76.86247 | 40937 ft | 582 kts | 112° |
| 2026-05-09 05:16 | 41.57259 | -76.76089 | 40949 ft | 582 kts | 113° |
| 2026-05-09 05:16 | 41.54474 | -76.65943 | 40952 ft | 582 kts | 113° |
| 2026-05-09 05:17 | 41.51702 | -76.55871 | 40957 ft | 582 kts | 113° |
| 2026-05-09 05:17 | 41.48902 | -76.45735 | 40951 ft | 582 kts | 113° |
| 2026-05-09 05:18 | 41.46106 | -76.35672 | 40962 ft | 582 kts | 113° |
| 2026-05-09 05:18 | 41.43282 | -76.25545 | 40960 ft | 582 kts | 113° |
| 2026-05-09 05:19 | 41.40452 | -76.15434 | 40963 ft | 582 kts | 113° |
| 2026-05-09 05:19 | 41.37614 | -76.05327 | 40973 ft | 582 kts | 113° |
| 2026-05-09 05:20 | 41.34769 | -75.95239 | 40963 ft | 582 kts | 114° |
| 2026-05-09 05:20 | 41.31914 | -75.85156 | 40932 ft | 582 kts | 114° |
| 2026-05-09 05:21 | 41.28685 | -75.75368 | 40961 ft | 575 kts | 126° |
| 2026-05-09 05:21 | 41.26368 | -75.71084 | 40962 ft | 566 kts | 137° |
| 2026-05-09 05:21 | 41.23569 | -75.67479 | 40964 ft | 555 kts | 148° |
| 2026-05-09 05:21 | 41.20397 | -75.64678 | 40964 ft | 542 kts | 160° |
| 2026-05-09 05:22 | 41.16983 | -75.62737 | 40970 ft | 528 kts | 171° |
| 2026-05-09 05:22 | 41.13477 | -75.61656 | 40969 ft | 514 kts | 181° |
| 2026-05-09 05:22 | 41.09932 | -75.60975 | 40971 ft | 517 kts | 178° |
| 2026-05-09 05:23 | 41.02890 | -75.58518 | 40938 ft | 526 kts | 172° |
| 2026-05-09 05:23 | 40.95876 | -75.55690 | 40939 ft | 528 kts | 172° |
| 2026-05-09 05:24 | 40.88865 | -75.52793 | 40938 ft | 528 kts | 172° |
| 2026-05-09 05:24 | 40.81853 | -75.49880 | 40907 ft | 529 kts | 172° |
| 2026-05-09 05:25 | 40.76021 | -75.47457 | 40912 ft | 529 kts | 172° |
| 2026-05-09 05:25 | 40.64342 | -75.42614 | 40912 ft | 529 kts | 172° |
| 2026-05-09 05:26 | 40.57312 | -75.39707 | 40888 ft | 530 kts | 173° |
| 2026-05-09 05:26 | 40.51418 | -75.37275 | 40890 ft | 531 kts | 173° |
| 2026-05-09 05:27 | 40.44362 | -75.34368 | 40888 ft | 531 kts | 173° |
| 2026-05-09 05:27 | 40.37319 | -75.31473 | 40852 ft | 531 kts | 173° |
| 2026-05-09 05:28 | 40.30259 | -75.28579 | 40860 ft | 531 kts | 173° |
| 2026-05-09 05:28 | 40.23227 | -75.25701 | 40870 ft | 531 kts | 173° |
| 2026-05-09 05:29 | 40.16173 | -75.22821 | 40848 ft | 532 kts | 174° |
| 2026-05-09 05:29 | 40.09144 | -75.19958 | 40849 ft | 532 kts | 174° |
| 2026-05-09 05:30 | 40.02074 | -75.17084 | 40843 ft | 532 kts | 174° |
| 2026-05-09 05:30 | 39.95007 | -75.14217 | 40834 ft | 532 kts | 174° |
| 2026-05-09 05:31 | 39.87940 | -75.11357 | 40803 ft | 532 kts | 174° |
| 2026-05-09 05:31 | 39.80872 | -75.08502 | 40800 ft | 532 kts | 174° |
| 2026-05-09 05:32 | 39.73808 | -75.05655 | 40790 ft | 532 kts | 174° |
| 2026-05-09 05:32 | 39.66733 | -75.02811 | 40784 ft | 532 kts | 174° |
| 2026-05-09 05:33 | 39.59668 | -74.99976 | 40783 ft | 532 kts | 174° |
| 2026-05-09 05:33 | 39.52578 | -74.97137 | 40789 ft | 532 kts | 174° |
| 2026-05-09 05:34 | 39.45506 | -74.94311 | 40760 ft | 532 kts | 174° |
| 2026-05-09 05:34 | 39.38434 | -74.91491 | 40764 ft | 531 kts | 174° |
| 2026-05-09 05:35 | 39.31365 | -74.88679 | 40763 ft | 531 kts | 174° |
| 2026-05-09 05:35 | 39.24302 | -74.85875 | 40714 ft | 531 kts | 175° |
| 2026-05-09 05:36 | 39.17249 | -74.83068 | 40721 ft | 532 kts | 174° |
| 2026-05-09 05:36 | 39.13781 | -74.81212 | 40769 ft | 550 kts | 163° |
| 2026-05-09 05:36 | 39.10568 | -74.78376 | 40784 ft | 573 kts | 148° |
| 2026-05-09 05:37 | 39.07822 | -74.74544 | 40784 ft | 593 kts | 133° |
| 2026-05-09 05:37 | 39.05732 | -74.69909 | 40784 ft | 607 kts | 118° |
| 2026-05-09 05:37 | 39.04433 | -74.64706 | 40784 ft | 616 kts | 103° |
| 2026-05-09 05:37 | 39.04015 | -74.59214 | 40786 ft | 619 kts | 89° |
| 2026-05-09 05:38 | 39.04509 | -74.53742 | 40810 ft | 614 kts | 73° |
| 2026-05-09 05:38 | 39.05878 | -74.48591 | 40864 ft | 605 kts | 59° |
| 2026-05-09 05:38 | 39.08029 | -74.44023 | 40866 ft | 590 kts | 44° |
| 2026-05-09 05:38 | 39.10810 | -74.40283 | 40818 ft | 567 kts | 30° |
| 2026-05-09 05:39 | 39.14000 | -74.37527 | 40447 ft | 540 kts | 15° |
| 2026-05-09 05:39 | 39.17424 | -74.35883 | 39960 ft | 512 kts | 359° |
| 2026-05-09 05:39 | 39.20844 | -74.35413 | 39548 ft | 481 kts | 344° |
| 2026-05-09 05:39 | 39.24016 | -74.36078 | 39168 ft | 448 kts | 329° |
| 2026-05-09 05:40 | 39.26723 | -74.37743 | 38778 ft | 418 kts | 313° |
| 2026-05-09 05:40 | 39.29132 | -74.39824 | 38272 ft | 424 kts | 319° |
| 2026-05-09 05:40 | 39.31827 | -74.41484 | 37761 ft | 436 kts | 324° |
| 2026-05-09 05:40 | 39.34713 | -74.42854 | 37250 ft | 446 kts | 328° |
| 2026-05-09 05:41 | 39.37813 | -74.43713 | 36696 ft | 472 kts | 341° |
| 2026-05-09 05:41 | 39.41199 | -74.43512 | 36172 ft | 504 kts | 357° |
| 2026-05-09 05:41 | 39.44644 | -74.42138 | 35704 ft | 534 kts | 12° |
| 2026-05-09 05:41 | 39.47905 | -74.39612 | 35232 ft | 561 kts | 27° |
| 2026-05-09 05:42 | 39.50811 | -74.36255 | 34786 ft | 571 kts | 34° |
| 2026-05-09 05:42 | 39.53687 | -74.32706 | 34348 ft | 570 kts | 33° |
| 2026-05-09 05:42 | 39.56600 | -74.29242 | 33938 ft | 567 kts | 32° |
| 2026-05-09 05:42 | 39.59548 | -74.25857 | 33458 ft | 565 kts | 31° |
| 2026-05-09 05:43 | 39.62513 | -74.22523 | 32999 ft | 563 kts | 31° |
| 2026-05-09 05:43 | 39.65485 | -74.19212 | 32547 ft | 562 kts | 31° |
| 2026-05-09 05:43 | 39.68452 | -74.15924 | 32095 ft | 560 kts | 31° |
| 2026-05-09 05:43 | 39.71414 | -74.12652 | 31654 ft | 559 kts | 32° |
| 2026-05-09 05:44 | 39.74368 | -74.09384 | 31225 ft | 557 kts | 32° |
| 2026-05-09 05:44 | 39.77322 | -74.06115 | 30813 ft | 556 kts | 32° |
| 2026-05-09 05:44 | 39.80262 | -74.02859 | 30441 ft | 555 kts | 33° |
| 2026-05-09 05:44 | 39.83188 | -73.99629 | 30191 ft | 547 kts | 32° |
| 2026-05-09 05:45 | 39.86300 | -73.96934 | 29987 ft | 530 kts | 21° |
| 2026-05-09 05:45 | 39.89518 | -73.94654 | 29635 ft | 527 kts | 20° |
| 2026-05-09 05:45 | 39.92773 | -73.92398 | 29058 ft | 531 kts | 20° |
| 2026-05-09 05:45 | 39.96032 | -73.90123 | 28695 ft | 531 kts | 20° |
| 2026-05-09 05:46 | 39.99273 | -73.87841 | 28436 ft | 529 kts | 20° |
| 2026-05-09 05:46 | 40.02506 | -73.85557 | 28291 ft | 526 kts | 20° |
| 2026-05-09 05:46 | 40.05771 | -73.83504 | 28070 ft | 519 kts | 16° |
| 2026-05-09 05:46 | 40.09048 | -73.81503 | 27808 ft | 524 kts | 21° |
| 2026-05-09 05:47 | 40.12034 | -73.78675 | 27594 ft | 539 kts | 36° |
| 2026-05-09 05:47 | 40.14478 | -73.74889 | 27432 ft | 551 kts | 51° |
| 2026-05-09 05:47 | 40.16204 | -73.70383 | 27270 ft | 560 kts | 66° |
| 2026-05-09 05:47 | 40.17096 | -73.65416 | 27104 ft | 565 kts | 82° |
| 2026-05-09 05:48 | 40.17087 | -73.60291 | 26975 ft | 564 kts | 97° |
| 2026-05-09 05:48 | 40.16182 | -73.55334 | 26845 ft | 560 kts | 112° |
| 2026-05-09 05:48 | 40.14445 | -73.50835 | 26706 ft | 551 kts | 128° |
| 2026-05-09 05:48 | 40.11995 | -73.47069 | 26580 ft | 539 kts | 143° |
| 2026-05-09 05:49 | 40.09004 | -73.44250 | 26473 ft | 523 kts | 158° |
| 2026-05-09 05:49 | 40.05690 | -73.42538 | 26359 ft | 505 kts | 174° |
| 2026-05-09 05:49 | 40.02283 | -73.41998 | 26244 ft | 485 kts | 189° |
| 2026-05-09 05:49 | 39.99018 | -73.42597 | 26146 ft | 467 kts | 203° |
| 2026-05-09 05:50 | 39.95935 | -73.43841 | 26035 ft | 462 kts | 207° |
| 2026-05-09 05:50 | 39.92956 | -73.45168 | 25770 ft | 436 kts | 207° |
| 2026-05-09 05:50 | 39.90259 | -73.46553 | 25171 ft | 397 kts | 217° |
| 2026-05-09 05:50 | 39.88184 | -73.48610 | 24472 ft | 359 kts | 234° |
| 2026-05-09 05:51 | 39.86905 | -73.51218 | 23770 ft | 329 kts | 252° |
| 2026-05-09 05:51 | 39.86510 | -73.54041 | 22985 ft | 311 kts | 271° |
| 2026-05-09 05:51 | 39.86968 | -73.56710 | 22312 ft | 297 kts | 287° |
| 2026-05-09 05:51 | 39.87744 | -73.59164 | 21469 ft | 290 kts | 289° |
| 2026-05-09 05:52 | 39.88563 | -73.61577 | 20163 ft | 295 kts | 290° |
| 2026-05-09 05:52 | 39.89774 | -73.63826 | 18679 ft | 317 kts | 309° |
| 2026-05-09 05:52 | 39.91706 | -73.65402 | 17192 ft | 341 kts | 331° |
| 2026-05-09 05:52 | 39.94055 | -73.66093 | 15971 ft | 349 kts | 344° |
| 2026-05-09 05:53 | 39.96433 | -73.66547 | 14899 ft | 339 kts | 341° |
| 2026-05-09 05:53 | 39.98525 | -73.67685 | 13903 ft | 317 kts | 321° |
| 2026-05-09 05:53 | 40.00033 | -73.69654 | 12767 ft | 303 kts | 301° |
| 2026-05-09 05:53 | 40.01159 | -73.71896 | 11605 ft | 297 kts | 304° |
| 2026-05-09 05:54 | 40.02737 | -73.73634 | 10464 ft | 301 kts | 327° |
| 2026-05-09 05:54 | 40.04770 | -73.74374 | 9432 ft | 314 kts | 351° |
| 2026-05-09 05:54 | 40.06974 | -73.74072 | 8729 ft | 322 kts | 6° |
| 2026-05-09 05:54 | 40.09161 | -73.73445 | 8034 ft | 322 kts | 7° |
| 2026-05-09 05:55 | 40.11348 | -73.72802 | 7324 ft | 322 kts | 7° |
| 2026-05-09 05:55 | 40.13539 | -73.72178 | 6631 ft | 323 kts | 7° |
| 2026-05-09 05:55 | 40.15738 | -73.71576 | 5908 ft | 323 kts | 7° |
| 2026-05-09 05:55 | 40.17932 | -73.70990 | 5285 ft | 320 kts | 7° |
| 2026-05-09 05:56 | 40.20100 | -73.70418 | 4806 ft | 315 kts | 7° |
| 2026-05-09 05:56 | 40.22250 | -73.69879 | 4599 ft | 315 kts | 7° |
| 2026-05-09 05:56 | 40.24385 | -73.69351 | 4412 ft | 307 kts | 7° |
| 2026-05-09 05:56 | 40.26432 | -73.68843 | 4229 ft | 291 kts | 7° |
| 2026-05-09 05:57 | 40.28377 | -73.68409 | 4030 ft | 279 kts | 4° |
| 2026-05-09 05:57 | 40.30280 | -73.67971 | 3857 ft | 277 kts | 9° |
| 2026-05-09 05:57 | 40.32141 | -73.67317 | 3675 ft | 277 kts | 14° |
| 2026-05-09 05:57 | 40.33959 | -73.66491 | 3507 ft | 276 kts | 18° |
| 2026-05-09 05:58 | 40.35741 | -73.65566 | 3327 ft | 275 kts | 20° |
| 2026-05-09 05:58 | 40.37496 | -73.64589 | 3154 ft | 274 kts | 20° |
| 2026-05-09 05:58 | 40.39244 | -73.63580 | 3020 ft | 274 kts | 21° |
| 2026-05-09 05:58 | 40.40982 | -73.62556 | 2868 ft | 273 kts | 21° |
| 2026-05-09 05:59 | 40.42706 | -73.61528 | 2720 ft | 271 kts | 22° |
| 2026-05-09 05:59 | 40.44414 | -73.60504 | 2548 ft | 270 kts | 22° |
| 2026-05-09 05:59 | 40.46118 | -73.59479 | 2405 ft | 269 kts | 22° |
| 2026-05-09 05:59 | 40.47801 | -73.58463 | 2245 ft | 260 kts | 22° |
| 2026-05-09 06:00 | 40.49411 | -73.57516 | 2082 ft | 246 kts | 19° |
| 2026-05-09 06:00 | 40.51017 | -73.57029 | 2004 ft | 231 kts | 359° |
| 2026-05-09 06:00 | 40.52582 | -73.57301 | 2002 ft | 226 kts | 338° |
| 2026-05-09 06:00 | 40.53934 | -73.58283 | 2005 ft | 221 kts | 320° |
| 2026-05-09 06:01 | 40.54959 | -73.59745 | 2006 ft | 214 kts | 300° |
| 2026-05-09 06:01 | 40.55655 | -73.61389 | 1999 ft | 199 kts | 295° |
| 2026-05-09 06:01 | 40.56328 | -73.62955 | 2001 ft | 193 kts | 298° |
| 2026-05-09 06:01 | 40.56998 | -73.64400 | 1994 ft | 179 kts | 298° |
| 2026-05-09 06:02 | 40.57627 | -73.65774 | 2021 ft | 169 kts | 298° |
| 2026-05-09 06:02 | 40.58187 | -73.67004 | 1987 ft | 149 kts | 297° |
| 2026-05-09 06:02 | 40.58703 | -73.68145 | 1813 ft | 144 kts | 297° |
| 2026-05-09 06:02 | 40.59214 | -73.69274 | 1610 ft | 144 kts | 297° |
| 2026-05-09 06:03 | 40.59716 | -73.70378 | 1401 ft | 135 kts | 297° |
| 2026-05-09 06:03 | 40.60186 | -73.71416 | 1239 ft | 130 kts | 297° |
| 2026-05-09 06:03 | 40.60648 | -73.72464 | 1080 ft | 137 kts | 297° |
| 2026-05-09 06:03 | 40.61134 | -73.73531 | 828 ft | 135 kts | 298° |
| 2026-05-09 06:04 | 40.61611 | -73.74592 | 642 ft | 136 kts | 299° |
| 2026-05-09 06:04 | 40.62104 | -73.75658 | 424 ft | 140 kts | 299° |
| 2026-05-09 06:04 | 40.62600 | -73.76771 | 234 ft | 144 kts | 300° |
| 2026-05-09 06:04 | 40.63131 | -73.77922 | 47 ft | 143 kts | 301° |
| 2026-05-09 06:05 | 40.63621 | -73.78989 | 29 ft | 116 kts | 301° |
| 2026-05-09 06:05 | 40.63889 | -73.79579 | 27 ft | 50 kts | 302° |
| 2026-05-09 06:05 | 40.64076 | -73.79943 | 29 ft | 10 kts | 339° |
| 2026-05-09 06:05 | 40.64100 | -73.79928 | 28 ft | 10 kts | 45° |
| 2026-05-09 06:06 | 40.64154 | -73.79791 | 28 ft | 12 kts | 63° |
| 2026-05-09 06:06 | 40.64163 | -73.79754 | 27 ft | 16 kts | 71° |
| 2026-05-09 06:06 | 40.64192 | -73.79570 | 27 ft | 11 kts | 72° |
| 2026-05-09 06:06 | 40.64197 | -73.79550 | 27 ft | 5 kts | 70° |
| 2026-05-09 06:07 | 40.64208 | -73.79486 | 27 ft | 9 kts | 88° |
| 2026-05-09 06:07 | 40.64196 | -73.79400 | 27 ft | 9 kts | 109° |
| 2026-05-09 06:07 | 40.64182 | -73.79342 | 27 ft | 0 kts | 108° |
| 2026-05-09 06:07 | 40.64178 | -73.79325 | 27 ft | 3 kts | 108° |
| 2026-05-09 06:08 | 40.64176 | -73.79318 | 27 ft | 0 kts | 108° |
| 2026-05-09 06:08 | 40.64175 | -73.79313 | 27 ft | 0 kts | 108° |
| 2026-05-09 06:25 | 40.64039 | -73.78591 | 27 ft | 0 kts | 254° |
| 2026-05-09 06:26 | 40.64160 | -73.78353 | 26 ft | 0 kts | 61° |
| 2026-05-09 06:27 | 40.64107 | -73.78303 | 26 ft | 0 kts | 60° |